Provisional Data: North Branch Muddy Creek near Muddy Creek Forks, PA


Please select a monitoring station.
Please select start date.
Please select start date.

Toggle Unit: C/F Toggle Unit: C/F
Sample Time Temperature (C) Temperature (F) Specific Conductivity (mS/cm) pH   Turbidity (NTU+) DO (mg/L)
8/9/2021 12:00:00 AM 22.75 72.95 0.174 7.24 2.68 6.53
8/9/2021 12:15:00 AM 22.66 72.788 0.174 7.23 3.33 6.52
8/9/2021 12:30:00 AM 22.54 72.57201 0.174 7.22 4.43 6.45
8/9/2021 12:45:00 AM 22.43 72.374 0.174 7.21 7.2 6.54
8/9/2021 1:00:00 AM 22.34 72.212 0.174 7.2 7.53 6.59
8/9/2021 1:15:00 AM 22.22 71.996 0.174 7.19 13.95 6.67
8/9/2021 1:30:00 AM 22.14 71.852 0.174 7.2 46.52 6.56
8/9/2021 1:45:00 AM 22.05 71.69 0.174 7.19 4.58 6.51
8/9/2021 2:00:00 AM 21.97 71.546 0.174 7.19 5.9 6.66
8/9/2021 2:15:00 AM 21.87 71.366 0.174 7.2 14.95 6.65
8/9/2021 2:30:00 AM 21.8 71.24 0.174 7.17 53.59 6.69
8/9/2021 2:45:00 AM 21.7 71.06 0.174 7.2 4.05 6.61
8/9/2021 3:00:00 AM 21.62 70.916 0.174 7.21 3.67 6.65
8/9/2021 3:15:00 AM 21.54 70.772 0.174 7.2 7.71 6.65
8/9/2021 3:30:00 AM 21.47 70.646 0.174 7.19 13.9 6.72
8/9/2021 3:45:00 AM 21.38 70.484 0.174 7.19 17.82 6.75
8/9/2021 4:00:00 AM 21.3 70.34 0.174 7.18 5.72 6.78
8/9/2021 4:15:00 AM 21.22 70.196 0.174 7.18 15.48 6.72
8/9/2021 4:30:00 AM 21.17 70.106 0.174 7.18 11.99 6.79
8/9/2021 4:45:00 AM 21.09 69.962 0.174 7.18 5.65 6.85
8/9/2021 5:00:00 AM 21 69.8 0.174 7.16 4.37 6.81
8/9/2021 5:15:00 AM 20.94 69.692 0.174 7.16 8.28 6.82
8/9/2021 5:30:00 AM 20.87 69.566 0.174 7.16 5.67 6.81
8/9/2021 5:45:00 AM 20.79 69.422 0.174 7.17 17.05 6.89
8/9/2021 6:00:00 AM 20.72 69.296 0.174 7.16 33.73 6.79
8/9/2021 6:15:00 AM 20.67 69.206 0.174 7.15 43.74 6.92
8/9/2021 6:30:00 AM 20.62 69.116 0.173 7.16 4.26 6.93
8/9/2021 6:45:00 AM 20.53 68.954 0.174 7.16 28.85 6.89
8/9/2021 7:00:00 AM 20.46 68.828 0.174 7.15 8.28 6.65
8/9/2021 7:15:00 AM 20.43 68.774 0.174 7.14 14.23 6.86
8/9/2021 7:30:00 AM 20.39 68.702 0.173 7.15 8.74 6.85
8/9/2021 7:45:00 AM 20.34 68.612 0.173 7.14 112.2 6.81
8/9/2021 8:00:00 AM 20.33 68.594 0.173 7.15 17.72 6.91
8/9/2021 8:15:00 AM 20.32 68.576 0.173 7.13 120.4 7.1
8/9/2021 8:30:00 AM 20.32 68.576 0.173 7.12 8.07 6.94
8/9/2021 8:45:00 AM 20.34 68.612 0.173 7.15 20.89 7.05
8/9/2021 9:00:00 AM 20.37 68.666 0.173 7.13 6.55 7.09
8/9/2021 9:15:00 AM 20.42 68.756 0.173 7.15 6.04 7.15
8/9/2021 9:30:00 AM 20.46 68.828 0.173 7.17 3.32 7.39
8/9/2021 9:45:00 AM 20.54 68.972 0.172 7.16 11.07 7.58
8/9/2021 10:00:00 AM 20.6 69.08 0.172 7.19 419.8 7.68
8/9/2021 10:15:00 AM 20.66 69.188 0.172 7.2 260.1 7.84
8/9/2021 10:30:00 AM 20.71 69.278 0.171 7.22 3.13 8.02
8/9/2021 10:45:00 AM 20.78 69.404 0.171 7.23 2.51 8.03
8/9/2021 11:00:00 AM 20.86 69.548 0.17 7.24 1.97 8.09
8/9/2021 11:15:00 AM 20.94 69.692 0.17 7.23 409.5 8.07
8/9/2021 11:30:00 AM 21.02 69.836 0.17 7.29 5.03 8.18
8/9/2021 11:45:00 AM 21.09 69.962 0.17 7.31 2.79 8.45
8/9/2021 12:00:00 PM 21.26 70.268 0.17 7.31 2.22 8.42
8/9/2021 12:15:00 PM 21.41 70.538 0.169 7.34 422.9 8.62
8/9/2021 12:30:00 PM 21.63 70.934 0.169 7.39 219.9 8.59
8/9/2021 12:45:00 PM 21.87 71.366 0.169 7.41 15.58 8.79
8/9/2021 1:00:00 PM 22.18 71.924 0.168 7.46 24.18 8.9
8/9/2021 1:15:00 PM 22.46 72.42799 0.169 7.5 127.9 8.98
8/9/2021 1:30:00 PM 22.79 73.022 0.168 7.51 17.45 8.92
8/9/2021 1:45:00 PM 23.11 73.598 0.168 7.55 1.36 8.89
8/9/2021 2:00:00 PM 23.48 74.264 0.168 7.57 12.86 8.99
8/9/2021 2:15:00 PM 23.73 74.714 0.168 7.63 3.31 9.11
8/9/2021 2:30:00 PM 24.06 75.308 0.168 7.66 1.86 8.95
8/9/2021 2:45:00 PM 24.23 75.614 0.168 7.69 2.6 9.04
8/9/2021 3:00:00 PM 24.37 75.866 0.168 7.73 6.63 9.09
8/9/2021 3:15:00 PM 24.5 76.1 0.168 7.76 3.57 8.94
8/9/2021 3:30:00 PM 24.75 76.55 0.168 7.79 39.79 8.91
8/9/2021 3:45:00 PM 24.96 76.92799 0.168 7.8 1.46 8.8
8/9/2021 4:00:00 PM 25.13 77.234 0.168 7.82 16.1 8.81
8/9/2021 4:15:00 PM 25.25 77.45 0.168 7.81 24.45 8.67
8/9/2021 4:30:00 PM 25.29 77.522 0.168 7.82 4.67 8.62
8/9/2021 4:45:00 PM 25.33 77.594 0.168 7.83 1.34 8.48
8/9/2021 5:00:00 PM 25.38 77.684 0.169 7.81 72.15 8.35
8/9/2021 5:15:00 PM 25.39 77.702 0.169 7.8 6.9 8.01
8/9/2021 5:30:00 PM 25.39 77.702 0.169 7.77 10.25 8.11
8/9/2021 5:45:00 PM 25.37 77.666 0.169 7.72 63.83 7.5
8/9/2021 6:00:00 PM 25.35 77.63 0.169 7.7 59.29 7.22
8/9/2021 6:15:00 PM 25.34 77.612 0.17 7.68 86.48 6.88
8/9/2021 6:30:00 PM 25.31 77.558 0.17 7.65 1.3 7.02
8/9/2021 6:45:00 PM 25.28 77.504 0.17 7.63 3.24 7.25
8/9/2021 7:00:00 PM 25.23 77.414 0.17 7.61 155.8 7.28
8/9/2021 7:15:00 PM 25.21 77.378 0.17 7.59 22.35 7.14
8/9/2021 7:30:00 PM 25.19 77.342 0.17 7.59 2.23 7.05
8/9/2021 7:45:00 PM 25.14 77.252 0.17 7.53 26.5 6.98
8/9/2021 8:00:00 PM 25.07 77.126 0.17 7.47 147.2 6.91
8/9/2021 8:15:00 PM 24.96 76.92799 0.171 7.46 2.16 6.78
8/9/2021 8:30:00 PM 24.89 76.802 0.171 7.43 2.1 6.81
8/9/2021 8:45:00 PM 24.77 76.586 0.172 7.43 11.99 6.76
8/9/2021 9:00:00 PM 24.64 76.352 0.172 7.42 2.09 6.72
8/9/2021 9:15:00 PM 24.53 76.154 0.172 7.39 2.3 6.65
8/9/2021 9:30:00 PM 24.4 75.92 0.172 7.33 67.11 6.45
8/9/2021 9:45:00 PM 24.28 75.704 0.173 7.3 22.84 6.43
8/9/2021 10:00:00 PM 24.15 75.47 0.173 7.27 7.44 6.34
8/9/2021 10:15:00 PM 24.03 75.254 0.173 7.25 11.56 6.28
8/9/2021 10:30:00 PM 23.91 75.038 0.172 7.26 6.85 6.35
8/9/2021 10:45:00 PM 23.78 74.804 0.173 7.23 41.98 6.37
8/9/2021 11:00:00 PM 23.69 74.642 0.173 7.22 41.13 6.26
8/9/2021 11:15:00 PM 23.57 74.426 0.173 7.18 9.17 6.22
8/9/2021 11:30:00 PM 23.44 74.192 0.173 7.19 5.92 6.19
8/9/2021 11:45:00 PM 23.36 74.048 0.173 7.18 13.16 6.34
8/10/2021 12:00:00 AM 23.27 73.886 0.174 7.19 32.6 6.21
8/10/2021 12:15:00 AM 23.16 73.688 0.174 7.17 10.43 6.37
8/10/2021 12:30:00 AM 23.06 73.508 0.174 7.17 102.9 6.3
8/10/2021 12:45:00 AM 22.98 73.364 0.174 7.16 9.09 6.29
8/10/2021 1:00:00 AM 22.89 73.202 0.173 7.18 9.25 6.32
8/10/2021 1:15:00 AM 22.8 73.04 0.174 7.19 33.99 6.33
8/10/2021 1:30:00 AM 22.72 72.896 0.174 7.17 34.27 6.33
8/10/2021 1:45:00 AM 22.65 72.77 0.174 7.17 13.39 6.3
8/10/2021 2:00:00 AM 22.57 72.626 0.174 7.17 13.94 6.36
8/10/2021 2:15:00 AM 22.5 72.5 0.174 7.16 6.41 6.34
8/10/2021 2:30:00 AM 22.43 72.374 0.174 7.16 16.75 6.35
8/10/2021 2:45:00 AM 22.36 72.248 0.174 7.17 28.62 6.47
8/10/2021 3:00:00 AM 22.32 72.176 0.174 7.16 15.68 6.51
8/10/2021 3:15:00 AM 22.24 72.032 0.174 7.18 9.41 6.42
8/10/2021 3:30:00 AM 22.2 71.96 0.174 7.19 8.93 6.51
8/10/2021 3:45:00 AM 22.15 71.87 0.174 7.19 13.94 6.44
8/10/2021 4:00:00 AM 22.11 71.798 0.174 7.17 56.83 6.51
8/10/2021 4:15:00 AM 22.07 71.726 0.174 7.17 4.7 6.42
8/10/2021 4:30:00 AM 22.03 71.654 0.174 7.16 4.92 6.44
8/10/2021 4:45:00 AM 21.98 71.564 0.174 7.16 6.81 6.52
8/10/2021 5:00:00 AM 21.95 71.51 0.174 7.16 4.63 6.52
8/10/2021 5:15:00 AM 21.91 71.438 0.174 7.15 8.4 6.62
8/10/2021 5:30:00 AM 21.87 71.366 0.174 7.15 7.76 6.57
8/10/2021 5:45:00 AM 21.84 71.312 0.174 7.15 8.13 6.58
8/10/2021 6:00:00 AM 21.8 71.24 0.174 7.13 9.84 6.48
8/10/2021 6:15:00 AM 21.76 71.168 0.174 7.12 20.86 6.61
8/10/2021 6:30:00 AM 21.74 71.132 0.174 7.11 49.5 6.62
8/10/2021 6:45:00 AM 21.72 71.096 0.174 7.1 35.18 6.5
8/10/2021 7:00:00 AM 21.69 71.042 0.174 7.1 7.33 6.41
8/10/2021 7:15:00 AM 21.68 71.024 0.174 7.08 39.21 6.58
8/10/2021 7:30:00 AM 21.67 71.006 0.174 7.08 10.79 6.58
8/10/2021 7:45:00 AM 21.66 70.988 0.174 7.09 3.94 6.54
8/10/2021 8:00:00 AM 21.65 70.97 0.174 7.07 4.69 5.87
8/10/2021 8:15:00 AM 21.65 70.97 0.174 7.07 10.25 6.49
8/10/2021 8:30:00 AM 21.65 70.97 0.174 7.07 15.04 6.7
8/10/2021 8:45:00 AM 21.65 70.97 0.173 7.08 2.96 6.81
8/10/2021 9:00:00 AM 21.65 70.97 0.173 7.07 4.08 6.75
8/10/2021 9:15:00 AM 21.67 71.006 0.173 7.07 6.99 6.8
8/10/2021 9:30:00 AM 21.7 71.06 0.173 7.06 8.74 6.71
8/10/2021 9:45:00 AM 21.73 71.114 0.173 7.11 10.54 7
8/10/2021 10:00:00 AM 21.78 71.204 0.173 7.12 4.94 7.15
8/10/2021 10:15:00 AM 21.84 71.312 0.172 7.13 11.12 7.22
8/10/2021 10:30:00 AM 21.89 71.402 0.172 7.14 4.25 7.44
8/10/2021 10:45:00 AM 21.96 71.528 0.172 7.15 3.63 7.45
8/10/2021 11:00:00 AM 22.08 71.744 0.171 7.15 60.08 7.6
8/10/2021 11:15:00 AM 22.16 71.888 0.171 7.15 3.96 7.63
8/10/2021 11:30:00 AM 22.33 72.194 0.171 7.19 108.4 7.93
8/10/2021 11:45:00 AM 22.5 72.5 0.17 7.21 47.96 8.12
8/10/2021 12:00:00 PM 22.57 72.626 0.171 7.24 3.31 8.29
8/10/2021 12:15:00 PM 22.83 73.094 0.17 7.28 12.84 8.29
8/10/2021 12:30:00 PM 23.03 73.454 0.17 7.28 4.67 8.39
8/10/2021 12:45:00 PM 23.28 73.904 0.17 7.32 4.09 8.57
8/10/2021 1:00:00 PM 23.55 74.39 0.17 7.32 13.89 8.68
8/10/2021 1:15:00 PM 23.8 74.84 0.17 7.38 10.79 8.81
8/10/2021 1:30:00 PM 24.24 75.632 0.169 7.46 73.64 8.77
8/10/2021 1:45:00 PM 24.54 76.172 0.169 7.47 10.03 8.71
8/10/2021 2:00:00 PM 24.91 76.838 0.169 7.51 4.91 8.68
8/10/2021 2:15:00 PM 25.32 77.576 0.169 7.5 1866 8.7
8/10/2021 2:30:00 PM 25.67 78.206 0.169 7.54 3.11 8.78
8/10/2021 2:45:00 PM 25.92 78.656 0.169 7.54 2.37 8.88
8/10/2021 3:00:00 PM 26.08 78.944 0.169 7.58 2.41 8.68
8/10/2021 3:15:00 PM 26.33 79.394 0.169 7.59 6.07 8.68
8/10/2021 3:30:00 PM 26.51 79.718 0.169 7.63 7.44 8.65
8/10/2021 3:45:00 PM 26.64 79.952 0.169 7.66 12.39 8.53
8/10/2021 4:00:00 PM 26.7 80.06 0.169 7.7 11.94 8.42
8/10/2021 4:15:00 PM 26.81 80.258 0.169 7.75 3.58 8.38
8/10/2021 4:30:00 PM 26.86 80.348 0.169 7.74 2.02 8.14
8/10/2021 4:45:00 PM 26.88 80.384 0.17 7.78 4.21 8.19
8/10/2021 5:00:00 PM 26.91 80.438 0.17 7.8 13.98 8.06
8/10/2021 5:15:00 PM 26.9 80.42 0.17 7.83 2.46 8.04
8/10/2021 5:30:00 PM 26.9 80.42 0.17 7.79 3.64 7.94
8/10/2021 5:45:00 PM 26.89 80.402 0.17 7.8 2.68 7.66
8/10/2021 6:00:00 PM 26.88 80.384 0.17 7.8 3.16 7.62
8/10/2021 6:15:00 PM 26.85 80.33 0.17 7.79 1.9 7.53
8/10/2021 6:30:00 PM 26.79 80.222 0.171 7.71 3.88 7.2
8/10/2021 6:45:00 PM 26.73 80.114 0.171 7.66 13.03 7.2
8/10/2021 7:00:00 PM 26.69 80.042 0.171 7.58 2.36 6.87
8/10/2021 7:15:00 PM 26.6 79.88 0.172 7.56 2.06 6.78
8/10/2021 7:30:00 PM 26.19 79.142 0.169 7.52 12.12 6.66
8/10/2021 7:45:00 PM 26.07 78.926 0.166 7.45 13.61 6.58
8/10/2021 8:00:00 PM 25.94 78.692 0.166 7.4 8.55 6.41
8/10/2021 8:15:00 PM 25.78 78.404 0.166 7.38 7.27 6.36
8/10/2021 8:30:00 PM 25.6 78.08 0.165 7.35 6.63 6.29
8/10/2021 8:45:00 PM 25.45 77.81 0.163 7.3 6.66 6.14
8/10/2021 9:00:00 PM 25.33 77.594 0.163 7.26 26.13 5.98
8/10/2021 9:15:00 PM 25.19 77.342 0.163 7.26 28.03 5.97
8/10/2021 9:30:00 PM 25.06 77.108 0.165 7.23 6.36 5.97
8/10/2021 9:45:00 PM 24.92 76.856 0.165 7.23 15.01 6.05
8/10/2021 10:00:00 PM 24.78 76.604 0.167 7.23 7.55 6.03
8/10/2021 10:15:00 PM 24.61 76.298 0.168 7.22 10.99 6.01
8/10/2021 10:30:00 PM 24.47 76.046 0.168 7.19 7.2 6.07
8/10/2021 10:45:00 PM 24.35 75.83 0.167 7.19 7.63 6.09
8/10/2021 11:00:00 PM 24.22 75.596 0.167 7.17 6.27 6.06
8/10/2021 11:15:00 PM 24.11 75.398 0.166 7.19 6.79 6.09
8/10/2021 11:30:00 PM 24 75.2 0.165 7.16 7.61 6.13
8/10/2021 11:45:00 PM 23.9 75.02 0.165 7.17 13.27 6.16
8/11/2021 12:00:00 AM 23.8 74.84 0.164 7.15 19.1 6.15
8/11/2021 12:15:00 AM 23.65 74.57 0.164 7.12 25.71 6.29
8/11/2021 12:30:00 AM 23.56 74.408 0.164 7.11 15.64 6.3
8/11/2021 12:45:00 AM 23.47 74.246 0.162 7.12 21.46 6.27
8/11/2021 1:00:00 AM 23.36 74.048 0.16 7.11 32.12 6.28
8/11/2021 1:15:00 AM 23.28 73.904 0.16 7.12 24.89 6.35
8/11/2021 1:30:00 AM 23.18 73.724 0.159 7.14 24.83 6.46
8/11/2021 1:45:00 AM 23.11 73.598 0.159 7.11 36.33 6.47
8/11/2021 2:00:00 AM 23.02 73.436 0.16 7.12 17.89 6.49
8/11/2021 2:15:00 AM 22.94 73.292 0.16 7.13 19.13 6.5
8/11/2021 2:30:00 AM 22.86 73.148 0.16 7.12 123.1 6.47
8/11/2021 2:45:00 AM 22.8 73.04 0.161 7.12 12.75 6.5
8/11/2021 3:00:00 AM 22.72 72.896 0.161 7.09 15.44 6.55
8/11/2021 3:15:00 AM 22.67 72.806 0.162 7.1 10.29 6.54
8/11/2021 3:30:00 AM 22.61 72.698 0.162 7.1 12.08 6.53
8/11/2021 3:45:00 AM 22.54 72.57201 0.163 7.09 10.41 6.56
8/11/2021 4:00:00 AM 22.49 72.482 0.164 7.09 11.33 6.57
8/11/2021 4:15:00 AM 22.43 72.374 0.164 7.1 11.89 6.58
8/11/2021 4:30:00 AM 22.36 72.248 0.165 7.11 16.48 6.53
8/11/2021 4:45:00 AM 22.3 72.14 0.166 7.11 26.51 6.57
8/11/2021 5:00:00 AM 22.23 72.014 0.166 7.12 5.78 6.59
8/11/2021 5:15:00 AM 22.16 71.888 0.166 7.12 187.7 6.68
8/11/2021 5:30:00 AM 22.1 71.78 0.167 7.1 34.28 6.61
8/11/2021 5:45:00 AM 22.05 71.69 0.166 7.12 9.09 6.42
8/11/2021 6:00:00 AM 22.01 71.618 0.167 7.13 12.09 6.55
8/11/2021 6:15:00 AM 21.96 71.528 0.167 7.11 33.63 6.49
8/11/2021 6:30:00 AM 21.9 71.42 0.167 7.11 281.1 6.63
8/11/2021 6:45:00 AM 21.87 71.366 0.167 7.1 6.71 6.19
8/11/2021 7:00:00 AM 21.83 71.294 0.167 7.08 6.91 6.35
8/11/2021 7:15:00 AM 21.8 71.24 0.167 7.07 10.04 6.5
8/11/2021 7:30:00 AM 21.77 71.186 0.167 7.08 6.65 6.27
8/11/2021 7:45:00 AM 21.74 71.132 0.167 7.07 32.75 6.35
8/11/2021 8:00:00 AM 21.72 71.096 0.167 7.06 23.55 6.37
8/11/2021 8:15:00 AM 21.71 71.078 0.166 7.08 5.82 6.66
8/11/2021 8:30:00 AM 21.71 71.078 0.166 7.09 15.15 6.44
8/11/2021 8:45:00 AM 21.72 71.096 0.165 7.09 13.57 6.52
8/11/2021 9:00:00 AM 21.73 71.114 0.165 7.08 10.48 6.39
8/11/2021 9:15:00 AM 21.75 71.15 0.165 7.09 20.22 6.58
8/11/2021 9:30:00 AM 21.78 71.204 0.165 7.1 7.39 6.78
8/11/2021 9:45:00 AM 21.81 71.258 0.164 7.1 8.13 6.88
8/11/2021 10:00:00 AM 21.86 71.348 0.164 7.12 21.08 7.06
8/11/2021 10:15:00 AM 21.91 71.438 0.164 7.12 6.46 6.93
8/11/2021 10:30:00 AM 21.99 71.582 0.164 7.13 29.59 7.07
8/11/2021 10:45:00 AM 22.08 71.744 0.164 7.13 6.57 7.07
8/11/2021 11:00:00 AM 22.19 71.942 0.164 7.13 23.92 7.21
8/11/2021 11:15:00 AM 22.3 72.14 0.164 7.17 56.43 7.33
8/11/2021 11:30:00 AM 22.47 72.446 0.164 7.19 4.9 7.37
8/11/2021 11:45:00 AM 22.64 72.752 0.165 7.19 13.92 7.33
8/11/2021 12:00:00 PM 22.9 73.22 0.165 7.22 8.21 7.71
8/11/2021 12:15:00 PM 23.14 73.652 0.165 7.21 14.1 7.61
8/11/2021 12:30:00 PM 23.45 74.21 0.165 7.24 7.84 7.8
8/11/2021 12:45:00 PM 23.74 74.732 0.166 7.28 14.3 7.98
8/11/2021 1:00:00 PM 24.19 75.542 0.165 7.29 14.54 8.05
8/11/2021 1:15:00 PM 24.57 76.226 0.165 7.32 6.94 8.03
8/11/2021 1:30:00 PM 24.89 76.802 0.165 7.35 8.62 8.2
8/11/2021 1:45:00 PM 25.28 77.504 0.165 7.38 4.65 8.16
8/11/2021 2:00:00 PM 25.74 78.332 0.165 7.39 6.28 8.29
8/11/2021 2:15:00 PM 26.11 78.998 0.165 7.41 4.5 8.3
8/11/2021 2:30:00 PM 26.46 79.628 0.165 7.43 4.99 8.38
8/11/2021 2:45:00 PM 26.77 80.186 0.165 7.45 12.65 8.27
8/11/2021 3:00:00 PM 26.99 80.582 0.165 7.47 4.3 8.15
8/11/2021 3:15:00 PM 27.18 80.924 0.165 7.49 10.3 8.28
8/11/2021 3:30:00 PM 27.36 81.248 0.165 7.51 4.32 8.13
8/11/2021 3:45:00 PM 27.55 81.59 0.165 7.53 17.2 8.18
8/11/2021 4:00:00 PM 27.69 81.842 0.166 7.54 4.03 8.02
8/11/2021 4:15:00 PM 27.82 82.076 0.166 7.56 3.84 7.9
8/11/2021 4:30:00 PM 27.9 82.22 0.166 7.58 4.9 7.91
8/11/2021 4:45:00 PM 27.92 82.256 0.167 7.58 4.89 7.71
8/11/2021 5:00:00 PM 27.89 82.202 0.167 7.6 4.98 7.71
8/11/2021 5:15:00 PM 27.84 82.112 0.168 7.59 5.29 4.6
8/11/2021 5:30:00 PM 27.75 81.95 0.168 7.54 33.42 4.65
8/11/2021 5:45:00 PM 27.65 81.77 0.169 7.52 15.45 6.15
8/11/2021 6:00:00 PM 27.5 81.5 0.169 7.47 18.77 6.6
8/11/2021 6:15:00 PM 27.35 81.23 0.17 7.44 17.12 6.24
8/11/2021 6:30:00 PM 27.22 80.996 0.17 7.42 13.69 6.07
8/11/2021 6:45:00 PM 27.08 80.744 0.171 7.4 5.68 6.44
8/11/2021 7:00:00 PM 26.97 80.546 0.171 7.37 6.05 6.27
8/11/2021 7:15:00 PM 26.77 80.186 0.171 7.35 16.82 5.99
8/11/2021 7:30:00 PM 26.67 80.006 0.171 7.33 21.01 6
8/11/2021 7:45:00 PM 26.51 79.718 0.172 7.31 8.9 5.92
8/11/2021 8:00:00 PM 26.38 79.484 0.172 7.26 30.52 5.93
8/11/2021 8:15:00 PM 26.22 79.196 0.173 7.26 6.43 5.88
8/11/2021 8:30:00 PM 26.08 78.944 0.173 7.23 24.9 6.04
8/11/2021 8:45:00 PM 25.95 78.71 0.173 7.24 8.09 5.9
8/11/2021 9:00:00 PM 25.82 78.476 0.174 7.22 6.07 5.78
8/11/2021 9:15:00 PM 25.64 78.152 0.174 7.2 7.31 5.86
8/11/2021 9:30:00 PM 25.5 77.9 0.175 7.21 10.56 5.85
8/11/2021 9:45:00 PM 25.33 77.594 0.175 7.2 10.15 5.83
8/11/2021 10:00:00 PM 25.18 77.324 0.176 7.18 8.7 5.88
8/11/2021 10:15:00 PM 25.04 77.07201 0.176 7.18 8.76 5.94
8/11/2021 10:30:00 PM 24.89 76.802 0.177 7.18 8.66 5.91
8/11/2021 10:45:00 PM 24.78 76.604 0.177 7.18 13.73 5.86
8/11/2021 11:00:00 PM 24.66 76.388 0.177 7.17 9.19 5.95
8/11/2021 11:15:00 PM 24.57 76.226 0.178 7.16 6.79 5.92
8/11/2021 11:30:00 PM 24.44 75.992 0.178 7.15 13.79 5.94
8/11/2021 11:45:00 PM 24.35 75.83 0.179 7.16 8.75 6.01
8/12/2021 12:00:00 AM 24.24 75.632 0.179 7.15 10.76 5.99
8/12/2021 12:15:00 AM 24.17 75.506 0.179 7.16 10.01 6.02
8/12/2021 12:30:00 AM 24.07 75.326 0.179 7.16 10.68 6.01
8/12/2021 12:45:00 AM 24 75.2 0.18 7.15 9.47 5.98
8/12/2021 1:00:00 AM 23.91 75.038 0.18 7.14 16.99 6.01
8/12/2021 1:15:00 AM 23.83 74.894 0.18 7.14 15.09 5.96
8/12/2021 1:30:00 AM 23.74 74.732 0.18 7.14 9.18 6.2
8/12/2021 1:45:00 AM 23.66 74.588 0.18 7.14 10.56 6.02
8/12/2021 2:00:00 AM 23.58 74.444 0.18 7.12 20.08 6.01
8/12/2021 2:15:00 AM 23.5 74.3 0.18 7.11 20.3 5.93
8/12/2021 2:30:00 AM 23.41 74.138 0.18 7.1 7.15 6.13
8/12/2021 2:45:00 AM 23.33 73.994 0.18 7.12 8.37 6.33
8/12/2021 3:00:00 AM 23.25 73.85 0.179 7.11 8.84 6.43
8/12/2021 3:15:00 AM 23.2 73.76 0.177 7.12 44.65 6.23
8/12/2021 3:30:00 AM 23.14 73.652 0.176 7.1 11.84 6.22
8/12/2021 3:45:00 AM 23.06 73.508 0.175 7.12 6.05 6.26
8/12/2021 4:00:00 AM 23.01 73.418 0.177 7.13 7.5 6.25
8/12/2021 4:15:00 AM 22.97 73.346 0.175 7.13 10.42 6.29
8/12/2021 4:30:00 AM 22.9 73.22 0.177 7.14 9.16 6.21
8/12/2021 4:45:00 AM 22.85 73.13 0.173 7.14 11 6.2
8/12/2021 5:00:00 AM 22.8 73.04 0.174 7.14 45.86 6.1
8/12/2021 5:15:00 AM 22.75 72.95 0.172 7.11 35.5 6.14
8/12/2021 5:30:00 AM 22.69 72.842 0.176 7.11 12.03 6.13
8/12/2021 5:45:00 AM 22.63 72.734 0.171 7.09 8.14 6.3
8/12/2021 6:00:00 AM 22.57 72.626 0.175 7.08 58.45 6.39
8/12/2021 6:15:00 AM 22.53 72.554 0.172 7.06 7.98 6.31
8/12/2021 6:30:00 AM 22.47 72.446 0.174 7.08 7.69 6.31
8/12/2021 6:45:00 AM 22.4 72.32 0.17 7.11 10.64 6.41
8/12/2021 7:00:00 AM 22.35 72.23 0.173 7.09 50.98 6.49
8/12/2021 7:15:00 AM 22.31 72.158 0.17 7.09 7.81 6.49
8/12/2021 7:30:00 AM 22.26 72.068 0.171 7.08 6.8 6.42
8/12/2021 7:45:00 AM 22.22 71.996 0.171 7.08 5.33 5.95
8/12/2021 8:00:00 AM 22.2 71.96 0.172 7.09 5.71 6.13
8/12/2021 8:15:00 AM 22.16 71.888 0.169 7.1 7.98 6.5
8/12/2021 8:30:00 AM 22.15 71.87 0.172 7.07 38.14 6.41
8/12/2021 8:45:00 AM 22.14 71.852 0.166 7.06 9.78 6.38
8/12/2021 9:00:00 AM 22.14 71.852 0.17 7.08 13.14 6.74
8/12/2021 9:15:00 AM 22.15 71.87 0.17 7.06 7.14 6.7
8/12/2021 9:30:00 AM 22.17 71.906 0.167 7.06 4.78 6.59
8/12/2021 9:45:00 AM 22.19 71.942 0.169 7.07 5.47 6.66
8/12/2021 10:00:00 AM 22.23 72.014 0.165 7.07 15.9 6.72
8/12/2021 10:15:00 AM 22.29 72.122 0.168 7.09 7.8 6.88
8/12/2021 10:30:00 AM 22.36 72.248 0.168 7.1 331.8 7
8/12/2021 10:45:00 AM 22.41 72.338 0.165 7.12 6.77 7.1
8/12/2021 11:00:00 AM 22.54 72.57201 0.168 7.12 8.05 6.98
8/12/2021 11:15:00 AM 22.68 72.824 0.169 7.11 5.25 6.96
8/12/2021 11:30:00 AM 22.84 73.112 0.167 7.13 19.05 7.25
8/12/2021 11:45:00 AM 23.02 73.436 0.168 7.16 4.47 7.44
8/12/2021 12:00:00 PM 23.23 73.814 0.166 7.14 422.6 7.57
8/12/2021 12:15:00 PM 23.5 74.3 0.166 7.19 6.03 7.71
8/12/2021 12:30:00 PM 23.81 74.858 0.165 7.21 5.56 7.87
8/12/2021 12:45:00 PM 24.1 75.38 0.165 7.23 3.91 7.87
8/12/2021 1:00:00 PM 24.46 76.028 0.163 7.22 5.02 7.97
8/12/2021 1:15:00 PM 24.83 76.694 0.162 7.25 3.43 8.05
8/12/2021 1:30:00 PM 25.22 77.396 0.165 7.28 10.88 8.14
8/12/2021 1:45:00 PM 25.58 78.044 0.165 7.27 4.34 7.68
8/12/2021 2:00:00 PM 26.03 78.854 0.164 7.28 3.73 8
8/12/2021 2:15:00 PM 26.53 79.754 0.164 7.3 3.8 8.2
8/12/2021 2:30:00 PM 26.97 80.546 0.164 7.32 3.76 8.31
8/12/2021 2:45:00 PM 27.41 81.338 0.165 7.34 18.09 8.33
8/12/2021 3:00:00 PM 27.61 81.698 0.163 7.35 3.55 8.27
8/12/2021 3:15:00 PM 27.85 82.13 0.165 7.37 3.56 8.34
8/12/2021 3:30:00 PM 28.08 82.544 0.165 7.4 3.95 8.11
8/12/2021 3:45:00 PM 28.25 82.85 0.165 7.43 5.96 8.06
8/12/2021 4:00:00 PM 28.33 82.994 0.164 7.46 3.75 8.09
8/12/2021 4:15:00 PM 28.35 83.03 0.166 7.48 3.68 7.91
8/12/2021 4:30:00 PM 28.35 83.03 0.164 7.5 3.94 7.71
8/12/2021 4:45:00 PM 28.37 83.066 0.166 7.49 6.3 7.55
8/12/2021 5:00:00 PM 28.35 83.03 0.166 7.46 4.99 6.7
8/12/2021 5:15:00 PM 28.32 82.976 0.168 7.42 3.69 6.11
8/12/2021 5:30:00 PM 28.32 82.976 0.168 7.36 4.2 6.39
8/12/2021 5:45:00 PM 28.3 82.94 0.169 7.32 3.73 6.39
8/12/2021 6:00:00 PM 28.24 82.832 0.169 7.3 80.71 6.69
8/12/2021 6:15:00 PM 28.17 82.706 0.169 7.26 4.95 6.71
8/12/2021 6:30:00 PM 28.09 82.562 0.169 7.26 4.06 6.63
8/12/2021 6:45:00 PM 28 82.4 0.169 7.26 4.31 6.63
8/12/2021 7:00:00 PM 27.93 82.274 0.169 7.25 3.87 6.57
8/12/2021 7:15:00 PM 27.86 82.148 0.169 7.22 8.68 6.36
8/12/2021 7:30:00 PM 27.78 82.004 0.169 7.23 6.03 6.1
8/12/2021 7:45:00 PM 27.69 81.842 0.17 7.21 4.46 6.08
8/12/2021 8:00:00 PM 27.57 81.626 0.17 7.21 5.95 6.04
8/12/2021 8:15:00 PM 27.46 81.42799 0.171 7.2 6.9 6.1
8/12/2021 8:30:00 PM 27.33 81.194 0.17 7.19 4.22 5.67
8/12/2021 8:45:00 PM 27.19 80.942 0.171 7.16 4.02 5.8
8/12/2021 9:00:00 PM 27.09 80.762 0.17 7.18 4.77 5.71
8/12/2021 9:15:00 PM 26.93 80.474 0.171 7.14 7.15 5.51
8/12/2021 9:30:00 PM 26.8 80.24 0.171 7.15 7.46 5.65
8/12/2021 9:45:00 PM 26.69 80.042 0.171 7.12 9.58 5.44
8/12/2021 10:00:00 PM 26.53 79.754 0.172 7.12 12.49 5.52
8/12/2021 10:15:00 PM 26.4 79.52 0.172 7.1 12.05 5.89
8/12/2021 10:30:00 PM 26.27 79.286 0.172 7.09 8.16 5.49
8/12/2021 10:45:00 PM 26.13 79.034 0.172 7.08 21.24 5.52
8/12/2021 11:00:00 PM 25.98 78.764 0.172 7.09 10.01 5.73
8/12/2021 11:15:00 PM 25.88 78.584 0.172 7.09 25.57 5.54
8/12/2021 11:30:00 PM 25.75 78.35 0.172 7.09 26.21 5.67
8/12/2021 11:45:00 PM 25.65 78.17 0.173 7.1 22.05 5.58
8/13/2021 12:00:00 AM 25.54 77.972 0.173 7.1 17.63 5.55
8/13/2021 12:15:00 AM 25.44 77.792 0.172 7.12 14.37 5.72
8/13/2021 12:30:00 AM 25.36 77.648 0.173 7.11 17.55 5.71
8/13/2021 12:45:00 AM 25.26 77.468 0.173 7.11 11.44 5.62
8/13/2021 1:00:00 AM 25.16 77.288 0.173 7.13 7.86 5.66
8/13/2021 1:15:00 AM 25.09 77.162 0.173 7.13 14.62 5.86
8/13/2021 1:30:00 AM 25.01 77.018 0.173 7.13 21.83 5.87
8/13/2021 1:45:00 AM 24.9 76.82 0.173 7.13 23.7 5.91
8/13/2021 2:00:00 AM 24.82 76.676 0.173 7.15 20.32 5.94
8/13/2021 2:15:00 AM 24.73 76.514 0.173 7.15 10.61 5.93
8/13/2021 2:30:00 AM 24.64 76.352 0.173 7.13 12.29 5.87
8/13/2021 2:45:00 AM 24.56 76.208 0.173 7.14 9.3 5.85
8/13/2021 3:00:00 AM 24.44 75.992 0.173 7.13 11.04 5.91
8/13/2021 3:15:00 AM 24.37 75.866 0.174 7.13 9.32 5.67
8/13/2021 3:30:00 AM 24.31 75.758 0.174 7.1 10.65 5.27
8/13/2021 3:45:00 AM 24.21 75.578 0.174 7.08 9.96 5.28
8/13/2021 4:00:00 AM 24.13 75.434 0.174 7.07 9.76 5.45
8/13/2021 4:15:00 AM 24.06 75.308 0.174 7.07 8.72 5.57
8/13/2021 4:30:00 AM 23.94 75.092 0.173 7.07 22.66 5.79
8/13/2021 4:45:00 AM 23.88 74.984 0.173 7.07 12.75 5.67
8/13/2021 5:00:00 AM 23.8 74.84 0.173 7.08 11.29 5.76
8/13/2021 5:15:00 AM 23.71 74.67799 0.173 7.07 10.24 5.69
8/13/2021 5:30:00 AM 23.61 74.498 0.173 7.06 17.62 5.8
8/13/2021 5:45:00 AM 23.53 74.354 0.172 7.07 13.11 5.89
8/13/2021 6:00:00 AM 23.46 74.228 0.172 7.08 15.79 5.85
8/13/2021 6:15:00 AM 23.38 74.084 0.172 7.08 9.43 5.81
8/13/2021 6:30:00 AM 23.3 73.94 0.172 7.08 8.14 5.89
8/13/2021 6:45:00 AM 23.22 73.796 0.172 7.08 8.49 5.95
8/13/2021 7:00:00 AM 23.16 73.688 0.172 7.08 11.56 5.88
8/13/2021 7:15:00 AM 23.08 73.544 0.172 7.08 11.28 5.88
8/13/2021 7:30:00 AM 23.01 73.418 0.172 7.08 7.71 5.87
8/13/2021 7:45:00 AM 22.95 73.31 0.172 7.08 8.64 6.02
8/13/2021 8:00:00 AM 22.87 73.166 0.172 7.08 9.69 6.2
8/13/2021 8:15:00 AM 22.84 73.112 0.172 7.09 7.64 6.05
8/13/2021 8:30:00 AM 22.79 73.022 0.172 7.08 15.23 6.05
8/13/2021 8:45:00 AM 22.76 72.968 0.172 7.08 10.46 6
8/13/2021 9:00:00 AM 22.73 72.914 0.172 7.08 7.83 6.07
8/13/2021 9:15:00 AM 22.72 72.896 0.172 7.07 8.68 6.62
8/13/2021 9:30:00 AM 22.72 72.896 0.172 7.08 5.81 6.79
8/13/2021 9:45:00 AM 22.74 72.932 0.172 7.09 5.73 6.86
8/13/2021 10:00:00 AM 22.77 72.986 0.172 7.1 6.55 6.9
8/13/2021 10:15:00 AM 22.81 73.058 0.172 7.12 5.83 7.01
8/13/2021 10:30:00 AM 22.87 73.166 0.173 7.12 6.28 6.86
8/13/2021 10:45:00 AM 22.92 73.256 0.173 7.12 9.92 6.81
8/13/2021 11:00:00 AM 22.99 73.382 0.172 7.13 6.13 6.87
8/13/2021 11:15:00 AM 23.09 73.562 0.172 7.15 13.87 6.83
8/13/2021 11:30:00 AM 23.23 73.814 0.172 7.17 7.3 6.98
8/13/2021 11:45:00 AM 23.38 74.084 0.172 7.18 4.27 7.1
8/13/2021 12:00:00 PM 23.6 74.48 0.171 7.16 4.56 7.23
8/13/2021 12:15:00 PM 23.82 74.876 0.17 7.15 4.72 7.33
8/13/2021 12:30:00 PM 24.12 75.416 0.17 7.17 4.21 7.55
8/13/2021 12:45:00 PM 24.45 76.01 0.17 7.2 3.53 7.69
8/13/2021 1:00:00 PM 24.7 76.46 0.17 7.23 4.51 7.84
8/13/2021 1:15:00 PM 25.09 77.162 0.169 7.24 42.6 7.83
8/13/2021 1:30:00 PM 25.43 77.774 0.169 7.24 7.05 7.93
8/13/2021 1:45:00 PM 25.84 78.512 0.169 7.24 5.39 7.9
8/13/2021 2:00:00 PM 26.32 79.376 0.169 7.27 5.11 8
8/13/2021 2:15:00 PM 26.79 80.222 0.169 7.3 5.45 8.21
8/13/2021 2:30:00 PM 27.27 81.086 0.169 7.29 5.91 8.21
8/13/2021 2:45:00 PM 27.64 81.752 0.169 7.28 7.65 8.03
8/13/2021 3:00:00 PM 27.84 82.112 0.17 7.27 8.37 8.14
8/13/2021 3:15:00 PM 28.06 82.508 0.17 7.3 6.3 7.98
8/13/2021 3:30:00 PM 28.28 82.904 0.17 7.34 6.32 8.05
8/13/2021 3:45:00 PM 28.43 83.174 0.17 7.37 5.21 7.95
8/13/2021 4:00:00 PM 28.57 83.426 0.17 7.37 6.04 7.85
8/13/2021 4:15:00 PM 28.61 83.498 0.171 7.38 5.1 7.63
8/13/2021 4:30:00 PM 28.65 83.57 0.171 7.37 5.06 7.56
8/13/2021 4:45:00 PM 28.62 83.51601 0.172 7.36 213.1 7.46
8/13/2021 5:00:00 PM 28.47 83.24599 0.172 7.39 6.11 7.54
8/13/2021 5:15:00 PM 28.27 82.886 0.172 7.42 6.52 7.09
8/13/2021 5:30:00 PM 28.03 82.454 0.172 7.39 10.91 6.72
8/13/2021 5:45:00 PM 27.86 82.148 0.172 7.37 5.38 6.32
8/13/2021 6:00:00 PM 27.73 81.914 0.173 7.37 4.71 6.43
8/13/2021 6:15:00 PM 27.57 81.626 0.173 7.37 5.21 6.25
8/13/2021 6:30:00 PM 27.41 81.338 0.172 7.36 5.34 6
8/13/2021 6:45:00 PM 27.27 81.086 0.172 7.35 4.25 6.01
8/13/2021 7:00:00 PM 27.13 80.834 0.171 7.33 5.23 5.95
8/13/2021 7:15:00 PM 27.03 80.654 0.171 7.32 4.73 5.83
8/13/2021 7:30:00 PM 26.91 80.438 0.172 7.31 4.73 5.71
8/13/2021 7:45:00 PM 26.8 80.24 0.172 7.3 5.55 5.75
8/13/2021 8:00:00 PM 26.66 79.988 0.172 7.27 11.4 5.37
8/13/2021 8:15:00 PM 26.54 79.772 0.173 7.25 5.22 5.57
8/13/2021 8:30:00 PM 26.39 79.502 0.174 7.24 5.26 5.79
8/13/2021 8:45:00 PM 26.23 79.214 0.174 7.24 4.57 5.82
8/13/2021 9:00:00 PM 26.06 78.908 0.173 7.24 5.55 5.83
8/13/2021 9:15:00 PM 25.9 78.62 0.173 7.24 5.22 5.82
8/13/2021 9:30:00 PM 25.74 78.332 0.172 7.23 6.19 5.88
8/13/2021 9:45:00 PM 25.61 78.098 0.172 7.23 6.71 5.89
8/13/2021 10:00:00 PM 25.47 77.846 0.172 7.23 6.75 5.88
8/13/2021 10:15:00 PM 25.31 77.558 0.172 7.22 6.4 5.87
8/13/2021 10:30:00 PM 25.19 77.342 0.172 7.2 5.89 5.88
8/13/2021 10:45:00 PM 25.05 77.09 0.172 7.19 6.25 5.94
8/13/2021 11:00:00 PM 24.91 76.838 0.172 7.18 9.96 5.89
8/13/2021 11:15:00 PM 24.82 76.676 0.172 7.16 7.29 5.9
8/13/2021 11:30:00 PM 24.72 76.496 0.172 7.16 8.27 6.01
8/13/2021 11:45:00 PM 24.63 76.334 0.171 7.16 6.36 5.99
8/14/2021 12:00:00 AM 24.53 76.154 0.17 7.14 9.82 5.65
8/14/2021 12:15:00 AM 24.45 76.01 0.169 7.13 8.79 5.66
8/14/2021 12:30:00 AM 24.36 75.848 0.169 7.11 10.1 5.65
8/14/2021 12:45:00 AM 24.28 75.704 0.169 7.1 11.38 5.69
8/14/2021 1:00:00 AM 24.2 75.56 0.169 7.09 10.56 5.56
8/14/2021 1:15:00 AM 24.12 75.416 0.169 7.09 8.8 5.56
8/14/2021 1:30:00 AM 24.04 75.272 0.169 7.07 9.69 5.77
8/14/2021 1:45:00 AM 23.97 75.146 0.169 7.08 8.18 5.61
8/14/2021 2:00:00 AM 23.88 74.984 0.169 7.09 11.77 5.67
8/14/2021 2:15:00 AM 23.81 74.858 0.169 7.08 10.67 5.69
8/14/2021 2:30:00 AM 23.72 74.696 0.169 7.08 14.36 5.71
8/14/2021 2:45:00 AM 23.67 74.606 0.169 7.07 28.33 5.76
8/14/2021 3:00:00 AM 23.6 74.48 0.169 7.07 12.24 5.7
8/14/2021 3:15:00 AM 23.53 74.354 0.169 7.07 16.62 5.72
8/14/2021 3:30:00 AM 23.47 74.246 0.17 7.07 10.93 5.73
8/14/2021 3:45:00 AM 23.41 74.138 0.17 7.08 12.76 5.77
8/14/2021 4:00:00 AM 23.35 74.03 0.17 7.08 14.11 5.1
8/14/2021 4:15:00 AM 23.28 73.904 0.171 7.09 11.95 5.83
8/14/2021 4:30:00 AM 23.23 73.814 0.171 7.1 11.75 6.16
8/14/2021 4:45:00 AM 23.17 73.706 0.172 7.12 10.4 6.23
8/14/2021 5:00:00 AM 23.11 73.598 0.171 7.13 10.35 6.29
8/14/2021 5:15:00 AM 23.07 73.526 0.171 7.14 11.79 6.3
8/14/2021 5:30:00 AM 23.01 73.418 0.171 7.13 14.88 6.02
8/14/2021 5:45:00 AM 22.98 73.364 0.171 7.11 15.6 6.11
8/14/2021 6:00:00 AM 22.92 73.256 0.171 7.11 11.58 6.06
8/14/2021 6:15:00 AM 22.88 73.184 0.171 7.11 10.61 6.39
8/14/2021 6:30:00 AM 22.83 73.094 0.172 7.11 18.58 6.16
8/14/2021 6:45:00 AM 22.78 73.004 0.172 7.12 14.67 5.89
8/14/2021 7:00:00 AM 22.74 72.932 0.172 7.11 14.59 6.13
8/14/2021 7:15:00 AM 22.7 72.86 0.172 7.09 15.73 6.06
8/14/2021 7:30:00 AM 22.66 72.788 0.172 7.09 15.66 6.01
8/14/2021 7:45:00 AM 22.62 72.716 0.171 7.11 18.72 6.12
8/14/2021 8:00:00 AM 22.58 72.644 0.171 7.09 11.06 6.11
8/14/2021 8:15:00 AM 22.55 72.59 0.171 7.09 12.39 6.15
8/14/2021 8:30:00 AM 22.52 72.536 0.171 7.09 11.43 6.33
8/14/2021 8:45:00 AM 22.51 72.518 0.171 7.11 13.37 6.38
8/14/2021 9:00:00 AM 22.5 72.5 0.171 7.1 18.98 6.36
8/14/2021 9:15:00 AM 22.5 72.5 0.171 7.09 17.78 6.25
8/14/2021 9:30:00 AM 22.52 72.536 0.171 7.1 26.61 6.35
8/14/2021 9:45:00 AM 22.54 72.57201 0.171 7.11 16.66 6.49
8/14/2021 10:00:00 AM 22.58 72.644 0.171 7.11 14.05 6.52
8/14/2021 10:15:00 AM 22.66 72.788 0.171 7.1 15.88 6.49
8/14/2021 10:30:00 AM 22.71 72.878 0.171 7.12 15.99 6.69
8/14/2021 10:45:00 AM 22.79 73.022 0.171 7.13 12.69 7.11
8/14/2021 11:00:00 AM 22.89 73.202 0.171 7.14 14.82 6.88
8/14/2021 11:15:00 AM 23.01 73.418 0.171 7.14 15.07 7.17
8/14/2021 11:30:00 AM 23.08 73.544 0.17 7.15 12.52 7.37
8/14/2021 11:45:00 AM 23.14 73.652 0.17 7.17 13.64 7.36
8/14/2021 12:00:00 PM 23.22 73.796 0.17 7.18 15.9 7.4
8/14/2021 12:15:00 PM 23.35 74.03 0.169 7.17 14.34 7.25
8/14/2021 12:30:00 PM 23.53 74.354 0.169 7.18 13.83 7.4
8/14/2021 12:45:00 PM 23.76 74.768 0.168 7.19 13.44 7.86
8/14/2021 1:00:00 PM 23.96 75.128 0.168 7.22 13.67 8.12
8/14/2021 1:15:00 PM 24.2 75.56 0.167 7.26 14.55 8.26
8/14/2021 1:30:00 PM 24.41 75.938 0.167 7.29 13.06 8.1
8/14/2021 1:45:00 PM 24.59 76.262 0.167 7.31 12.76 8.09
8/14/2021 2:00:00 PM 24.76 76.568 0.167 7.32 12.77 8.43
8/14/2021 2:15:00 PM 24.81 76.658 0.168 7.31 12.93 8.29
8/14/2021 2:30:00 PM 24.95 76.91 0.168 7.33 20.09 8.16
8/14/2021 2:45:00 PM 24.97 76.946 0.168 7.35 15.31 7.91
8/14/2021 3:00:00 PM 25.05 77.09 0.169 7.35 12.76 7.69
8/14/2021 3:15:00 PM 25.17 77.306 0.169 7.34 13.09 7.6
8/14/2021 3:30:00 PM 25.23 77.414 0.169 7.34 14.33 7.67
8/14/2021 3:45:00 PM 25.36 77.648 0.169 7.34 14.53 7.85
8/14/2021 4:00:00 PM 25.49 77.882 0.169 7.35 14.26 7.97
8/14/2021 4:15:00 PM 25.58 78.044 0.168 7.41 14.03 8.05
8/14/2021 4:30:00 PM 25.62 78.116 0.169 7.44 13.95 7.93
8/14/2021 4:45:00 PM 25.67 78.206 0.169 7.44 26.23 7.92
8/14/2021 5:00:00 PM 25.69 78.242 0.169 7.48 15.47 7.95
8/14/2021 5:15:00 PM 25.7 78.26 0.169 7.46 13.48 7.47
8/14/2021 5:30:00 PM 25.71 78.278 0.169 7.45 14.39 7.68
8/14/2021 5:45:00 PM 25.72 78.296 0.169 7.43 16.98 7.19
8/14/2021 6:00:00 PM 25.72 78.296 0.169 7.41 13.63 6.98
8/14/2021 6:15:00 PM 25.69 78.242 0.169 7.36 14.29 6.81
8/14/2021 6:30:00 PM 25.63 78.134 0.17 7.36 25.97 6.57
8/14/2021 6:45:00 PM 25.58 78.044 0.17 7.34 23.46 6.45
8/14/2021 7:00:00 PM 25.53 77.954 0.17 7.31 16.42 6.31
8/14/2021 7:15:00 PM 25.47 77.846 0.171 7.28 28.26 6.24
8/14/2021 7:30:00 PM 25.4 77.72 0.171 7.27 23.89 6.27
8/14/2021 7:45:00 PM 25.32 77.576 0.171 7.28 29.55 6.21
8/14/2021 8:00:00 PM 25.26 77.468 0.171 7.27 15.84 6.21
8/14/2021 8:15:00 PM 25.17 77.306 0.171 7.26 16.34 5.99
8/14/2021 8:30:00 PM 25.12 77.216 0.171 7.26 25.78 6.23
8/14/2021 8:45:00 PM 25.05 77.09 0.172 7.26 14.28 6.15
8/14/2021 9:00:00 PM 24.95 76.91 0.172 7.26 17.82 6.14
8/14/2021 9:15:00 PM 24.89 76.802 0.172 7.27 16.17 6.24
8/14/2021 9:30:00 PM 24.85 76.73 0.173 7.25 15.74 6.16
8/14/2021 9:45:00 PM 24.77 76.586 0.173 7.24 18.73 6.13
8/14/2021 10:00:00 PM 24.72 76.496 0.173 7.23 21.05 6.11
8/14/2021 10:15:00 PM 24.64 76.352 0.173 7.22 20.11 5.99
8/14/2021 10:30:00 PM 24.58 76.244 0.173 7.22 17.82 5.85
8/14/2021 10:45:00 PM 24.49 76.082 0.174 7.2 18.38 6.21
8/14/2021 11:00:00 PM 24.41 75.938 0.174 7.21 21.34 6.22
8/14/2021 11:15:00 PM 24.34 75.812 0.174 7.2 20.44 6.22
8/14/2021 11:30:00 PM 24.24 75.632 0.174 7.18 35.45 6.08
8/14/2021 11:45:00 PM 24.14 75.452 0.174 7.18 32.18 6.02
8/15/2021 12:00:00 AM 24.06 75.308 0.174 7.17 37.56 6.04
8/15/2021 12:15:00 AM 23.97 75.146 0.174 7.16 32.11 5.92
8/15/2021 12:30:00 AM 23.91 75.038 0.174 7.16 23.96 5.95
8/15/2021 12:45:00 AM 23.81 74.858 0.174 7.16 22.79 6
8/15/2021 1:00:00 AM 23.71 74.67799 0.174 7.14 21.14 6.1
8/15/2021 1:15:00 AM 23.62 74.516 0.174 7.16 23.32 6.25
8/15/2021 1:30:00 AM 23.58 74.444 0.174 7.16 19.12 5.72
8/15/2021 1:45:00 AM 23.49 74.282 0.174 7.15 20.06 5.93
8/15/2021 2:00:00 AM 23.39 74.102 0.174 7.15 22.83 6.25
8/15/2021 2:15:00 AM 23.32 73.976 0.174 7.15 18.96 6.33
8/15/2021 2:30:00 AM 23.25 73.85 0.174 7.15 23.86 6.05
8/15/2021 2:45:00 AM 23.13 73.634 0.174 7.16 20.35 6.09
8/15/2021 3:00:00 AM 23.05 73.49 0.173 7.15 27.81 6.25
8/15/2021 3:15:00 AM 23.01 73.418 0.173 7.15 38.03 6.26
8/15/2021 3:30:00 AM 22.93 73.274 0.173 7.14 36.35 6.04
8/15/2021 3:45:00 AM 22.87 73.166 0.173 7.13 23.67 5.96
8/15/2021 4:00:00 AM 22.77 72.986 0.173 7.13 25.62 5.94
8/15/2021 4:15:00 AM 22.68 72.824 0.173 7.13 21.07 6.06
8/15/2021 4:30:00 AM 22.6 72.68 0.173 7.12 23.91 6.33
8/15/2021 4:45:00 AM 22.58 72.644 0.173 7.14 24.86 6.32
8/15/2021 5:00:00 AM 22.5 72.5 0.173 7.13 24.9 6.33
8/15/2021 5:15:00 AM 22.41 72.338 0.173 7.15 20.54 6.51
8/15/2021 5:30:00 AM 22.35 72.23 0.173 7.16 20.8 6.63
8/15/2021 5:45:00 AM 22.28 72.104 0.173 7.16 20.17 6.65
8/15/2021 6:00:00 AM 22.18 71.924 0.173 7.16 20.34 6.69
8/15/2021 6:15:00 AM 22.11 71.798 0.173 7.17 19.81 6.7
8/15/2021 6:30:00 AM 22.06 71.708 0.173 7.16 27.44 6.41
8/15/2021 6:45:00 AM 21.99 71.582 0.173 7.13 35.12 6.23
8/15/2021 7:00:00 AM 21.93 71.474 0.173 7.14 29.55 6.19
8/15/2021 7:15:00 AM 21.87 71.366 0.173 7.12 33.36 6.18
8/15/2021 7:30:00 AM 21.8 71.24 0.173 7.11 43.97 6.08
8/15/2021 7:45:00 AM 21.76 71.168 0.173 7.09 44.69 6.15
8/15/2021 8:00:00 AM 21.73 71.114 0.172 7.08 37.61 6.1
8/15/2021 8:15:00 AM 21.7 71.06 0.172 7.04 62 6.41
8/15/2021 8:30:00 AM 21.66 70.988 0.172 7.05 123.6 6.6
8/15/2021 8:45:00 AM 21.66 70.988 0.172 7.07 46.12 6.8
8/15/2021 9:00:00 AM 21.63 70.934 0.172 7.08 30.93 6.71
8/15/2021 9:15:00 AM 21.62 70.916 0.172 7.08 27.66 6.97
8/15/2021 9:30:00 AM 21.61 70.898 0.172 7.09 24.44 6.95
8/15/2021 9:45:00 AM 21.62 70.916 0.172 7.1 25.48 6.99
8/15/2021 10:00:00 AM 21.63 70.934 0.172 7.1 47.97 6.94
8/15/2021 10:15:00 AM 21.66 70.988 0.172 7.13 23.22 6.79
8/15/2021 10:30:00 AM 21.67 71.006 0.172 7.12 25.92 6.79
8/15/2021 10:45:00 AM 21.73 71.114 0.171 7.13 28.37 7.42
8/15/2021 11:00:00 AM 21.78 71.204 0.171 7.13 23.48 7.8
8/15/2021 11:15:00 AM 21.85 71.33 0.171 7.13 40.46 7.92
8/15/2021 11:30:00 AM 21.91 71.438 0.171 7.15 29.35 8.13
8/15/2021 11:45:00 AM 21.98 71.564 0.17 7.16 23.1 8.15
8/15/2021 12:00:00 PM 22.05 71.69 0.17 7.18 66.77 8.27
8/15/2021 12:15:00 PM 22.14 71.852 0.169 7.19 38.27 8.37
8/15/2021 12:30:00 PM 22.23 72.014 0.169 7.19 55.72 8.38
8/15/2021 12:45:00 PM 22.33 72.194 0.169 7.19 34.05 8.45
8/15/2021 1:00:00 PM 22.44 72.392 0.169 7.22 24.41 8.62
8/15/2021 1:15:00 PM 22.53 72.554 0.168 7.22 23.59 8.75
8/15/2021 1:30:00 PM 22.66 72.788 0.168 7.23 24.18 8.77
8/15/2021 1:45:00 PM 22.84 73.112 0.168 7.24 28.68 8.81
8/15/2021 2:00:00 PM 23.07 73.526 0.168 7.25 29.37 8.85
8/15/2021 2:15:00 PM 23.25 73.85 0.168 7.26 35.04 8.95
8/15/2021 2:30:00 PM 23.39 74.102 0.168 7.26 20.93 9.01
8/15/2021 2:45:00 PM 23.52 74.336 0.168 7.27 20.19 8.96
8/15/2021 3:00:00 PM 23.64 74.552 0.168 7.29 18.52 8.98
8/15/2021 3:15:00 PM 23.71 74.67799 0.168 7.31 18.28 9.04
8/15/2021 3:30:00 PM 23.83 74.894 0.168 7.31 18.88 8.96
8/15/2021 3:45:00 PM 23.98 75.164 0.167 7.3 35.46 8.73
8/15/2021 4:00:00 PM 24.17 75.506 0.167 7.32 26.63 8.76
8/15/2021 4:15:00 PM 24.3 75.74 0.167 7.32 20.96 8.81
8/15/2021 4:30:00 PM 24.37 75.866 0.168 7.34 16.58 8.83
8/15/2021 4:45:00 PM 24.38 75.884 0.168 7.34 27.69 8.56
8/15/2021 5:00:00 PM 24.38 75.884 0.168 7.36 16.19 8.29
8/15/2021 5:15:00 PM 24.37 75.866 0.169 7.37 24.3 8.24
8/15/2021 5:30:00 PM 24.37 75.866 0.169 7.38 19.2 8.24
8/15/2021 5:45:00 PM 24.32 75.776 0.17 7.38 30.18 8.07
8/15/2021 6:00:00 PM 24.28 75.704 0.17 7.37 22.35 7.67
8/15/2021 6:15:00 PM 24.22 75.596 0.171 7.34 23.44 7.58
8/15/2021 6:30:00 PM 24.18 75.524 0.171 7.28 24.99 7.13
8/15/2021 6:45:00 PM 24.12 75.416 0.171 7.27 26.74 7.12
8/15/2021 7:00:00 PM 24.08 75.344 0.171 7.28 35.98 7.01
8/15/2021 7:15:00 PM 24.02 75.236 0.171 7.29 19.92 7.04
8/15/2021 7:30:00 PM 23.96 75.128 0.171 7.29 21.44 6.92
8/15/2021 7:45:00 PM 23.87 74.966 0.171 7.29 18.2 7.01
8/15/2021 8:00:00 PM 23.81 74.858 0.171 7.29 19.81 6.6
8/15/2021 8:15:00 PM 23.75 74.75 0.171 7.27 18.42 6.38
8/15/2021 8:30:00 PM 23.66 74.588 0.171 7.26 489.3 6.81
8/15/2021 8:45:00 PM 23.56 74.408 0.171 7.27 18.21 6.38
8/15/2021 9:00:00 PM 23.5 74.3 0.171 7.26 19.05 6.56
8/15/2021 9:15:00 PM 23.41 74.138 0.171 7.26 19.39 6.58
8/15/2021 9:30:00 PM 23.37 74.066 0.171 7.26 27.11 6.44
8/15/2021 9:45:00 PM 23.3 73.94 0.172 7.27 20.35 6.51
8/15/2021 10:00:00 PM 23.21 73.778 0.172 7.27 21.44 6.61
8/15/2021 10:15:00 PM 23.12 73.616 0.172 7.27 54.38 6.57
8/15/2021 10:30:00 PM 23.04 73.472 0.172 7.27 21.52 6.59
8/15/2021 10:45:00 PM 22.96 73.328 0.172 7.25 26.55 6.54
8/15/2021 11:00:00 PM 22.87 73.166 0.172 7.24 24.45 6.39
8/15/2021 11:15:00 PM 22.79 73.022 0.173 7.22 26.41 6.44
8/15/2021 11:30:00 PM 22.72 72.896 0.172 7.2 30.3 6.28
8/15/2021 11:45:00 PM 22.61 72.698 0.173 7.19 22.79 6.33
8/16/2021 12:00:00 AM 22.53 72.554 0.173 7.19 25.59 6.46
8/16/2021 12:15:00 AM 22.47 72.446 0.173 7.21 22.54 6.5
8/16/2021 12:30:00 AM 22.4 72.32 0.173 7.21 20.97 6.7
8/16/2021 12:45:00 AM 22.33 72.194 0.173 7.21 21.89 6.74
8/16/2021 1:00:00 AM 22.28 72.104 0.173 7.21 24.59 6.79
8/16/2021 1:15:00 AM 22.25 72.05 0.172 7.21 22.12 6.73
8/16/2021 1:30:00 AM 22.16 71.888 0.173 7.19 23.43 6.51
8/16/2021 1:45:00 AM 22.11 71.798 0.173 7.19 23.39 6.64
8/16/2021 2:00:00 AM 22.09 71.762 0.173 7.19 23.98 6.39
8/16/2021 2:15:00 AM 22.04 71.672 0.173 7.17 23.11 6.39
8/16/2021 2:30:00 AM 21.98 71.564 0.173 7.16 23.02 6.4
8/16/2021 2:45:00 AM 21.97 71.546 0.172 7.17 24.92 6.32
8/16/2021 3:00:00 AM 21.91 71.438 0.173 7.16 23.32 6.69
8/16/2021 3:15:00 AM 21.88 71.384 0.172 7.16 22.83 6.76
8/16/2021 3:30:00 AM 21.83 71.294 0.172 7.15 32.34 6.62
8/16/2021 3:45:00 AM 21.8 71.24 0.172 7.16 27.87 6.44
8/16/2021 4:00:00 AM 21.77 71.186 0.172 7.15 24.89 6.64
8/16/2021 4:15:00 AM 21.72 71.096 0.172 7.15 25.17 6.77
8/16/2021 4:30:00 AM 21.69 71.042 0.172 7.15 25.45 6.79
8/16/2021 4:45:00 AM 21.65 70.97 0.172 7.14 25.45 6.82
8/16/2021 5:00:00 AM 21.62 70.916 0.172 7.14 26.13 6.65
8/16/2021 5:15:00 AM 21.57 70.826 0.172 7.14 24.71 6.83
8/16/2021 5:30:00 AM 21.54 70.772 0.172 7.14 24.55 6.82
8/16/2021 5:45:00 AM 21.49 70.682 0.172 7.14 24.85 6.86
8/16/2021 6:00:00 AM 21.45 70.61 0.172 7.14 25.55 6.84
8/16/2021 6:15:00 AM 21.42 70.556 0.172 7.14 25.33 6.88
8/16/2021 6:30:00 AM 21.37 70.466 0.172 7.14 26.22 6.84
8/16/2021 6:45:00 AM 21.34 70.412 0.172 7.14 25.08 6.9
8/16/2021 7:00:00 AM 21.3 70.34 0.172 7.14 44.33 6.74
8/16/2021 7:15:00 AM 21.29 70.32201 0.172 7.11 107.2 6.75
8/16/2021 7:30:00 AM 21.28 70.304 0.172 7.11 33.83 6.65
8/16/2021 7:45:00 AM -99999.99 -179968 -99999.99 -99999.99 -99999.99 -99999.99
8/16/2021 8:00:00 AM 21.25 70.25 0.179 7.18 18.9 7.93
8/16/2021 8:15:00 AM 21.25 70.25 0.178 7.16 7.26 7.71
8/16/2021 8:30:00 AM 21.23 70.214 0.178 7.19 4.67 7.59
8/16/2021 8:45:00 AM 21.25 70.25 0.178 7.19 7.2 7.66
8/16/2021 9:00:00 AM 21.23 70.214 0.178 7.19 4.33 7.59
8/16/2021 9:15:00 AM 21.23 70.214 0.178 7.2 4.9 7.72
8/16/2021 9:30:00 AM 21.25 70.25 0.178 7.22 4.84 7.83
8/16/2021 9:45:00 AM 21.27 70.286 0.177 7.24 7.1 7.98
8/16/2021 10:00:00 AM 21.31 70.358 0.177 7.26 3.81 8.1
8/16/2021 10:15:00 AM 21.37 70.466 0.177 7.26 4.69 8.15
8/16/2021 10:30:00 AM 21.4 70.52 0.177 7.3 3.37 8.31
8/16/2021 10:45:00 AM 21.48 70.664 0.177 7.33 3.76 8.41
8/16/2021 11:00:00 AM 21.55 70.79 0.176 7.36 3.06 8.59
8/16/2021 11:15:00 AM 21.64 70.952 0.176 7.41 4.68 8.82
8/16/2021 11:30:00 AM 21.74 71.132 0.176 7.45 4.72 8.94
8/16/2021 11:45:00 AM 21.85 71.33 0.176 7.47 3.51 9.04
8/16/2021 12:00:00 PM 22 71.6 0.176 7.53 2.81 9.14
8/16/2021 12:15:00 PM 22.17 71.906 0.176 7.58 6.04 9.31
8/16/2021 12:30:00 PM 22.36 72.248 0.176 7.62 5.77 9.38
8/16/2021 12:45:00 PM 22.5 72.5 0.175 7.69 3.29 9.52
8/16/2021 1:00:00 PM 22.61 72.698 0.175 7.75 2.81 9.62
8/16/2021 1:15:00 PM 22.73 72.914 0.175 7.8 1.91 9.72
8/16/2021 1:30:00 PM 22.82 73.076 0.175 7.83 2.1 9.82
8/16/2021 1:45:00 PM 22.89 73.202 0.175 7.87 3.52 9.78
8/16/2021 2:00:00 PM 22.92 73.256 0.175 7.89 2.24 9.76
8/16/2021 2:15:00 PM 22.97 73.346 0.175 7.9 2.97 9.7
8/16/2021 2:30:00 PM 23.01 73.418 0.175 7.9 2.53 9.69
8/16/2021 2:45:00 PM 23.08 73.544 0.175 7.91 2.77 9.6
8/16/2021 3:00:00 PM 23.18 73.724 0.174 7.93 2.13 9.45
8/16/2021 3:15:00 PM 23.26 73.868 0.174 7.95 3.18 9.39
8/16/2021 3:30:00 PM 23.35 74.03 0.174 7.96 2.09 9.36
8/16/2021 3:45:00 PM 23.39 74.102 0.174 7.96 2.18 9.34
8/16/2021 4:00:00 PM 23.45 74.21 0.174 7.97 2.89 9.33
8/16/2021 4:15:00 PM 23.5 74.3 0.174 7.97 3.15 9.3
8/16/2021 4:30:00 PM 23.57 74.426 0.174 8.01 2.56 9.26
8/16/2021 4:45:00 PM 23.65 74.57 0.174 8.01 2.28 9.21
8/16/2021 5:00:00 PM 23.71 74.67799 0.174 8 1.93 9.15
8/16/2021 5:15:00 PM 23.76 74.768 0.174 8.01 3.03 9.1
8/16/2021 5:30:00 PM 23.81 74.858 0.174 8.01 2.58 9.06
8/16/2021 5:45:00 PM 23.84 74.912 0.175 8.02 2.58 8.99
8/16/2021 6:00:00 PM 23.79 74.82201 0.175 8.03 2.74 8.87
8/16/2021 6:15:00 PM 23.74 74.732 0.175 8.01 2.76 8.69
8/16/2021 6:30:00 PM 23.75 74.75 0.176 7.97 2.87 8.51
8/16/2021 6:45:00 PM 23.72 74.696 0.176 7.92 2.49 8.36
8/16/2021 7:00:00 PM 23.69 74.642 0.176 7.88 3.29 8.18
8/16/2021 7:15:00 PM 23.64 74.552 0.177 7.8 2.94 8.02
8/16/2021 7:30:00 PM 23.59 74.462 0.177 7.75 4.32 7.87
8/16/2021 7:45:00 PM 23.53 74.354 0.177 7.69 3.87 7.78
8/16/2021 8:00:00 PM 23.47 74.246 0.177 7.64 3.05 7.71
8/16/2021 8:15:00 PM 23.43 74.174 0.177 7.6 2.54 7.63
8/16/2021 8:30:00 PM 23.39 74.102 0.178 7.57 8.84 7.54
8/16/2021 8:45:00 PM 23.35 74.03 0.178 7.53 4.21 7.46
8/16/2021 9:00:00 PM 23.32 73.976 0.178 7.5 4.86 7.43
8/16/2021 9:15:00 PM 23.28 73.904 0.178 7.46 6.69 7.35
8/16/2021 9:30:00 PM 23.24 73.832 0.178 7.44 4.74 7.34
8/16/2021 9:45:00 PM 23.19 73.742 0.178 7.41 4.44 7.29
8/16/2021 10:00:00 PM 23.16 73.688 0.178 7.4 4.2 7.29
8/16/2021 10:15:00 PM 23.11 73.598 0.178 7.38 4.48 7.28
8/16/2021 10:30:00 PM 23.06 73.508 0.178 7.36 4.09 7.25
8/16/2021 10:45:00 PM 23.01 73.418 0.178 7.35 4.47 7.26
8/16/2021 11:00:00 PM 22.95 73.31 0.178 7.34 5.97 7.28
8/16/2021 11:15:00 PM 22.91 73.238 0.177 7.32 14.41 7.28
8/16/2021 11:30:00 PM 22.86 73.148 0.176 7.3 9.72 7.25
8/16/2021 11:45:00 PM 22.79 73.022 0.176 7.3 11.96 7.22
8/17/2021 12:00:00 AM 22.76 72.968 0.176 7.29 12.21 7.25
8/17/2021 12:15:00 AM 22.72 72.896 0.176 7.27 7.76 7.2
8/17/2021 12:30:00 AM 22.68 72.824 0.176 7.26 6.42 7.19
8/17/2021 12:45:00 AM 22.64 72.752 0.176 7.26 8.68 7.22
8/17/2021 1:00:00 AM 22.6 72.68 0.176 7.24 6.64 7.11
8/17/2021 1:15:00 AM 22.57 72.626 0.177 7.24 9.62 7.19
8/17/2021 1:30:00 AM 22.54 72.57201 0.177 7.24 8.51 7.2
8/17/2021 1:45:00 AM 22.51 72.518 0.177 7.23 10.63 7.2
8/17/2021 2:00:00 AM 22.47 72.446 0.177 7.22 5.46 7.2
8/17/2021 2:15:00 AM 22.44 72.392 0.177 7.2 6.85 7.21
8/17/2021 2:30:00 AM 22.42 72.356 0.177 7.2 21.68 7.19
8/17/2021 2:45:00 AM 22.39 72.302 0.177 7.2 11.2 7.23
8/17/2021 3:00:00 AM 22.36 72.248 0.177 7.2 8.09 7.24
8/17/2021 3:15:00 AM 22.33 72.194 0.177 7.19 7.18 7.23
8/17/2021 3:30:00 AM 22.29 72.122 0.177 7.19 6.35 7.25
8/17/2021 3:45:00 AM 22.27 72.086 0.176 7.19 4.64 7.29
8/17/2021 4:00:00 AM 22.24 72.032 0.177 7.19 4.73 7.26
8/17/2021 4:15:00 AM 22.21 71.978 0.176 7.18 7.18 7.26
8/17/2021 4:30:00 AM 22.19 71.942 0.176 7.18 4.36 7.24
8/17/2021 4:45:00 AM 22.16 71.888 0.176 7.17 5.59 7.11
8/17/2021 5:00:00 AM 22.13 71.834 0.176 7.17 7.9 7.29
8/17/2021 5:15:00 AM 22.1 71.78 0.176 7.17 8.86 7.26
8/17/2021 5:30:00 AM 22.08 71.744 0.175 7.15 11.15 7.17
8/17/2021 5:45:00 AM 22.06 71.708 0.174 7.17 10.86 7.28
8/17/2021 6:00:00 AM 22.03 71.654 0.174 7.16 9.41 7.23
8/17/2021 6:15:00 AM 22 71.6 0.174 7.16 9.77 7.27
8/17/2021 6:30:00 AM 21.98 71.564 0.174 7.16 6.84 7.26
8/17/2021 6:45:00 AM 21.94 71.492 0.174 7.17 7.98 7.33
8/17/2021 7:00:00 AM 21.93 71.474 0.174 7.18 6.3 7.38
8/17/2021 7:15:00 AM 21.9 71.42 0.174 7.19 7.17 7.4
8/17/2021 7:30:00 AM 21.88 71.384 0.174 7.2 8.58 7.4
8/17/2021 7:45:00 AM 21.87 71.366 0.175 7.21 5.48 7.5
8/17/2021 8:00:00 AM 21.85 71.33 0.175 7.21 5.3 7.5
8/17/2021 8:15:00 AM 21.84 71.312 0.175 7.22 4.52 7.54
8/17/2021 8:30:00 AM 21.84 71.312 0.175 7.22 7.21 7.53
8/17/2021 8:45:00 AM 21.82 71.276 0.175 7.23 6.65 7.49
8/17/2021 9:00:00 AM 21.82 71.276 0.175 7.23 8.54 7.55
8/17/2021 9:15:00 AM 21.84 71.312 0.175 7.23 5.74 7.59
8/17/2021 9:30:00 AM 21.84 71.312 0.175 7.24 4.27 7.7
8/17/2021 9:45:00 AM 21.85 71.33 0.175 7.25 9.14 7.78
8/17/2021 10:00:00 AM 21.87 71.366 0.175 7.26 4.92 7.8
8/17/2021 10:15:00 AM 21.89 71.402 0.175 7.27 6.17 7.88
8/17/2021 10:30:00 AM 21.91 71.438 0.175 7.29 4.21 7.86
8/17/2021 10:45:00 AM 21.94 71.492 0.175 7.29 5.36 7.89
8/17/2021 11:00:00 AM 21.99 71.582 0.174 7.31 3.73 8.11
8/17/2021 11:15:00 AM 22.06 71.708 0.174 7.33 3.56 8.36
8/17/2021 11:30:00 AM 22.11 71.798 0.174 7.35 6.66 8.47
8/17/2021 11:45:00 AM 22.18 71.924 0.174 7.38 5.45 8.43
8/17/2021 12:00:00 PM 22.24 72.032 0.174 7.43 4.25 8.56
8/17/2021 12:15:00 PM 22.31 72.158 0.174 7.46 3.82 8.78
8/17/2021 12:30:00 PM 22.42 72.356 0.174 7.48 3.8 8.68
8/17/2021 12:45:00 PM 22.53 72.554 0.174 7.51 4.76 8.84
8/17/2021 1:00:00 PM 22.7 72.86 0.174 7.56 5.34 9
8/17/2021 1:15:00 PM 22.9 73.22 0.173 7.58 2.83 9.15
8/17/2021 1:30:00 PM 23.07 73.526 0.173 7.62 3.47 9.18
8/17/2021 1:45:00 PM 23.3 73.94 0.173 7.67 5.84 9.19
8/17/2021 2:00:00 PM 23.55 74.39 0.173 7.74 2.96 9.39
8/17/2021 2:15:00 PM 23.76 74.768 0.173 7.79 4.55 9.43
8/17/2021 2:30:00 PM 23.9 75.02 0.173 7.83 9.84 9.36
8/17/2021 2:45:00 PM 23.99 75.182 0.173 7.86 7.71 9.46
8/17/2021 3:00:00 PM 24.01 75.218 0.173 7.89 4.44 9.43
8/17/2021 3:15:00 PM 24.04 75.272 0.174 7.91 4.23 9.14
8/17/2021 3:30:00 PM 24.06 75.308 0.174 7.95 3.87 9.27
8/17/2021 3:45:00 PM 24.07 75.326 0.174 7.97 4.37 9.25
8/17/2021 4:00:00 PM 24.09 75.362 0.174 7.97 3.47 9.05
8/17/2021 4:15:00 PM 24.12 75.416 0.174 7.95 5.1 8.88
8/17/2021 4:30:00 PM 24.12 75.416 0.174 7.93 3.69 8.82
8/17/2021 4:45:00 PM 24.22 75.596 0.174 7.92 6.39 8.66
8/17/2021 5:00:00 PM 24.28 75.704 0.174 7.91 4.47 8.59
8/17/2021 5:15:00 PM 24.33 75.794 0.174 7.9 4.22 8.58
8/17/2021 5:30:00 PM 24.36 75.848 0.174 7.89 4.07 8.57
8/17/2021 5:45:00 PM 24.38 75.884 0.174 7.87 3.57 8.46
8/17/2021 6:00:00 PM 24.39 75.902 0.175 7.84 4.21 8.34
8/17/2021 6:15:00 PM 24.37 75.866 0.175 7.83 3.11 8.3
8/17/2021 6:30:00 PM 24.34 75.812 0.175 7.79 4.37 8.17
8/17/2021 6:45:00 PM 24.33 75.794 0.175 7.77 4.52 8.07
8/17/2021 7:00:00 PM 24.31 75.758 0.175 7.74 3.64 8
8/17/2021 7:15:00 PM 24.26 75.668 0.176 7.71 3.34 7.91
8/17/2021 7:30:00 PM 24.19 75.542 0.176 7.67 3.92 7.88
8/17/2021 7:45:00 PM 24.13 75.434 0.176 7.64 4.36 7.78
8/17/2021 8:00:00 PM 24.07 75.326 0.176 7.61 3.13 7.7
8/17/2021 8:15:00 PM 24.01 75.218 0.177 7.57 3.98 7.61
8/17/2021 8:30:00 PM 23.95 75.11 0.177 7.53 3.92 7.53
8/17/2021 8:45:00 PM 23.89 75.002 0.177 7.5 4.13 7.47
8/17/2021 9:00:00 PM 23.84 74.912 0.177 7.47 3.47 7.41
8/17/2021 9:15:00 PM 23.79 74.82201 0.177 7.44 13.34 7.33
8/17/2021 9:30:00 PM 23.75 74.75 0.177 7.4 5.65 7.28
8/17/2021 9:45:00 PM 23.7 74.66 0.177 7.38 7.37 7.26
8/17/2021 10:00:00 PM 23.66 74.588 0.177 7.36 6.5 7.2
8/17/2021 10:15:00 PM 23.61 74.498 0.177 7.34 8.5 7.22
8/17/2021 10:30:00 PM 23.55 74.39 0.177 7.31 8.12 7.14
8/17/2021 10:45:00 PM 23.52 74.336 0.177 7.3 5.86 7.19
8/17/2021 11:00:00 PM 23.47 74.246 0.177 7.28 9.81 7.19
8/17/2021 11:15:00 PM 23.43 74.174 0.177 7.28 5.93 7.2
8/17/2021 11:30:00 PM 23.38 74.084 0.177 7.27 5.06 7.21
8/17/2021 11:45:00 PM 23.33 73.994 0.178 7.25 6.72 7.2
8/18/2021 12:00:00 AM 23.29 73.922 0.178 7.25 11.18 7.19
8/18/2021 12:15:00 AM 23.26 73.868 0.178 7.24 6.99 7.2
8/18/2021 12:30:00 AM 23.21 73.778 0.178 7.23 8.37 7.22
8/18/2021 12:45:00 AM 23.17 73.706 0.178 7.21 9.95 7.13
8/18/2021 1:00:00 AM 23.13 73.634 0.178 7.21 6.36 7.18
8/18/2021 1:15:00 AM 23.1 73.58 0.178 7.21 6.11 7.22
8/18/2021 1:30:00 AM 23.07 73.526 0.178 7.21 5.88 7.22
8/18/2021 1:45:00 AM 23.03 73.454 0.178 7.2 9.02 7.22
8/18/2021 2:00:00 AM 22.99 73.382 0.178 7.19 6.27 7.2
8/18/2021 2:15:00 AM 22.97 73.346 0.178 7.19 9.07 7.12
8/18/2021 2:30:00 AM 22.94 73.292 0.178 7.18 5.93 7.19
8/18/2021 2:45:00 AM 22.91 73.238 0.178 7.19 11.01 7.23
8/18/2021 3:00:00 AM 22.88 73.184 0.178 7.18 9.6 7.23
8/18/2021 3:15:00 AM 22.85 73.13 0.178 7.19 11.89 7.24
8/18/2021 3:30:00 AM 22.82 73.076 0.178 7.19 7.87 7.27
8/18/2021 3:45:00 AM 22.79 73.022 0.178 7.19 8.14 7.28
8/18/2021 4:00:00 AM 22.75 72.95 0.178 7.19 6.18 7.3
8/18/2021 4:15:00 AM 22.73 72.914 0.178 7.19 5.87 7.29
8/18/2021 4:30:00 AM 22.7 72.86 0.178 7.19 7.07 7.31
8/18/2021 4:45:00 AM 22.67 72.806 0.178 7.18 8.56 7.31
8/18/2021 5:00:00 AM 22.64 72.752 0.178 7.17 6.89 7.25
8/18/2021 5:15:00 AM 22.62 72.716 0.177 7.16 7.89 7.29
8/18/2021 5:30:00 AM 22.6 72.68 0.177 7.16 10.8 7.27
8/18/2021 5:45:00 AM 22.57 72.626 0.177 7.16 7.88 7.29
8/18/2021 6:00:00 AM 22.56 72.608 0.176 7.16 6.84 7.27
8/18/2021 6:15:00 AM 22.53 72.554 0.176 7.15 7.82 7.28
8/18/2021 6:30:00 AM 22.51 72.518 0.176 7.14 6.44 7.3
8/18/2021 6:45:00 AM 22.5 72.5 0.176 7.14 8.97 7.3
8/18/2021 7:00:00 AM 22.48 72.464 0.175 7.13 7.82 7.19
8/18/2021 7:15:00 AM 22.48 72.464 0.175 7.14 8.65 7.21
8/18/2021 7:30:00 AM 22.47 72.446 0.175 7.14 5 7.18
8/18/2021 7:45:00 AM 22.47 72.446 0.175 7.14 6.11 7.34
8/18/2021 8:00:00 AM 22.47 72.446 0.175 7.14 7.77 7.33
8/18/2021 8:15:00 AM 22.48 72.464 0.175 7.16 7.75 7.35
8/18/2021 8:30:00 AM 22.5 72.5 0.175 7.17 22.17 7.38
8/18/2021 8:45:00 AM 22.52 72.536 0.175 7.19 4.49 7.55
8/18/2021 9:00:00 AM 22.54 72.57201 0.175 7.2 4.05 7.78
8/18/2021 9:15:00 AM 22.57 72.626 0.175 7.22 8.23 7.87
8/18/2021 9:30:00 AM 22.61 72.698 0.175 7.24 5.99 7.93
8/18/2021 9:45:00 AM 22.65 72.77 0.175 7.26 11.23 8.02
8/18/2021 10:00:00 AM 22.68 72.824 0.175 7.27 4.61 7.98
8/18/2021 10:15:00 AM 22.74 72.932 0.174 7.29 4.47 8.14
8/18/2021 10:30:00 AM 22.8 73.04 0.174 7.32 6.22 8.27
8/18/2021 10:45:00 AM 22.84 73.112 0.174 7.34 3.64 8.3
8/18/2021 11:00:00 AM 22.92 73.256 0.174 7.36 7.19 8.33
8/18/2021 11:15:00 AM 23.02 73.436 0.173 7.4 4.25 8.43
8/18/2021 11:30:00 AM 23.08 73.544 0.173 7.42 4.18 8.5
8/18/2021 11:45:00 AM 23.18 73.724 0.173 7.44 4.64 8.53
8/18/2021 12:00:00 PM 23.29 73.922 0.173 7.46 9.35 8.68
8/18/2021 12:15:00 PM 23.49 74.282 0.173 7.51 4.38 8.79
8/18/2021 12:30:00 PM 23.56 74.408 0.173 7.53 4.49 8.77
8/18/2021 12:45:00 PM 23.66 74.588 0.173 7.54 7.46 8.65
8/18/2021 1:00:00 PM 23.76 74.768 0.173 7.57 4.58 8.81
8/18/2021 1:15:00 PM 23.93 75.074 0.173 7.59 4.07 8.73
8/18/2021 1:30:00 PM 24.04 75.272 0.174 7.61 8.86 8.83
8/18/2021 1:45:00 PM 24.15 75.47 0.174 7.64 4.64 8.9
8/18/2021 2:00:00 PM 24.22 75.596 0.175 7.67 6.5 8.87
8/18/2021 2:15:00 PM 24.27 75.686 0.175 7.69 6.22 8.74
8/18/2021 2:30:00 PM 24.33 75.794 0.175 7.7 4.48 8.66
8/18/2021 2:45:00 PM 24.38 75.884 0.175 7.7 5.41 8.56
8/18/2021 3:00:00 PM 24.41 75.938 0.176 7.69 7.39 8.41
8/18/2021 3:15:00 PM 24.48 76.064 0.176 7.67 7.38 8.3
8/18/2021 3:30:00 PM 24.49 76.082 0.176 7.66 9.73 8.3
8/18/2021 3:45:00 PM 24.47 76.046 0.177 7.64 6.58 8.16
8/18/2021 4:00:00 PM 24.46 76.028 0.177 7.63 6.21 8.18
8/18/2021 4:15:00 PM 24.48 76.064 0.178 7.62 7.08 8.11
8/18/2021 4:30:00 PM 24.49 76.082 0.179 7.62 14.66 8.15
8/18/2021 4:45:00 PM 24.48 76.064 0.179 7.62 7.83 8.09
8/18/2021 5:00:00 PM 24.45 76.01 0.18 7.61 6.47 8.09
8/18/2021 5:15:00 PM 24.44 75.992 0.18 7.59 7.38 8.02
8/18/2021 5:30:00 PM 24.44 75.992 0.181 7.59 7.3 8.01
8/18/2021 5:45:00 PM 24.41 75.938 0.181 7.58 9.42 7.96
8/18/2021 6:00:00 PM 24.38 75.884 0.182 7.56 8.32 7.88
8/18/2021 6:15:00 PM 24.33 75.794 0.182 7.56 7.5 7.83
8/18/2021 6:30:00 PM 24.29 75.722 0.182 7.54 7.3 7.77
8/18/2021 6:45:00 PM 24.25 75.65 0.183 7.52 11.77 7.67
8/18/2021 7:00:00 PM 24.21 75.578 0.183 7.51 8.03 7.64
8/18/2021 7:15:00 PM 24.18 75.524 0.183 7.48 8.5 7.53
8/18/2021 7:30:00 PM 24.12 75.416 0.183 7.46 6.86 7.49
8/18/2021 7:45:00 PM 24.09 75.362 0.183 7.45 10.25 7.43
8/18/2021 8:00:00 PM 24.06 75.308 0.183 7.43 8.35 7.32
8/18/2021 8:15:00 PM 24.02 75.236 0.183 7.41 6.94 7.31
8/18/2021 8:30:00 PM 23.99 75.182 0.183 7.4 7.22 7.31
8/18/2021 8:45:00 PM 23.97 75.146 0.183 7.38 8.66 7.29
8/18/2021 9:00:00 PM 23.93 75.074 0.183 7.37 8.04 7.23
8/18/2021 9:15:00 PM 23.89 75.002 0.183 7.35 8.74 7.19
8/18/2021 9:30:00 PM 23.87 74.966 0.182 7.33 23.03 7.14
8/18/2021 9:45:00 PM 23.86 74.948 0.176 7.34 21.51 7.26
8/18/2021 10:00:00 PM 23.84 74.912 0.169 7.33 25.14 7.39
8/18/2021 10:15:00 PM 23.79 74.82201 0.152 7.33 43.85 7.41
8/18/2021 10:30:00 PM 23.72 74.696 0.149 7.29 25.61 7.49
8/18/2021 10:45:00 PM 23.66 74.588 0.148 7.27 28.13 7.5
8/18/2021 11:00:00 PM 23.6 74.48 0.151 7.25 28.26 7.5
8/18/2021 11:15:00 PM 23.53 74.354 0.154 7.24 58.53 7.44
8/18/2021 11:30:00 PM 23.44 74.192 0.154 7.23 63.1 7.45
8/18/2021 11:45:00 PM 23.36 74.048 0.154 7.23 60.15 7.48
8/19/2021 12:00:00 AM 23.16 73.688 0.142 7.2 270.7 7.52
8/19/2021 12:15:00 AM 23.04 73.472 0.134 7.13 601.1 7.52
8/19/2021 12:30:00 AM 22.98 73.364 0.142 7.11 908.7 7.41
8/19/2021 12:45:00 AM 22.88 73.184 0.144 7.13 709.2 7.37
8/19/2021 1:00:00 AM 22.82 73.076 0.143 7.14 436.3 7.42
8/19/2021 1:15:00 AM 22.8 73.04 0.14 7.14 410.4 7.49
8/19/2021 1:30:00 AM 22.73 72.914 0.135 7.13 308.6 7.56
8/19/2021 1:45:00 AM 22.66 72.788 0.132 7.15 391.4 7.58
8/19/2021 2:00:00 AM 22.64 72.752 0.126 7.16 471.9 7.61
8/19/2021 2:15:00 AM 22.64 72.752 0.121 7.17 501.8 7.62
8/19/2021 2:30:00 AM 22.65 72.77 0.118 7.17 486.4 7.62
8/19/2021 2:45:00 AM 22.65 72.77 0.114 7.16 343.4 7.62
8/19/2021 3:00:00 AM 22.64 72.752 0.113 7.14 333.1 7.64
8/19/2021 3:15:00 AM 22.61 72.698 0.113 7.14 464.6 7.63
8/19/2021 3:30:00 AM 22.57 72.626 0.116 7.14 222.9 7.62
8/19/2021 3:45:00 AM 22.55 72.59 0.121 7.13 344.4 7.62
8/19/2021 4:00:00 AM 22.54 72.57201 0.126 7.13 279.1 7.62
8/19/2021 4:15:00 AM 22.53 72.554 0.131 7.13 282.4 7.61
8/19/2021 4:30:00 AM 22.51 72.518 0.135 7.14 195.3 7.62
8/19/2021 4:45:00 AM 22.49 72.482 0.138 7.14 245.3 7.6
8/19/2021 5:00:00 AM 22.45 72.41 0.14 7.15 256.8 7.61
8/19/2021 5:15:00 AM 22.41 72.338 0.14 7.15 290.9 7.61
8/19/2021 5:30:00 AM 22.37 72.266 0.139 7.16 280.9 7.61
8/19/2021 5:45:00 AM 22.32 72.176 0.137 7.16 185.2 7.61
8/19/2021 6:00:00 AM 22.28 72.104 0.135 7.17 198 7.62
8/19/2021 6:15:00 AM 22.25 72.05 0.133 7.18 196.9 7.61
8/19/2021 6:30:00 AM 22.21 71.978 0.131 7.17 239.9 7.62
8/19/2021 6:45:00 AM 22.19 71.942 0.13 7.17 142.8 7.62
8/19/2021 7:00:00 AM 22.16 71.888 0.129 7.17 150.8 7.61
8/19/2021 7:15:00 AM 22.14 71.852 0.128 7.18 180.1 7.63
8/19/2021 7:30:00 AM 22.12 71.816 0.128 7.18 110.2 7.63
8/19/2021 7:45:00 AM 22.1 71.78 0.128 7.18 144 7.62
8/19/2021 8:00:00 AM 22.08 71.744 0.129 7.18 93.49 7.62
8/19/2021 8:15:00 AM 22.06 71.708 0.129 7.18 106.1 7.6
8/19/2021 8:30:00 AM 22.05 71.69 0.13 7.2 118.3 7.62
8/19/2021 8:45:00 AM 22.05 71.69 0.131 7.19 89.62 7.63
8/19/2021 9:00:00 AM 22.05 71.69 0.132 7.2 82.62 7.61
8/19/2021 9:15:00 AM 22.05 71.69 0.133 7.2 83.71 7.62
8/19/2021 9:30:00 AM 22.06 71.708 0.134 7.21 73.24 7.58
8/19/2021 9:45:00 AM 22.08 71.744 0.135 7.21 66.89 7.58
8/19/2021 10:00:00 AM 22.11 71.798 0.136 7.21 62.64 7.59
8/19/2021 10:15:00 AM 22.16 71.888 0.137 7.21 51.85 7.6
8/19/2021 10:30:00 AM 22.23 72.014 0.137 7.22 61.08 7.6
8/19/2021 10:45:00 AM 22.32 72.176 0.138 7.22 65.11 7.6
8/19/2021 11:00:00 AM 22.43 72.374 0.138 7.22 64.75 7.57
8/19/2021 11:15:00 AM 22.55 72.59 0.139 7.22 62.57 7.57
8/19/2021 11:30:00 AM 22.69 72.842 0.139 7.22 51.8 7.61
8/19/2021 11:45:00 AM 22.87 73.166 0.14 7.23 44.36 7.64
8/19/2021 12:00:00 PM 23.03 73.454 0.14 7.24 46.67 7.69
8/19/2021 12:15:00 PM 23.21 73.778 0.14 7.24 47.2 7.72
8/19/2021 12:30:00 PM 23.4 74.12 0.14 7.25 44.12 7.78
8/19/2021 12:45:00 PM 23.61 74.498 0.14 7.26 42.8 7.77
8/19/2021 1:00:00 PM 23.83 74.894 0.141 7.26 43.58 7.78
8/19/2021 1:15:00 PM 24.06 75.308 0.14 7.27 42.83 7.77
8/19/2021 1:30:00 PM 24.18 75.524 0.141 7.28 39.06 7.79
8/19/2021 1:45:00 PM 24.37 75.866 0.141 7.29 31.99 7.8
8/19/2021 2:00:00 PM 24.58 76.244 0.14 7.31 36.72 7.8
8/19/2021 2:15:00 PM 24.8 76.64 0.141 7.3 36.39 7.81
8/19/2021 2:30:00 PM 25.15 77.27 0.141 7.32 65.68 7.89
8/19/2021 2:45:00 PM 25.39 77.702 0.141 7.32 28.38 7.87
8/19/2021 3:00:00 PM 25.41 77.738 0.141 7.33 32.54 7.86
8/19/2021 3:15:00 PM 25.42 77.756 0.142 7.33 35.91 7.83
8/19/2021 3:30:00 PM 25.46 77.828 0.142 7.33 31.82 7.78
8/19/2021 3:45:00 PM 25.41 77.738 0.142 7.33 32.75 7.84
8/19/2021 4:00:00 PM 25.44 77.792 0.142 7.34 36.59 7.71
8/19/2021 4:15:00 PM 25.46 77.828 0.143 7.34 32.91 7.65
8/19/2021 4:30:00 PM 25.46 77.828 0.143 7.35 29.29 7.56
8/19/2021 4:45:00 PM 25.49 77.882 0.143 7.35 27.54 7.51
8/19/2021 5:00:00 PM 25.49 77.882 0.144 7.35 27.64 7.52
8/19/2021 5:15:00 PM 25.5 77.9 0.144 7.34 23.14 7.5
8/19/2021 5:30:00 PM 25.43 77.774 0.145 7.35 26.13 7.44
8/19/2021 5:45:00 PM 25.37 77.666 0.145 7.34 38.43 7.38
8/19/2021 6:00:00 PM 25.32 77.576 0.145 7.34 32.14 7.33
8/19/2021 6:15:00 PM 25.22 77.396 0.146 7.34 22.49 7.32
8/19/2021 6:30:00 PM 25.15 77.27 0.146 7.34 25.48 7.28
8/19/2021 6:45:00 PM 25.02 77.036 0.147 7.33 23.03 7.28
8/19/2021 7:00:00 PM 24.96 76.92799 0.147 7.32 27.01 7.23
8/19/2021 7:15:00 PM 24.89 76.802 0.148 7.32 25.09 7.23
8/19/2021 7:30:00 PM 24.81 76.658 0.148 7.31 23.51 7.18
8/19/2021 7:45:00 PM 24.74 76.532 0.149 7.3 22.34 7.12
8/19/2021 8:00:00 PM 24.66 76.388 0.149 7.3 21.61 7.17
8/19/2021 8:15:00 PM 24.6 76.28 0.149 7.3 28.74 7.13
8/19/2021 8:30:00 PM 24.52 76.136 0.15 7.29 17.37 7.12
8/19/2021 8:45:00 PM 24.44 75.992 0.15 7.29 26.88 7.06
8/19/2021 9:00:00 PM 24.37 75.866 0.151 7.28 27.57 7.05
8/19/2021 9:15:00 PM 24.28 75.704 0.151 7.27 37.12 7.08
8/19/2021 9:30:00 PM 24.22 75.596 0.152 7.27 26.5 7.05
8/19/2021 9:45:00 PM 24.15 75.47 0.152 7.26 28.3 7.09
8/19/2021 10:00:00 PM 24.08 75.344 0.152 7.27 18.28 7.07
8/19/2021 10:15:00 PM 24.01 75.218 0.153 7.26 21.94 7.09
8/19/2021 10:30:00 PM 23.95 75.11 0.153 7.26 18.19 7.04
8/19/2021 10:45:00 PM 23.89 75.002 0.154 7.26 26.26 7.06
8/19/2021 11:00:00 PM 23.83 74.894 0.154 7.25 15.07 7.08
8/19/2021 11:15:00 PM 23.77 74.786 0.154 7.25 16.85 7.06
8/19/2021 11:30:00 PM 23.72 74.696 0.155 7.24 19.75 7.03
8/19/2021 11:45:00 PM 23.66 74.588 0.155 7.24 25.38 7.05
8/20/2021 12:00:00 AM 23.61 74.498 0.156 7.24 15.89 7.08
8/20/2021 12:15:00 AM 23.56 74.408 0.156 7.23 18.58 7.06
8/20/2021 12:30:00 AM 23.51 74.318 0.156 7.24 22.7 7.09
8/20/2021 12:45:00 AM 23.46 74.228 0.157 7.23 37.92 7.06
8/20/2021 1:00:00 AM 23.42 74.156 0.157 7.23 18.28 7.05
8/20/2021 1:15:00 AM 23.38 74.084 0.158 7.23 21.92 7.1
8/20/2021 1:30:00 AM 23.33 73.994 0.158 7.22 17.49 7.09
8/20/2021 1:45:00 AM 23.29 73.922 0.158 7.23 17.63 7.11
8/20/2021 2:00:00 AM 23.25 73.85 0.159 7.22 21.14 7.12
8/20/2021 2:15:00 AM 23.21 73.778 0.16 7.22 21.25 7.15
8/20/2021 2:30:00 AM 23.16 73.688 0.16 7.22 19.4 7.16
8/20/2021 2:45:00 AM 23.12 73.616 0.16 7.22 15.8 7.19
8/20/2021 3:00:00 AM 23.09 73.562 0.16 7.22 18.13 7.21
8/20/2021 3:15:00 AM 23.05 73.49 0.161 7.22 28.28 7.22
8/20/2021 3:30:00 AM 23.02 73.436 0.161 7.21 15.11 7.16
8/20/2021 3:45:00 AM 22.99 73.382 0.161 7.22 15.18 7.21
8/20/2021 4:00:00 AM 22.95 73.31 0.161 7.22 18.72 7.18
8/20/2021 4:15:00 AM 22.92 73.256 0.161 7.22 20.17 7.17
8/20/2021 4:30:00 AM 22.89 73.202 0.162 7.22 17.09 7.2
8/20/2021 4:45:00 AM 22.86 73.148 0.162 7.23 25.23 7.19
8/20/2021 5:00:00 AM 22.83 73.094 0.162 7.22 17.71 7.2
8/20/2021 5:15:00 AM 22.8 73.04 0.162 7.21 15.32 7.24
8/20/2021 5:30:00 AM 22.78 73.004 0.163 7.22 21.54 7.24
8/20/2021 5:45:00 AM 22.75 72.95 0.162 7.22 22.29 7.26
8/20/2021 6:00:00 AM 22.73 72.914 0.163 7.22 18.75 7.27
8/20/2021 6:15:00 AM 22.7 72.86 0.163 7.22 18.51 7.22
8/20/2021 6:30:00 AM 22.68 72.824 0.163 7.23 17.56 7.25
8/20/2021 6:45:00 AM 22.65 72.77 0.164 7.23 18.03 7.25
8/20/2021 7:00:00 AM 22.63 72.734 0.164 7.23 15.15 7.31
8/20/2021 7:15:00 AM 22.61 72.698 0.164 7.23 16.7 7.31
8/20/2021 7:30:00 AM 22.59 72.662 0.165 7.23 15.31 7.29
8/20/2021 7:45:00 AM 22.57 72.626 0.164 7.24 18.5 7.34
8/20/2021 8:00:00 AM 22.55 72.59 0.165 7.24 13 7.34
8/20/2021 8:15:00 AM 22.55 72.59 0.165 7.24 17.43 7.35
8/20/2021 8:30:00 AM 22.54 72.57201 0.165 7.24 15.64 7.34
8/20/2021 8:45:00 AM 22.55 72.59 0.166 7.25 12.86 7.35
8/20/2021 9:00:00 AM 22.56 72.608 0.166 7.25 15.01 7.43
8/20/2021 9:15:00 AM 22.56 72.608 0.166 7.26 11.05 7.52
8/20/2021 9:30:00 AM 22.57 72.626 0.166 7.27 13.77 7.58
8/20/2021 9:45:00 AM 22.57 72.626 0.166 7.28 11.46 7.61
8/20/2021 10:00:00 AM 22.57 72.626 0.166 7.29 11.26 7.63
8/20/2021 10:15:00 AM 22.57 72.626 0.166 7.3 12.14 7.64
8/20/2021 10:30:00 AM 22.57 72.626 0.166 7.3 8.91 7.61
8/20/2021 10:45:00 AM 22.57 72.626 0.167 7.3 12.37 7.69
8/20/2021 11:00:00 AM 22.6 72.68 0.167 7.31 13.16 7.68
8/20/2021 11:15:00 AM 22.61 72.698 0.167 7.32 10.97 7.77
8/20/2021 11:30:00 AM 22.63 72.734 0.167 7.32 13.98 7.79
8/20/2021 11:45:00 AM 22.65 72.77 0.167 7.33 10.16 7.83
8/20/2021 12:00:00 PM 22.66 72.788 0.168 7.34 7.43 7.92
8/20/2021 12:15:00 PM 22.68 72.824 0.168 7.35 17.44 7.92
8/20/2021 12:30:00 PM 22.69 72.842 0.168 7.37 9.61 7.94
8/20/2021 12:45:00 PM 22.71 72.878 0.168 7.37 11.03 7.94
8/20/2021 1:00:00 PM 22.73 72.914 0.168 7.38 8.98 7.96
8/20/2021 1:15:00 PM 22.75 72.95 0.169 7.39 6.9 7.96
8/20/2021 1:30:00 PM 22.79 73.022 0.169 7.4 8.74 7.96
8/20/2021 1:45:00 PM 22.87 73.166 0.169 7.41 12.14 8.03
8/20/2021 2:00:00 PM 22.96 73.328 0.169 7.42 8.52 8.14
8/20/2021 2:15:00 PM 23.06 73.508 0.169 7.44 7.51 8.25
8/20/2021 2:30:00 PM 23.24 73.832 0.169 7.47 8.33 8.36
8/20/2021 2:45:00 PM 23.29 73.922 0.17 7.48 9.72 8.49
8/20/2021 3:00:00 PM 23.38 74.084 0.169 7.51 6.98 8.54
8/20/2021 3:15:00 PM 23.42 74.156 0.17 7.54 7.46 8.55
8/20/2021 3:30:00 PM 23.5 74.3 0.17 7.55 6.14 8.5
8/20/2021 3:45:00 PM 23.6 74.48 0.17 7.58 6.44 8.57
8/20/2021 4:00:00 PM 23.74 74.732 0.17 7.59 6.27 8.58
8/20/2021 4:15:00 PM 23.85 74.93 0.17 7.61 6.98 8.62
8/20/2021 4:30:00 PM 23.92 75.056 0.17 7.63 7.5 8.62
8/20/2021 4:45:00 PM 23.95 75.11 0.171 7.65 7.41 8.6
8/20/2021 5:00:00 PM 23.97 75.146 0.171 7.65 7.43 8.5
8/20/2021 5:15:00 PM 24.01 75.218 0.171 7.66 8.76 8.44
8/20/2021 5:30:00 PM 24.02 75.236 0.171 7.67 7.14 8.32
8/20/2021 5:45:00 PM 24.01 75.218 0.172 7.66 9.75 8.21
8/20/2021 6:00:00 PM 24 75.2 0.172 7.63 5.08 8.11
8/20/2021 6:15:00 PM 24 75.2 0.172 7.62 7.95 8.04
8/20/2021 6:30:00 PM 23.99 75.182 0.172 7.61 7.77 7.97
8/20/2021 6:45:00 PM 23.97 75.146 0.172 7.59 7.25 7.92
8/20/2021 7:00:00 PM 23.93 75.074 0.173 7.58 7.81 7.82
8/20/2021 7:15:00 PM 23.9 75.02 0.173 7.56 8.87 7.81
8/20/2021 7:30:00 PM 23.86 74.948 0.173 7.55 10.86 7.74
8/20/2021 7:45:00 PM 23.81 74.858 0.173 7.53 8.41 7.65
8/20/2021 8:00:00 PM 23.77 74.786 0.174 7.51 8.93 7.61
8/20/2021 8:15:00 PM 23.71 74.67799 0.174 7.5 8.15 7.54
8/20/2021 8:30:00 PM 23.64 74.552 0.174 7.48 11.92 7.51
8/20/2021 8:45:00 PM 23.56 74.408 0.174 7.45 13.02 7.47
8/20/2021 9:00:00 PM 23.48 74.264 0.174 7.45 8.38 7.44
8/20/2021 9:15:00 PM 23.39 74.102 0.175 7.43 11.8 7.41
8/20/2021 9:30:00 PM 23.31 73.958 0.175 7.41 9.12 7.4
8/20/2021 9:45:00 PM 23.25 73.85 0.175 7.4 9.63 7.38
8/20/2021 10:00:00 PM 23.15 73.67 0.175 7.39 8.79 7.41
8/20/2021 10:15:00 PM 23.08 73.544 0.175 7.38 11.09 7.38
8/20/2021 10:30:00 PM 23.03 73.454 0.175 7.37 9.08 7.37
8/20/2021 10:45:00 PM 22.95 73.31 0.175 7.36 10.35 7.37
8/20/2021 11:00:00 PM 22.9 73.22 0.176 7.35 11.5 7.37
8/20/2021 11:15:00 PM 22.84 73.112 0.176 7.35 8.31 7.37
8/20/2021 11:30:00 PM 22.8 73.04 0.176 7.34 8.06 7.38
8/20/2021 11:45:00 PM 22.75 72.95 0.176 7.33 10.91 7.35
8/21/2021 12:00:00 AM 22.7 72.86 0.176 7.32 11.32 7.33
8/21/2021 12:15:00 AM 22.66 72.788 0.178 7.32 10.06 7.35
8/21/2021 12:30:00 AM 22.6 72.68 0.176 7.32 9.03 7.35
8/21/2021 12:45:00 AM 22.54 72.57201 0.176 7.3 9.11 7.38
8/21/2021 1:00:00 AM 22.5 72.5 0.176 7.3 12.39 7.4
8/21/2021 1:15:00 AM 22.44 72.392 0.177 7.29 10.62 7.36
8/21/2021 1:30:00 AM 22.4 72.32 0.176 7.29 10.12 7.41
8/21/2021 1:45:00 AM 22.34 72.212 0.177 7.27 12.58 7.34
8/21/2021 2:00:00 AM 22.29 72.122 0.177 7.27 11.76 7.37
8/21/2021 2:15:00 AM 22.24 72.032 0.176 7.27 11.1 7.4
8/21/2021 2:30:00 AM 22.21 71.978 0.176 7.27 8.4 7.43
8/21/2021 2:45:00 AM 22.14 71.852 0.176 7.28 9.28 7.43
8/21/2021 3:00:00 AM 22.08 71.744 0.176 7.28 11.29 7.47
8/21/2021 3:15:00 AM 22.02 71.636 0.176 7.27 11.66 7.45
8/21/2021 3:30:00 AM 21.99 71.582 0.178 7.27 9.49 7.45
8/21/2021 3:45:00 AM 21.92 71.456 0.177 7.26 12.75 7.45
8/21/2021 4:00:00 AM 21.87 71.366 0.178 7.25 14.46 7.44
8/21/2021 4:15:00 AM 21.9 71.42 0.178 7.23 11.73 7.4
8/21/2021 4:30:00 AM 21.78 71.204 0.179 7.21 10.83 7.44
8/21/2021 4:45:00 AM 21.71 71.078 0.177 7.22 18.51 7.4
8/21/2021 5:00:00 AM 21.65 70.97 0.177 7.22 11.55 7.43
8/21/2021 5:15:00 AM 21.62 70.916 0.178 7.2 12 7.48
8/21/2021 5:30:00 AM 21.57 70.826 0.178 7.21 13.98 7.39
8/21/2021 5:45:00 AM 21.52 70.736 0.178 7.21 13.33 7.49
8/21/2021 6:00:00 AM 21.47 70.646 0.178 7.21 12.06 7.52
8/21/2021 6:15:00 AM 21.42 70.556 0.177 7.21 13.29 7.52
8/21/2021 6:30:00 AM 21.36 70.448 0.177 7.21 12.44 7.46
8/21/2021 6:45:00 AM 21.33 70.394 0.177 7.21 11.88 7.56
8/21/2021 7:00:00 AM 21.28 70.304 0.178 7.22 8.92 7.58
8/21/2021 7:15:00 AM 21.27 70.286 0.177 7.22 8.65 7.57
8/21/2021 7:30:00 AM 21.19 70.142 0.178 7.21 8.89 7.56
8/21/2021 7:45:00 AM 21.21 70.17799 0.179 7.2 9.21 7.52
8/21/2021 8:00:00 AM 21.16 70.088 0.178 7.21 9.78 7.57
8/21/2021 8:15:00 AM 21.11 69.998 0.177 7.23 15.82 7.73
8/21/2021 8:30:00 AM 21.09 69.962 0.177 7.25 6.93 7.77
8/21/2021 8:45:00 AM 21.09 69.962 0.177 7.26 11.65 7.76
8/21/2021 9:00:00 AM 21.1 69.98 0.178 7.26 7.7 7.74
8/21/2021 9:15:00 AM 21.12 70.016 0.178 7.25 7.28 7.76
8/21/2021 9:30:00 AM 21.13 70.034 0.177 7.25 7.54 7.82
8/21/2021 9:45:00 AM 21.16 70.088 0.177 7.26 6.97 7.9
8/21/2021 10:00:00 AM 21.2 70.16 0.178 7.27 17.15 7.93
8/21/2021 10:15:00 AM 21.25 70.25 0.177 7.28 6.17 7.98
8/21/2021 10:30:00 AM 21.31 70.358 0.177 7.3 6.09 8.05
8/21/2021 10:45:00 AM 21.39 70.502 0.177 7.31 6.04 8.07
8/21/2021 11:00:00 AM 21.48 70.664 0.177 7.33 14.52 8.13
8/21/2021 11:15:00 AM 21.59 70.862 0.177 7.35 6.43 8.19
8/21/2021 11:30:00 AM 21.75 71.15 0.177 7.37 5.81 8.28
8/21/2021 11:45:00 AM 21.91 71.438 0.177 7.39 5.49 8.37
8/21/2021 12:00:00 PM 22.1 71.78 0.177 7.4 10.43 8.46
8/21/2021 12:15:00 PM 22.32 72.176 0.177 7.42 3.94 8.52
8/21/2021 12:30:00 PM 22.58 72.644 0.177 7.44 4.79 8.58
8/21/2021 12:45:00 PM 22.86 73.148 0.177 7.46 18.77 8.62
8/21/2021 1:00:00 PM 23 73.4 0.177 7.49 6.83 8.76
8/21/2021 1:15:00 PM 23.24 73.832 0.178 7.52 7.31 8.81
8/21/2021 1:30:00 PM 23.47 74.246 0.177 7.53 4.68 8.85
8/21/2021 1:45:00 PM 23.66 74.588 0.177 7.56 6.5 8.85
8/21/2021 2:00:00 PM 23.82 74.876 0.178 7.58 5.4 8.81
8/21/2021 2:15:00 PM 24.11 75.398 0.177 7.63 5.02 8.84
8/21/2021 2:30:00 PM 24.36 75.848 0.177 7.66 5.79 8.83
8/21/2021 2:45:00 PM 24.63 76.334 0.177 7.68 4.11 8.88
8/21/2021 3:00:00 PM 24.75 76.55 0.178 7.71 5.95 8.89
8/21/2021 3:15:00 PM 24.86 76.748 0.177 7.73 4.72 8.84
8/21/2021 3:30:00 PM 24.92 76.856 0.178 7.76 5.03 8.78
8/21/2021 3:45:00 PM 24.9 76.82 0.178 7.77 5.12 8.64
8/21/2021 4:00:00 PM 24.88 76.784 0.178 7.78 4.09 8.54
8/21/2021 4:15:00 PM 24.85 76.73 0.178 7.77 4.97 8.44
8/21/2021 4:30:00 PM 24.85 76.73 0.178 7.77 4.31 8.4
8/21/2021 4:45:00 PM 24.89 76.802 0.178 7.77 4.16 8.37
8/21/2021 5:00:00 PM 24.88 76.784 0.178 7.76 4.7 8.34
8/21/2021 5:15:00 PM 24.93 76.874 0.178 7.76 6.2 8.32
8/21/2021 5:30:00 PM 24.94 76.892 0.178 7.75 3.46 8.31
8/21/2021 5:45:00 PM 24.93 76.874 0.179 7.75 5.27 8.24
8/21/2021 6:00:00 PM 24.9 76.82 0.179 7.74 4.25 8.15
8/21/2021 6:15:00 PM 24.87 76.766 0.179 7.73 4.7 8.08
8/21/2021 6:30:00 PM 24.85 76.73 0.179 7.71 5.93 8.02
8/21/2021 6:45:00 PM 24.83 76.694 0.179 7.7 4.74 7.95
8/21/2021 7:00:00 PM 24.79 76.622 0.179 7.68 4 7.87
8/21/2021 7:15:00 PM 24.72 76.496 0.18 7.66 3.7 7.76
8/21/2021 7:30:00 PM 24.64 76.352 0.18 7.64 4.57 7.68
8/21/2021 7:45:00 PM 24.56 76.208 0.18 7.61 6.61 7.55
8/21/2021 8:00:00 PM 24.49 76.082 0.18 7.58 8.66 7.52
8/21/2021 8:15:00 PM 24.41 75.938 0.181 7.56 4.63 7.48
8/21/2021 8:30:00 PM 24.34 75.812 0.181 7.53 7.85 7.41
8/21/2021 8:45:00 PM 24.27 75.686 0.181 7.51 5.81 7.37
8/21/2021 9:00:00 PM 24.2 75.56 0.181 7.49 9.29 7.32
8/21/2021 9:15:00 PM 24.12 75.416 0.181 7.47 7.37 7.29
8/21/2021 9:30:00 PM 24.04 75.272 0.181 7.44 6.59 7.22
8/21/2021 9:45:00 PM 23.97 75.146 0.181 7.43 6.25 7.28
8/21/2021 10:00:00 PM 23.88 74.984 0.181 7.42 10.66 7.26
8/21/2021 10:15:00 PM 23.8 74.84 0.181 7.41 6.2 7.27
8/21/2021 10:30:00 PM 23.73 74.714 0.182 7.39 6.39 7.25
8/21/2021 10:45:00 PM 23.66 74.588 0.182 7.38 10.42 7.23
8/21/2021 11:00:00 PM 23.6 74.48 0.182 7.37 8.71 7.22
8/21/2021 11:15:00 PM 23.53 74.354 0.182 7.36 9.37 7.23
8/21/2021 11:30:00 PM 23.47 74.246 0.182 7.34 11.76 7.22
8/21/2021 11:45:00 PM 23.41 74.138 0.182 7.34 7.02 7.23
8/22/2021 12:00:00 AM 23.36 74.048 0.182 7.32 11.38 7.22
8/22/2021 12:15:00 AM 23.3 73.94 0.182 7.31 10.18 7.22
8/22/2021 12:30:00 AM 23.24 73.832 0.182 7.31 9.56 7.23
8/22/2021 12:45:00 AM 23.2 73.76 0.182 7.3 6.86 7.2
8/22/2021 1:00:00 AM 23.13 73.634 0.182 7.29 8.89 7.22
8/22/2021 1:15:00 AM 23.08 73.544 0.182 7.3 7.14 7.25
8/22/2021 1:30:00 AM 23.03 73.454 0.182 7.28 16.14 7.23
8/22/2021 1:45:00 AM 22.97 73.346 0.182 7.28 8.65 7.23
8/22/2021 2:00:00 AM 22.93 73.274 0.183 7.27 8.04 7.26
8/22/2021 2:15:00 AM 22.88 73.184 0.183 7.26 9.33 7.25
8/22/2021 2:30:00 AM 22.82 73.076 0.183 7.25 7.21 7.28
8/22/2021 2:45:00 AM 22.78 73.004 0.183 7.25 7.51 7.29
8/22/2021 3:00:00 AM 22.74 72.932 0.182 7.24 7.91 7.28
8/22/2021 3:15:00 AM 22.7 72.86 0.185 7.22 11.63 7.23
8/22/2021 3:30:00 AM 22.66 72.788 0.183 7.2 10.79 7.2
8/22/2021 3:45:00 AM 22.62 72.716 0.183 7.2 9.23 7.28
8/22/2021 4:00:00 AM 22.59 72.662 0.183 7.21 8.49 7.28
8/22/2021 4:15:00 AM 22.55 72.59 0.184 7.21 11.92 7.29
8/22/2021 4:30:00 AM 22.52 72.536 0.182 7.2 9.44 7.29
8/22/2021 4:45:00 AM 22.47 72.446 0.182 7.21 10.36 7.26
8/22/2021 5:00:00 AM 22.43 72.374 0.183 7.22 17.35 7.33
8/22/2021 5:15:00 AM 22.41 72.338 0.182 7.2 11.09 7.36
8/22/2021 5:30:00 AM 22.37 72.266 0.182 7.2 17.24 7.32
8/22/2021 5:45:00 AM 22.33 72.194 0.182 7.21 8.87 7.33
8/22/2021 6:00:00 AM 22.31 72.158 0.183 7.21 11.68 7.4
8/22/2021 6:15:00 AM 22.27 72.086 0.182 7.2 10.4 7.35
8/22/2021 6:30:00 AM 22.25 72.05 0.182 7.21 10.1 7.38
8/22/2021 6:45:00 AM 22.22 71.996 0.182 7.22 9.33 7.4
8/22/2021 7:00:00 AM 22.19 71.942 0.181 7.22 8.53 7.37
8/22/2021 7:15:00 AM 22.16 71.888 0.181 7.23 8.9 7.41
8/22/2021 7:30:00 AM 22.15 71.87 0.181 7.23 13.74 7.36
8/22/2021 7:45:00 AM 22.13 71.834 0.181 7.24 10.67 7.41
8/22/2021 8:00:00 AM 22.13 71.834 0.181 7.24 8.08 7.42
8/22/2021 8:15:00 AM 22.1 71.78 0.181 7.24 9.28 7.39
8/22/2021 8:30:00 AM 22.1 71.78 0.181 7.25 7.78 7.48
8/22/2021 8:45:00 AM 22.09 71.762 0.181 7.26 8.69 7.53
8/22/2021 9:00:00 AM 22.09 71.762 0.181 7.27 6.35 7.56
8/22/2021 9:15:00 AM 22.09 71.762 0.181 7.28 11.71 7.57
8/22/2021 9:30:00 AM 22.08 71.744 0.181 7.29 6.54 7.62
8/22/2021 9:45:00 AM 22.09 71.762 0.181 7.29 8.72 7.69
8/22/2021 10:00:00 AM 22.09 71.762 0.182 7.3 10.62 7.65
8/22/2021 10:15:00 AM 22.08 71.744 0.181 7.31 6.46 7.74
8/22/2021 10:30:00 AM 22.08 71.744 0.181 7.32 6.57 7.75
8/22/2021 10:45:00 AM 22.07 71.726 0.18 7.32 12.7 7.73
8/22/2021 11:00:00 AM 22.05 71.69 0.175 7.33 70.02 7.76
8/22/2021 11:15:00 AM 22.03 71.654 0.172 7.33 53 7.77
8/22/2021 11:30:00 AM 22.03 71.654 0.172 7.32 36.59 7.73
8/22/2021 11:45:00 AM 22.01 71.618 0.165 7.33 144.3 7.78
8/22/2021 12:00:00 PM 21.96 71.528 0.157 7.32 91.56 7.84
8/22/2021 12:15:00 PM 21.96 71.528 0.16 7.29 26.36 7.86
8/22/2021 12:30:00 PM 21.93 71.474 0.157 7.29 56.28 7.85
8/22/2021 12:45:00 PM 21.91 71.438 0.154 7.29 28.03 7.9
8/22/2021 1:00:00 PM 21.9 71.42 0.154 7.28 23.2 7.94
8/22/2021 1:15:00 PM 21.86 71.348 0.155 7.27 21.34 7.89
8/22/2021 1:30:00 PM 21.85 71.33 0.154 7.26 28.94 7.87
8/22/2021 1:45:00 PM 21.83 71.294 0.156 7.24 21 7.85
8/22/2021 2:00:00 PM 21.8 71.24 0.15 7.25 25.4 7.96
8/22/2021 2:15:00 PM 21.74 71.132 0.147 7.26 24.13 8.01
8/22/2021 2:30:00 PM 21.6 70.88 0.141 7.26 55.38 8
8/22/2021 2:45:00 PM 21.53 70.754 0.142 7.23 121.6 7.99
8/22/2021 3:00:00 PM 21.58 70.844 0.148 7.23 114.3 7.97
8/22/2021 3:15:00 PM 21.55 70.79 0.15 7.24 94.02 7.98
8/22/2021 3:30:00 PM 21.47 70.646 0.148 7.25 124.5 7.98
8/22/2021 3:45:00 PM 21.38 70.484 0.144 7.25 251.7 8
8/22/2021 4:00:00 PM 21.33 70.394 0.142 7.25 200.6 7.98
8/22/2021 4:15:00 PM 21.34 70.412 0.141 7.25 154.2 7.99
8/22/2021 4:30:00 PM 21.36 70.448 0.142 7.24 116.2 8.01
8/22/2021 4:45:00 PM 21.39 70.502 0.143 7.24 117.2 7.99
8/22/2021 5:00:00 PM 21.43 70.574 0.145 7.24 74.62 7.98
8/22/2021 5:15:00 PM 21.49 70.682 0.147 7.24 90.06 7.98
8/22/2021 5:30:00 PM 21.54 70.772 0.149 7.25 72.72 7.97
8/22/2021 5:45:00 PM 21.58 70.844 0.15 7.26 84.97 7.94
8/22/2021 6:00:00 PM 21.6 70.88 0.151 7.26 53.21 7.98
8/22/2021 6:15:00 PM 21.59 70.862 0.151 7.26 68.14 7.96
8/22/2021 6:30:00 PM 21.57 70.826 0.151 7.26 43.28 7.96
8/22/2021 6:45:00 PM 21.54 70.772 0.149 7.26 47.14 7.95
8/22/2021 7:00:00 PM 21.5 70.7 0.148 7.27 32.68 7.96
8/22/2021 7:15:00 PM 21.46 70.628 0.146 7.26 32.42 7.97
8/22/2021 7:30:00 PM 21.42 70.556 0.145 7.26 40.07 7.96
8/22/2021 7:45:00 PM 21.38 70.484 0.144 7.26 43.18 7.95
8/22/2021 8:00:00 PM 21.34 70.412 0.143 7.25 45.14 7.95
8/22/2021 8:15:00 PM 21.31 70.358 0.142 7.24 42.97 7.94
8/22/2021 8:30:00 PM 21.28 70.304 0.142 7.25 45.32 7.94
8/22/2021 8:45:00 PM 21.25 70.25 0.142 7.23 59.65 7.93
8/22/2021 9:00:00 PM 21.23 70.214 0.142 7.24 34.49 7.9
8/22/2021 9:15:00 PM 21.21 70.17799 0.142 7.24 53.03 7.91
8/22/2021 9:30:00 PM 21.19 70.142 0.142 7.24 44.49 7.91
8/22/2021 9:45:00 PM 21.17 70.106 0.142 7.24 39.43 7.9
8/22/2021 10:00:00 PM 21.15 70.07 0.143 7.23 48.35 7.9
8/22/2021 10:15:00 PM 21.13 70.034 0.143 7.23 37.37 7.85
8/22/2021 10:30:00 PM 21.12 70.016 0.144 7.22 32.24 7.87
8/22/2021 10:45:00 PM 21.11 69.998 0.145 7.22 28.41 7.86
8/22/2021 11:00:00 PM 21.11 69.998 0.146 7.22 27.62 7.87
8/22/2021 11:15:00 PM 21.11 69.998 0.148 7.22 27.4 7.86
8/22/2021 11:30:00 PM 21.11 69.998 0.15 7.22 27.68 7.86
8/22/2021 11:45:00 PM 21.11 69.998 0.152 7.22 20.06 7.85
8/23/2021 12:00:00 AM 21.11 69.998 0.153 7.22 24.91 7.83
8/23/2021 12:15:00 AM 21.11 69.998 0.155 7.22 24.96 7.85
8/23/2021 12:30:00 AM 21.11 69.998 0.156 7.26 27.69 7.89
8/23/2021 12:45:00 AM 21.1 69.98 0.157 7.27 24.29 7.9
8/23/2021 1:00:00 AM 21.1 69.98 0.158 7.26 29.74 7.9
8/23/2021 1:15:00 AM 21.09 69.962 0.159 7.27 26.31 7.88
8/23/2021 1:30:00 AM 21.09 69.962 0.16 7.27 36.32 7.87
8/23/2021 1:45:00 AM 21.09 69.962 0.159 7.27 26.68 7.89
8/23/2021 2:00:00 AM 21.08 69.944 0.159 7.27 20.89 7.91
8/23/2021 2:15:00 AM 21.07 69.926 0.16 7.27 33.63 7.91
8/23/2021 2:30:00 AM 21.06 69.908 0.16 7.27 21.65 7.9
8/23/2021 2:45:00 AM 21.05 69.89 0.161 7.27 33.86 7.9
8/23/2021 3:00:00 AM 21.03 69.854 0.162 7.26 25.11 7.89
8/23/2021 3:15:00 AM 21.01 69.818 0.163 7.26 20.5 7.89
8/23/2021 3:30:00 AM 20.99 69.782 0.163 7.26 29.89 7.89
8/23/2021 3:45:00 AM 20.97 69.746 0.162 7.25 25.83 7.9
8/23/2021 4:00:00 AM 20.95 69.71 0.162 7.26 28.13 7.9
8/23/2021 4:15:00 AM 20.93 69.674 0.162 7.25 22.99 7.92
8/23/2021 4:30:00 AM 20.9 69.62 0.163 7.26 25.91 7.93
8/23/2021 4:45:00 AM 20.87 69.566 0.163 7.25 21.22 7.94
8/23/2021 5:00:00 AM 20.84 69.512 0.164 7.26 26.7 7.94
8/23/2021 5:15:00 AM 20.8 69.44 0.164 7.25 27.9 7.94
8/23/2021 5:30:00 AM 20.78 69.404 0.165 7.25 27.46 7.94
8/23/2021 5:45:00 AM 20.75 69.35 0.166 7.25 30.07 7.95
8/23/2021 6:00:00 AM 20.73 69.314 0.167 7.25 34.13 7.95
8/23/2021 6:15:00 AM 20.71 69.278 0.168 7.26 40.03 7.93
8/23/2021 6:30:00 AM 20.69 69.242 0.168 7.26 29.18 7.96
8/23/2021 6:45:00 AM 20.67 69.206 0.168 7.26 29.85 7.94
8/23/2021 7:00:00 AM 20.65 69.17 0.168 7.27 19.92 7.96
8/23/2021 7:15:00 AM 20.64 69.152 0.168 7.27 30.04 7.96
8/23/2021 7:30:00 AM 20.63 69.134 0.167 7.27 22.78 7.98
8/23/2021 7:45:00 AM 20.62 69.116 0.167 7.27 23.27 8
8/23/2021 8:00:00 AM 20.61 69.098 0.166 7.28 22.56 8.01
8/23/2021 8:15:00 AM 20.61 69.098 0.165 7.28 20.58 8.01
8/23/2021 8:30:00 AM 20.61 69.098 0.165 7.28 18.86 8.03
8/23/2021 8:45:00 AM 20.61 69.098 0.164 7.28 18.48 8.07
8/23/2021 9:00:00 AM 20.61 69.098 0.164 7.28 17.08 8.06
8/23/2021 9:15:00 AM 20.62 69.116 0.164 7.28 12.44 8.08
8/23/2021 9:30:00 AM 20.65 69.17 0.164 7.29 14.22 8.06
8/23/2021 9:45:00 AM 20.69 69.242 0.164 7.29 20.48 8.11
8/23/2021 10:00:00 AM 20.75 69.35 0.164 7.3 19.94 8.16
8/23/2021 10:15:00 AM 20.79 69.422 0.164 7.31 24.52 8.16
8/23/2021 10:30:00 AM 20.85 69.53 0.164 7.31 28.54 8.14
8/23/2021 10:45:00 AM 20.91 69.638 0.164 7.32 30.68 8.16
8/23/2021 11:00:00 AM 21.01 69.818 0.164 7.33 17.86 8.15
8/23/2021 11:15:00 AM 21.14 70.052 0.164 7.33 25.35 8.19
8/23/2021 11:30:00 AM 21.29 70.32201 0.164 7.34 19.52 8.19
8/23/2021 11:45:00 AM 21.47 70.646 0.164 7.35 17.14 8.24
8/23/2021 12:00:00 PM 21.66 70.988 0.163 7.36 16.44 8.31
8/23/2021 12:15:00 PM 21.88 71.384 0.163 7.37 13.95 8.32
8/23/2021 12:30:00 PM 22.14 71.852 0.163 7.39 16.36 8.36
8/23/2021 12:45:00 PM 22.39 72.302 0.163 7.4 11.39 8.37
8/23/2021 1:00:00 PM 22.64 72.752 0.163 7.41 12.39 8.35
8/23/2021 1:15:00 PM 22.88 73.184 0.163 7.42 11.71 8.37
8/23/2021 1:30:00 PM 23.15 73.67 0.162 7.43 10.46 8.39
8/23/2021 1:45:00 PM 23.49 74.282 0.163 7.44 12.32 8.39
8/23/2021 2:00:00 PM 23.8 74.84 0.163 7.45 10.98 8.45
8/23/2021 2:15:00 PM 24.08 75.344 0.163 7.47 12.17 8.47
8/23/2021 2:30:00 PM 24.28 75.704 0.163 7.49 10.05 8.49
8/23/2021 2:45:00 PM 24.47 76.046 0.163 7.5 11.06 8.49
8/23/2021 3:00:00 PM 24.6 76.28 0.163 7.51 11.34 8.42
8/23/2021 3:15:00 PM 24.73 76.514 0.164 7.52 9.64 8.38
8/23/2021 3:30:00 PM 24.82 76.676 0.164 7.53 13.97 8.36
8/23/2021 3:45:00 PM 24.9 76.82 0.164 7.54 9.76 8.34
8/23/2021 4:00:00 PM 24.88 76.784 0.164 7.54 11.96 8.26
8/23/2021 4:15:00 PM 24.89 76.802 0.165 7.54 8.87 8.21
8/23/2021 4:30:00 PM 24.88 76.784 0.165 7.54 8.42 8.16
8/23/2021 4:45:00 PM 24.83 76.694 0.165 7.54 7.91 8.13
8/23/2021 5:00:00 PM 24.77 76.586 0.166 7.55 9.6 8.12
8/23/2021 5:15:00 PM 24.72 76.496 0.166 7.54 7.12 8.03
8/23/2021 5:30:00 PM 24.66 76.388 0.166 7.54 7.35 7.97
8/23/2021 5:45:00 PM 24.6 76.28 0.167 7.53 7.36 7.97
8/23/2021 6:00:00 PM 24.53 76.154 0.167 7.51 7.97 7.87
8/23/2021 6:15:00 PM 24.46 76.028 0.167 7.5 9.67 7.83
8/23/2021 6:30:00 PM 24.39 75.902 0.168 7.5 9.87 7.82
8/23/2021 6:45:00 PM 24.32 75.776 0.168 7.49 8.59 7.76
8/23/2021 7:00:00 PM 24.24 75.632 0.168 7.48 9.68 7.73
8/23/2021 7:15:00 PM 24.17 75.506 0.169 7.47 8.62 7.7
8/23/2021 7:30:00 PM 24.09 75.362 0.169 7.46 8.48 7.67
8/23/2021 7:45:00 PM 24.02 75.236 0.169 7.44 7.81 7.63
8/23/2021 8:00:00 PM 23.93 75.074 0.17 7.43 9.57 7.58
8/23/2021 8:15:00 PM 23.86 74.948 0.17 7.42 6.55 7.53
8/23/2021 8:30:00 PM 23.77 74.786 0.17 7.41 7.51 7.5
8/23/2021 8:45:00 PM 23.69 74.642 0.171 7.39 7.43 7.47
8/23/2021 9:00:00 PM 23.62 74.516 0.171 7.38 14.74 7.43
8/23/2021 9:15:00 PM 23.54 74.372 0.172 7.38 10.24 7.39
8/23/2021 9:30:00 PM 23.47 74.246 0.172 7.37 20.64 7.39
8/23/2021 9:45:00 PM 23.4 74.12 0.172 7.36 14.57 7.35
8/23/2021 10:00:00 PM 23.34 74.012 0.173 7.35 11.66 7.32
8/23/2021 10:15:00 PM 23.28 73.904 0.173 7.34 11.24 7.34
8/23/2021 10:30:00 PM 23.21 73.778 0.173 7.34 10.43 7.33
8/23/2021 10:45:00 PM 23.13 73.634 0.173 7.33 11.61 7.34
8/23/2021 11:00:00 PM 23.07 73.526 0.173 7.33 10.79 7.35
8/23/2021 11:15:00 PM 23.01 73.418 0.173 7.32 11.56 7.38
8/23/2021 11:30:00 PM 22.95 73.31 0.173 7.32 13.84 7.39
8/23/2021 11:45:00 PM 22.89 73.202 0.174 7.31 11.57 7.36
8/24/2021 12:00:00 AM 22.83 73.094 0.174 7.3 7.88 7.33
8/24/2021 12:15:00 AM 22.77 72.986 0.174 7.3 8.99 7.37
8/24/2021 12:30:00 AM 22.7 72.86 0.174 7.3 13.37 7.45
8/24/2021 12:45:00 AM 22.65 72.77 0.174 7.29 10.03 7.45
8/24/2021 1:00:00 AM 22.58 72.644 0.174 7.29 12.81 7.43
8/24/2021 1:15:00 AM 22.52 72.536 0.174 7.29 10.47 7.45
8/24/2021 1:30:00 AM 22.46 72.42799 0.175 7.29 10.31 7.46
8/24/2021 1:45:00 AM 22.4 72.32 0.175 7.28 10.8 7.46
8/24/2021 2:00:00 AM 22.33 72.194 0.175 7.28 9.82 7.48
8/24/2021 2:15:00 AM 22.28 72.104 0.175 7.27 9.91 7.5
8/24/2021 2:30:00 AM 22.22 71.996 0.175 7.27 7.96 7.51
8/24/2021 2:45:00 AM 22.17 71.906 0.175 7.27 16.72 7.49
8/24/2021 3:00:00 AM 22.11 71.798 0.176 7.27 7.53 7.51
8/24/2021 3:15:00 AM 22.06 71.708 0.176 7.26 11.7 7.54
8/24/2021 3:30:00 AM 22.02 71.636 0.176 7.26 8.97 7.56
8/24/2021 3:45:00 AM 21.97 71.546 0.176 7.26 9.77 7.55
8/24/2021 4:00:00 AM 21.92 71.456 0.176 7.26 7.91 7.6
8/24/2021 4:15:00 AM 21.88 71.384 0.176 7.26 7.81 7.59
8/24/2021 4:30:00 AM 21.83 71.294 0.177 7.26 14.09 7.6
8/24/2021 4:45:00 AM 21.78 71.204 0.177 7.26 9.34 7.58
8/24/2021 5:00:00 AM 21.74 71.132 0.177 7.25 13.42 7.6
8/24/2021 5:15:00 AM 21.7 71.06 0.177 7.25 12.82 7.61
8/24/2021 5:30:00 AM 21.66 70.988 0.177 7.25 11.8 7.58
8/24/2021 5:45:00 AM 21.62 70.916 0.177 7.25 8.99 7.64
8/24/2021 6:00:00 AM 21.58 70.844 0.177 7.25 9.64 7.58
8/24/2021 6:15:00 AM 21.54 70.772 0.177 7.24 7.64 7.62
8/24/2021 6:30:00 AM 21.5 70.7 0.178 7.24 9.48 7.65
8/24/2021 6:45:00 AM 21.46 70.628 0.178 7.24 10.19 7.67
8/24/2021 7:00:00 AM 21.43 70.574 0.178 7.24 8.42 7.7
8/24/2021 7:15:00 AM 21.4 70.52 0.178 7.24 8.22 7.67
8/24/2021 7:30:00 AM 21.37 70.466 0.178 7.24 9.79 7.69
8/24/2021 7:45:00 AM 21.35 70.43 0.178 7.24 9.12 7.69
8/24/2021 8:00:00 AM 21.32 70.376 0.178 7.24 8.89 7.71
8/24/2021 8:15:00 AM 21.31 70.358 0.178 7.25 10.83 7.72
8/24/2021 8:30:00 AM 21.3 70.34 0.178 7.25 8.72 7.77
8/24/2021 8:45:00 AM 21.3 70.34 0.178 7.25 6.26 7.81
8/24/2021 9:00:00 AM 21.31 70.358 0.178 7.25 6.1 7.78
8/24/2021 9:15:00 AM 21.33 70.394 0.178 7.26 8.64 7.84
8/24/2021 9:30:00 AM 21.37 70.466 0.178 7.26 5.14 7.85
8/24/2021 9:45:00 AM 21.41 70.538 0.178 7.27 6.75 7.91
8/24/2021 10:00:00 AM 21.45 70.61 0.177 7.28 8.61 7.93
8/24/2021 10:15:00 AM 21.51 70.718 0.177 7.28 5.38 7.98
8/24/2021 10:30:00 AM 21.57 70.826 0.177 7.29 5.65 8.01
8/24/2021 10:45:00 AM 21.65 70.97 0.177 7.3 5.5 8.08
8/24/2021 11:00:00 AM 21.75 71.15 0.177 7.31 5.24 8.1
8/24/2021 11:15:00 AM 21.87 71.366 0.177 7.33 5.15 8.17
8/24/2021 11:30:00 AM 22.02 71.636 0.177 7.35 4.57 8.21
8/24/2021 11:45:00 AM 22.19 71.942 0.177 7.37 5.39 8.27
8/24/2021 12:00:00 PM 22.4 72.32 0.177 7.39 4.6 8.35
8/24/2021 12:15:00 PM 22.64 72.752 0.177 7.4 4.68 8.48
8/24/2021 12:30:00 PM 22.91 73.238 0.177 7.42 3.72 8.54
8/24/2021 12:45:00 PM 23.19 73.742 0.176 7.44 4.25 8.61
8/24/2021 1:00:00 PM 23.47 74.246 0.176 7.46 5.38 8.67
8/24/2021 1:15:00 PM 23.77 74.786 0.176 7.47 4.41 8.64
8/24/2021 1:30:00 PM 24.15 75.47 0.176 7.49 4.8 8.6
8/24/2021 1:45:00 PM 24.53 76.154 0.176 7.52 3.65 8.71
8/24/2021 2:00:00 PM 24.91 76.838 0.176 7.54 5.97 8.73
8/24/2021 2:15:00 PM 25.29 77.522 0.176 7.56 3.14 8.73
8/24/2021 2:30:00 PM 25.65 78.17 0.177 7.57 3.21 8.71
8/24/2021 2:45:00 PM 25.89 78.602 0.177 7.6 2.98 8.7
8/24/2021 3:00:00 PM 26.02 78.836 0.177 7.6 4.45 8.58
8/24/2021 3:15:00 PM 26.13 79.034 0.177 7.6 4.19 8.48
8/24/2021 3:30:00 PM 26.24 79.232 0.177 7.61 4.03 8.4
8/24/2021 3:45:00 PM 26.32 79.376 0.177 7.61 3.7 8.34
8/24/2021 4:00:00 PM 26.35 79.43 0.177 7.61 5.64 8.22
8/24/2021 4:15:00 PM 26.36 79.448 0.177 7.62 5.17 8.2
8/24/2021 4:30:00 PM 26.34 79.412 0.178 7.63 4.41 8.08
8/24/2021 4:45:00 PM 26.29 79.32201 0.178 7.63 5 7.97
8/24/2021 5:00:00 PM 26.22 79.196 0.178 7.63 3.86 7.95
8/24/2021 5:15:00 PM 26.14 79.052 0.178 7.63 3.98 7.86
8/24/2021 5:30:00 PM 26.06 78.908 0.178 7.62 4.98 7.79
8/24/2021 5:45:00 PM 25.96 78.728 0.178 7.6 5.48 7.76
8/24/2021 6:00:00 PM 25.86 78.548 0.178 7.59 3.15 7.76
8/24/2021 6:15:00 PM 25.76 78.368 0.179 7.58 3.92 7.66
8/24/2021 6:30:00 PM 25.66 78.188 0.179 7.56 4.32 7.59
8/24/2021 6:45:00 PM 25.54 77.972 0.179 7.55 5.18 7.54
8/24/2021 7:00:00 PM 25.43 77.774 0.179 7.53 3.72 7.51
8/24/2021 7:15:00 PM 25.3 77.54 0.179 7.51 5.38 7.45
8/24/2021 7:30:00 PM 25.16 77.288 0.179 7.49 4.55 7.41
8/24/2021 7:45:00 PM 24.99 76.982 0.179 7.48 4.12 7.43
8/24/2021 8:00:00 PM 24.88 76.784 0.179 7.46 3.65 7.34
8/24/2021 8:15:00 PM 24.74 76.532 0.18 7.45 4.87 7.35
8/24/2021 8:30:00 PM 24.61 76.298 0.18 7.43 5.18 7.31
8/24/2021 8:45:00 PM 24.46 76.028 0.18 7.42 4.73 7.22
8/24/2021 9:00:00 PM 24.33 75.794 0.18 7.4 7.79 7.24
8/24/2021 9:15:00 PM 24.21 75.578 0.18 7.39 5.01 7.27
8/24/2021 9:30:00 PM 24.08 75.344 0.18 7.38 6.44 7.22
8/24/2021 9:45:00 PM 23.99 75.182 0.18 7.36 6.43 7.19
8/24/2021 10:00:00 PM 23.88 74.984 0.18 7.35 6.16 7.21
8/24/2021 10:15:00 PM 23.78 74.804 0.18 7.33 14.5 7.19
8/24/2021 10:30:00 PM 23.69 74.642 0.18 7.33 8.67 7.22
8/24/2021 10:45:00 PM 23.59 74.462 0.18 7.32 8.78 7.23
8/24/2021 11:00:00 PM 23.51 74.318 0.18 7.31 7.96 7.23
8/24/2021 11:15:00 PM 23.42 74.156 0.18 7.31 6.44 7.24
8/24/2021 11:30:00 PM 23.33 73.994 0.18 7.3 6.95 7.17
8/24/2021 11:45:00 PM 23.26 73.868 0.18 7.3 7.61 7.23
8/25/2021 12:00:00 AM 23.17 73.706 0.18 7.29 9.3 7.24
8/25/2021 12:15:00 AM 23.1 73.58 0.18 7.29 9.64 7.23
8/25/2021 12:30:00 AM 23.01 73.418 0.18 7.28 5.89 7.27
8/25/2021 12:45:00 AM 22.93 73.274 0.18 7.28 8.61 7.32
8/25/2021 1:00:00 AM 22.86 73.148 0.18 7.27 7.9 7.31
8/25/2021 1:15:00 AM 22.78 73.004 0.18 7.27 8.95 7.3
8/25/2021 1:30:00 AM 22.71 72.878 0.18 7.26 6.25 7.29
8/25/2021 1:45:00 AM 22.62 72.716 0.18 7.26 7.67 7.31
8/25/2021 2:00:00 AM 22.56 72.608 0.18 7.26 9.54 7.36
8/25/2021 2:15:00 AM 22.49 72.482 0.18 7.26 8.94 7.35
8/25/2021 2:30:00 AM 22.42 72.356 0.18 7.26 12.22 7.36
8/25/2021 2:45:00 AM 22.34 72.212 0.18 7.26 9.34 7.41
8/25/2021 3:00:00 AM 22.27 72.086 0.18 7.26 9.78 7.43
8/25/2021 3:15:00 AM 22.2 71.96 0.18 7.25 8.37 7.47
8/25/2021 3:30:00 AM 22.12 71.816 0.18 7.26 6.89 7.46
8/25/2021 3:45:00 AM 22.04 71.672 0.18 7.25 8.22 7.48
8/25/2021 4:00:00 AM 21.97 71.546 0.18 7.25 6.93 7.47
8/25/2021 4:15:00 AM 21.89 71.402 0.18 7.24 5.82 7.5
8/25/2021 4:30:00 AM 21.83 71.294 0.18 7.24 4.95 7.52
8/25/2021 4:45:00 AM 21.75 71.15 0.18 7.24 5.66 7.51
8/25/2021 5:00:00 AM 21.7 71.06 0.18 7.24 4.1 7.54
8/25/2021 5:15:00 AM 21.63 70.934 0.18 7.24 6.82 7.52
8/25/2021 5:30:00 AM 21.57 70.826 0.18 7.25 4.04 7.57
8/25/2021 5:45:00 AM 21.51 70.718 0.18 7.23 5.95 7.6
8/25/2021 6:00:00 AM 21.45 70.61 0.18 7.23 7.43 7.6
8/25/2021 6:15:00 AM 21.38 70.484 0.18 7.23 5.09 7.65
8/25/2021 6:30:00 AM 21.33 70.394 0.18 7.23 4.96 7.63
8/25/2021 6:45:00 AM 21.28 70.304 0.18 7.23 7.31 7.63
8/25/2021 7:00:00 AM 21.23 70.214 0.18 7.22 6.13 7.64
8/25/2021 7:15:00 AM 21.18 70.124 0.18 7.22 6.96 7.58
8/25/2021 7:30:00 AM 21.14 70.052 0.18 7.22 8.76 7.53
8/25/2021 7:45:00 AM 21.11 69.998 0.18 7.22 6.3 7.58
8/25/2021 8:00:00 AM 21.07 69.926 0.18 7.22 6.19 7.69
8/25/2021 8:15:00 AM 21.04 69.872 0.18 7.22 5.6 7.67
8/25/2021 8:30:00 AM 21.02 69.836 0.18 7.23 5.55 7.66
8/25/2021 8:45:00 AM 21.01 69.818 0.18 7.22 3.65 7.74
8/25/2021 9:00:00 AM 21.01 69.818 0.18 7.23 3.38 7.78
8/25/2021 9:15:00 AM 21.02 69.836 0.18 7.23 3.86 7.72
8/25/2021 9:30:00 AM 21.05 69.89 0.179 7.24 4.27 7.89
8/25/2021 9:45:00 AM 21.09 69.962 0.179 7.24 5.02 7.98
8/25/2021 10:00:00 AM 21.13 70.034 0.179 7.24 3.87 7.95
8/25/2021 10:15:00 AM 21.19 70.142 0.179 7.24 3.7 8.05
8/25/2021 10:30:00 AM 21.26 70.268 0.179 7.26 4.62 8.05
8/25/2021 10:45:00 AM 21.34 70.412 0.179 7.27 3.59 8.12
8/25/2021 11:00:00 AM 21.45 70.61 0.179 7.28 5.93 8.15
8/25/2021 11:15:00 AM 21.58 70.844 0.179 7.31 3.5 8.24
8/25/2021 11:30:00 AM 21.72 71.096 0.179 7.33 3.11 8.31
8/25/2021 11:45:00 AM 21.88 71.384 0.179 7.36 5.11 8.36
8/25/2021 12:00:00 PM 22.07 71.726 0.179 7.37 5.65 8.48
8/25/2021 12:15:00 PM 22.32 72.176 0.179 7.39 3.21 8.48
8/25/2021 12:30:00 PM 22.66 72.788 0.178 7.43 2.52 8.61
8/25/2021 12:45:00 PM 22.96 73.328 0.178 7.46 2.97 8.66
8/25/2021 1:00:00 PM 23.25 73.85 0.179 7.48 2.79 8.69
8/25/2021 1:15:00 PM 23.56 74.408 0.179 7.51 3.83 8.74
8/25/2021 1:30:00 PM 23.96 75.128 0.179 7.54 2.64 8.81
8/25/2021 1:45:00 PM 24.4 75.92 0.178 7.57 3.11 8.73
8/25/2021 2:00:00 PM 24.81 76.658 0.179 7.6 2.13 8.83
8/25/2021 2:15:00 PM 25.26 77.468 0.178 7.63 3.49 8.86
8/25/2021 2:30:00 PM 25.65 78.17 0.179 7.66 2.89 8.88
8/25/2021 2:45:00 PM 25.98 78.764 0.179 7.69 2.36 8.86
8/25/2021 3:00:00 PM 26.09 78.962 0.179 7.7 2.67 8.72
8/25/2021 3:15:00 PM 26.32 79.376 0.179 7.71 2.52 8.61
8/25/2021 3:30:00 PM 26.43 79.574 0.179 7.72 2.9 8.52
8/25/2021 3:45:00 PM 26.58 79.844 0.18 7.74 2.72 8.53
8/25/2021 4:00:00 PM 26.66 79.988 0.18 7.74 2.61 8.42
8/25/2021 4:15:00 PM 26.71 80.078 0.18 7.74 3.17 8.38
8/25/2021 4:30:00 PM 26.71 80.078 0.18 7.74 3.1 8.3
8/25/2021 4:45:00 PM 26.7 80.06 0.18 7.73 2.87 8.16
8/25/2021 5:00:00 PM 26.67 80.006 0.181 7.7 4.11 8.03
8/25/2021 5:15:00 PM 26.64 79.952 0.181 7.69 2.94 7.94
8/25/2021 5:30:00 PM 26.59 79.862 0.181 7.66 5.09 7.85
8/25/2021 5:45:00 PM 26.52 79.736 0.182 7.63 3.46 7.7
8/25/2021 6:00:00 PM 26.45 79.61 0.181 7.61 3.36 7.67
8/25/2021 6:15:00 PM 26.36 79.448 0.181 7.6 3.36 7.62
8/25/2021 6:30:00 PM 26.26 79.268 0.182 7.57 3.33 7.47
8/25/2021 6:45:00 PM 26.17 79.106 0.182 7.51 4.48 7.46
8/25/2021 7:00:00 PM 26.06 78.908 0.182 7.48 6.13 7.29
8/25/2021 7:15:00 PM 25.92 78.656 0.182 7.49 4.65 7.36
8/25/2021 7:30:00 PM 25.8 78.44 0.182 7.5 3.67 7.3
8/25/2021 7:45:00 PM 25.66 78.188 0.183 7.49 3.27 7.27
8/25/2021 8:00:00 PM 25.51 77.918 0.183 7.48 6.49 7.26
8/25/2021 8:15:00 PM 25.36 77.648 0.183 7.47 2.99 7.18
8/25/2021 8:30:00 PM 25.22 77.396 0.183 7.45 3.68 7.18
8/25/2021 8:45:00 PM 25.08 77.144 0.183 7.44 4.88 7.14
8/25/2021 9:00:00 PM 24.93 76.874 0.183 7.43 6.86 7.09
8/25/2021 9:15:00 PM 24.78 76.604 0.184 7.41 5.86 7.11
8/25/2021 9:30:00 PM 24.65 76.37 0.184 7.4 7.97 7.01
8/25/2021 9:45:00 PM 24.52 76.136 0.184 7.38 7.6 7.08
8/25/2021 10:00:00 PM 24.4 75.92 0.184 7.37 6.72 7.09
8/25/2021 10:15:00 PM 24.27 75.686 0.184 7.36 5.43 7.04
8/25/2021 10:30:00 PM 24.18 75.524 0.184 7.34 9.71 7.05
8/25/2021 10:45:00 PM 24.1 75.38 0.184 7.33 8.6 7.02
8/25/2021 11:00:00 PM 24.01 75.218 0.184 7.33 10.91 6.91
8/25/2021 11:15:00 PM 23.93 75.074 0.184 7.31 7.85 6.98
8/25/2021 11:30:00 PM 23.85 74.93 0.184 7.3 5.35 6.97
8/25/2021 11:45:00 PM 23.78 74.804 0.184 7.3 6.08 6.95
8/26/2021 12:00:00 AM 23.71 74.67799 0.184 7.29 8.37 7.06
8/26/2021 12:15:00 AM 23.63 74.534 0.184 7.29 5.23 7.06
8/26/2021 12:30:00 AM 23.57 74.426 0.184 7.28 6.95 7.06
8/26/2021 12:45:00 AM 23.51 74.318 0.184 7.28 6.14 7.03
8/26/2021 1:00:00 AM 23.45 74.21 0.184 7.27 7.59 6.98
8/26/2021 1:15:00 AM 23.39 74.102 0.184 7.26 5.09 7.06
8/26/2021 1:30:00 AM 23.32 73.976 0.184 7.27 6.96 7.12
8/26/2021 1:45:00 AM 23.25 73.85 0.184 7.26 5.36 7.11
8/26/2021 2:00:00 AM 23.2 73.76 0.184 7.25 8.58 7.11
8/26/2021 2:15:00 AM 23.13 73.634 0.184 7.24 10.6 7.11
8/26/2021 2:30:00 AM 23.08 73.544 0.184 7.24 6.52 7.13
8/26/2021 2:45:00 AM 23.02 73.436 0.184 7.24 5.8 7.12
8/26/2021 3:00:00 AM 22.96 73.328 0.184 7.24 5.11 7.1
8/26/2021 3:15:00 AM 22.89 73.202 0.184 7.24 6.15 7.13
8/26/2021 3:30:00 AM 22.8 73.04 0.184 7.24 5.8 7.09
8/26/2021 3:45:00 AM 22.76 72.968 0.184 7.24 15.09 7.2
8/26/2021 4:00:00 AM 22.71 72.878 0.184 7.23 7.81 7.23
8/26/2021 4:15:00 AM 22.66 72.788 0.184 7.23 7.98 7.2
8/26/2021 4:30:00 AM 22.61 72.698 0.184 7.23 7.99 7.23
8/26/2021 4:45:00 AM 22.55 72.59 0.183 7.22 7.28 7.21
8/26/2021 5:00:00 AM 22.5 72.5 0.184 7.22 5.64 7.18
8/26/2021 5:15:00 AM 22.44 72.392 0.184 7.23 6.53 7.14
8/26/2021 5:30:00 AM 22.39 72.302 0.183 7.22 5.98 7.23
8/26/2021 5:45:00 AM 22.33 72.194 0.183 7.22 6.31 7.16
8/26/2021 6:00:00 AM 22.29 72.122 0.183 7.21 8.27 7.24
8/26/2021 6:15:00 AM 22.24 72.032 0.184 7.21 5.7 7.21
8/26/2021 6:30:00 AM 22.19 71.942 0.184 7.2 9.69 7.18
8/26/2021 6:45:00 AM 22.12 71.816 0.184 7.2 6.8 7.2
8/26/2021 7:00:00 AM 22.1 71.78 0.184 7.19 5.94 7.2
8/26/2021 7:15:00 AM 22.04 71.672 0.183 7.2 4.99 7.25
8/26/2021 7:30:00 AM 22.02 71.636 0.183 7.2 5.41 7.23
8/26/2021 7:45:00 AM 21.98 71.564 0.183 7.2 5.32 7.24
8/26/2021 8:00:00 AM 21.95 71.51 0.184 7.19 4.79 7.26
8/26/2021 8:15:00 AM 21.92 71.456 0.183 7.19 5.45 7.12
8/26/2021 8:30:00 AM 21.89 71.402 0.183 7.2 3.6 7.28
8/26/2021 8:45:00 AM 21.88 71.384 0.183 7.2 4.63 7.3
8/26/2021 9:00:00 AM 21.87 71.366 0.183 7.2 4.97 7.33
8/26/2021 9:15:00 AM 21.86 71.348 0.183 7.2 3.21 7.29
8/26/2021 9:30:00 AM 21.87 71.366 0.182 7.2 3.38 7.22
8/26/2021 9:45:00 AM 21.89 71.402 0.182 7.18 3.88 7.25
8/26/2021 10:00:00 AM 21.92 71.456 0.182 7.19 4.06 7.41
8/26/2021 10:15:00 AM 21.95 71.51 0.182 7.19 3.83 7.45
8/26/2021 10:30:00 AM 21.99 71.582 0.182 7.18 3.36 7.59
8/26/2021 10:45:00 AM 22.1 71.78 0.182 7.2 10.99 7.76
8/26/2021 11:00:00 AM 22.14 71.852 0.181 7.22 5.36 7.8
8/26/2021 11:15:00 AM 22.24 72.032 0.182 7.24 2.89 7.78
8/26/2021 11:30:00 AM 22.35 72.23 0.182 7.27 3.5 7.74
8/26/2021 11:45:00 AM 22.51 72.518 0.181 7.31 2.47 7.83
8/26/2021 12:00:00 PM 22.74 72.932 0.181 7.34 2.5 7.82
8/26/2021 12:15:00 PM 22.95 73.31 0.181 7.37 2.93 8.15
8/26/2021 12:30:00 PM 23.25 73.85 0.181 7.39 7.42 8.38
8/26/2021 12:45:00 PM 23.61 74.498 0.18 7.43 3.85 8.51
8/26/2021 1:00:00 PM 23.86 74.948 0.181 7.44 3.24 8.17
8/26/2021 1:15:00 PM 24.19 75.542 0.18 7.46 2.53 8.39
8/26/2021 1:30:00 PM 24.52 76.136 0.181 7.5 2.47 8.4
8/26/2021 1:45:00 PM 24.87 76.766 0.181 7.53 3.04 8.17
8/26/2021 2:00:00 PM 25.4 77.72 0.18 7.55 3.05 8.56
8/26/2021 2:15:00 PM 25.71 78.278 0.18 7.6 2.8 8.71
8/26/2021 2:30:00 PM 26.14 79.052 0.18 7.68 2.78 8.88
8/26/2021 2:45:00 PM 26.47 79.646 0.18 7.73 2.93 8.92
8/26/2021 3:00:00 PM 26.63 79.934 0.181 7.69 4.15 8.2
8/26/2021 3:15:00 PM 26.85 80.33 0.181 7.66 2.72 8.26
8/26/2021 3:30:00 PM 26.98 80.564 0.181 7.64 3.34 8.07
8/26/2021 3:45:00 PM 27.11 80.798 0.181 7.66 3.91 8.37
8/26/2021 4:00:00 PM 27.15 80.87 0.181 7.6 3.23 8.13
8/26/2021 4:15:00 PM 27.21 80.978 0.181 7.56 4.13 7.8
8/26/2021 4:30:00 PM 27.24 81.032 0.182 7.55 5.83 7.74
8/26/2021 4:45:00 PM 27.25 81.05 0.182 7.49 4.8 7.62
8/26/2021 5:00:00 PM 27.27 81.086 0.182 7.5 3.36 7.29
8/26/2021 5:15:00 PM 27.27 81.086 0.182 7.49 3.34 7.06
8/26/2021 5:30:00 PM 27.23 81.014 0.182 7.47 4.52 7.21
8/26/2021 5:45:00 PM 27.16 80.888 0.182 7.49 4.95 7.48
8/26/2021 6:00:00 PM 27.12 80.816 0.182 7.48 2.63 7.19
8/26/2021 6:15:00 PM 27.07 80.726 0.182 7.48 5.75 7.43
8/26/2021 6:30:00 PM 27 80.6 0.183 7.5 3.12 7.5
8/26/2021 6:45:00 PM 26.92 80.456 0.183 7.53 3.64 7.47
8/26/2021 7:00:00 PM 26.82 80.276 0.183 7.52 5.43 7.37
8/26/2021 7:15:00 PM 26.68 80.024 0.183 7.52 3.82 7.27
8/26/2021 7:30:00 PM 26.56 79.808 0.184 7.49 3.59 7.08
8/26/2021 7:45:00 PM 26.39 79.502 0.184 7.48 4.6 7.09
8/26/2021 8:00:00 PM 26.23 79.214 0.185 7.48 4.41 7.03
8/26/2021 8:15:00 PM 26.09 78.962 0.185 7.46 4.39 7.02
8/26/2021 8:30:00 PM 25.9 78.62 0.185 7.45 6.02 6.95
8/26/2021 8:45:00 PM 25.8 78.44 0.185 7.44 4.91 6.96
8/26/2021 9:00:00 PM 25.64 78.152 0.185 7.42 4.38 6.93
8/26/2021 9:15:00 PM 25.51 77.918 0.185 7.4 9.52 6.91
8/26/2021 9:30:00 PM 25.32 77.576 0.186 7.39 10.23 6.91
8/26/2021 9:45:00 PM 25.17 77.306 0.186 7.37 10.97 6.85
8/26/2021 10:00:00 PM 25.05 77.09 0.186 7.35 9.91 6.84
8/26/2021 10:15:00 PM 24.92 76.856 0.186 7.34 7.16 6.87
8/26/2021 10:30:00 PM 24.82 76.676 0.186 7.33 39.86 6.74
8/26/2021 10:45:00 PM 24.7 76.46 0.186 7.3 10.8 6.82
8/26/2021 11:00:00 PM 24.59 76.262 0.186 7.29 8.48 6.89
8/26/2021 11:15:00 PM 24.49 76.082 0.186 7.29 5.51 6.84
8/26/2021 11:30:00 PM 24.41 75.938 0.186 7.28 4.53 6.89
8/26/2021 11:45:00 PM 24.31 75.758 0.186 7.28 9.35 6.85
8/27/2021 12:00:00 AM 24.2 75.56 0.186 7.27 14.96 6.75
8/27/2021 12:15:00 AM 24.11 75.398 0.186 7.25 6.66 6.74
8/27/2021 12:30:00 AM 24.07 75.326 0.186 7.25 5.32 6.86
8/27/2021 12:45:00 AM 23.97 75.146 0.186 7.25 11.16 6.91
8/27/2021 1:00:00 AM 23.85 74.93 0.185 7.25 11.74 6.89
8/27/2021 1:15:00 AM 23.78 74.804 0.186 7.23 43.82 6.8
8/27/2021 1:30:00 AM 23.7 74.66 0.185 7.23 10.1 6.86
8/27/2021 1:45:00 AM 23.63 74.534 0.185 7.22 10.77 6.94
8/27/2021 2:00:00 AM 23.53 74.354 0.186 7.22 10.59 6.95
8/27/2021 2:15:00 AM 23.48 74.264 0.185 7.21 7.4 7.01
8/27/2021 2:30:00 AM 23.4 74.12 0.185 7.22 7.5 6.98
8/27/2021 2:45:00 AM 23.31 73.958 0.185 7.22 5.04 7
8/27/2021 3:00:00 AM 23.24 73.832 0.185 7.22 8.08 7.01
8/27/2021 3:15:00 AM 23.18 73.724 0.185 7.23 11.73 7.04
8/27/2021 3:30:00 AM 23.12 73.616 0.185 7.22 6.23 7.04
8/27/2021 3:45:00 AM 23.06 73.508 0.185 7.22 6 7.04
8/27/2021 4:00:00 AM 22.97 73.346 0.185 7.22 7.47 7.07
8/27/2021 4:15:00 AM 22.93 73.274 0.185 7.22 4.37 7.09
8/27/2021 4:30:00 AM 22.85 73.13 0.185 7.21 8.5 7.1
8/27/2021 4:45:00 AM 22.8 73.04 0.185 7.21 4.47 7.14
8/27/2021 5:00:00 AM 22.75 72.95 0.185 7.21 5.32 7.16
8/27/2021 5:15:00 AM 22.67 72.806 0.185 7.21 5.71 7.18
8/27/2021 5:30:00 AM 22.62 72.716 0.184 7.21 9.13 7.22
8/27/2021 5:45:00 AM 22.52 72.536 0.184 7.21 6.5 7.25
8/27/2021 6:00:00 AM 22.48 72.464 0.185 7.2 5.2 7.14
8/27/2021 6:15:00 AM 22.45 72.41 0.185 7.2 9.1 7.16
8/27/2021 6:30:00 AM 22.38 72.284 0.185 7.2 7.23 7.13
8/27/2021 6:45:00 AM 22.35 72.23 0.184 7.19 5.03 7.2
8/27/2021 7:00:00 AM 22.29 72.122 0.184 7.2 6.18 7.18
8/27/2021 7:15:00 AM 22.24 72.032 0.184 7.19 7.04 7.21
8/27/2021 7:30:00 AM 22.2 71.96 0.184 7.18 6.38 7.25
8/27/2021 7:45:00 AM 22.17 71.906 0.184 7.17 6.61 7.32
8/27/2021 8:00:00 AM 22.15 71.87 0.184 7.18 5.89 7.35
8/27/2021 8:15:00 AM 22.12 71.816 0.184 7.18 3.85 7.39
8/27/2021 8:30:00 AM 22.12 71.816 0.184 7.19 6.46 7.43
8/27/2021 8:45:00 AM 22.12 71.816 0.183 7.18 3.97 7.38
8/27/2021 9:00:00 AM 22.13 71.834 0.183 7.18 4.05 7.28
8/27/2021 9:15:00 AM 22.18 71.924 0.183 7.2 3.54 7.43
8/27/2021 9:30:00 AM 22.22 71.996 0.183 7.18 3.66 7.37
8/27/2021 9:45:00 AM 22.25 72.05 0.183 7.21 3.18 7.74
8/27/2021 10:00:00 AM 22.3 72.14 0.183 7.22 3.48 7.71
8/27/2021 10:15:00 AM 22.34 72.212 0.183 7.26 3.12 7.97
8/27/2021 10:30:00 AM 22.42 72.356 0.182 7.29 3.32 7.92
8/27/2021 10:45:00 AM 22.54 72.57201 0.182 7.31 2.86 8.14
8/27/2021 11:00:00 AM 22.69 72.842 0.182 7.33 3 8.43
8/27/2021 11:15:00 AM 22.82 73.076 0.181 7.36 2.63 8.47
8/27/2021 11:30:00 AM 22.96 73.328 0.181 7.38 3.79 8.56
8/27/2021 11:45:00 AM 23 73.4 0.182 7.36 2.87 8.3
8/27/2021 12:00:00 PM 23.2 73.76 0.181 7.35 3.91 8.31
8/27/2021 12:15:00 PM 23.41 74.138 0.181 7.38 2.91 8.4
8/27/2021 12:30:00 PM 23.66 74.588 0.181 7.43 2.1 8.6
8/27/2021 12:45:00 PM 23.97 75.146 0.181 7.5 4.3 8.8
8/27/2021 1:00:00 PM 24.19 75.542 0.181 7.53 3.01 8.85
8/27/2021 1:15:00 PM 24.54 76.172 0.18 7.58 2.3 8.66
8/27/2021 1:30:00 PM 24.8 76.64 0.18 7.6 2.32 8.68
8/27/2021 1:45:00 PM 25.09 77.162 0.18 7.6 2.64 8.77
8/27/2021 2:00:00 PM 25.36 77.648 0.18 7.63 2.11 8.66
8/27/2021 2:15:00 PM 25.6 78.08 0.181 7.68 2.33 8.68
8/27/2021 2:30:00 PM 26.07 78.926 0.18 7.71 2.73 8.99
8/27/2021 2:45:00 PM 26.2 79.16 0.18 7.73 3.27 8.91
8/27/2021 3:00:00 PM 26.26 79.268 0.18 7.68 4.33 8.65
8/27/2021 3:15:00 PM 26.28 79.304 0.181 7.68 3.48 8.58
8/27/2021 3:30:00 PM 26.32 79.376 0.181 7.65 3.06 8.27
8/27/2021 3:45:00 PM 26.37 79.466 0.181 7.66 2.74 8.25
8/27/2021 4:00:00 PM 26.47 79.646 0.181 7.67 1.89 8.46
8/27/2021 4:15:00 PM 26.53 79.754 0.181 7.69 3.71 8.28
8/27/2021 4:30:00 PM 26.53 79.754 0.181 7.7 3.4 8.05
8/27/2021 4:45:00 PM 26.53 79.754 0.18 7.69 9.24 7.9
8/27/2021 5:00:00 PM 26.44 79.592 0.18 7.66 6.88 7.62
8/27/2021 5:15:00 PM 26.37 79.466 0.18 7.65 11.58 7.74
8/27/2021 5:30:00 PM 26.28 79.304 0.179 7.66 8.02 7.62
8/27/2021 5:45:00 PM 26.22 79.196 0.179 7.65 6.38 7.47
8/27/2021 6:00:00 PM 26.15 79.07 0.18 7.63 4.2 7.35
8/27/2021 6:15:00 PM 26.05 78.89 0.181 7.61 3.85 7.3
8/27/2021 6:30:00 PM 25.93 78.674 0.18 7.58 9.32 7.27
8/27/2021 6:45:00 PM 25.81 78.458 0.179 7.56 8.25 7.21
8/27/2021 7:00:00 PM 25.68 78.224 0.18 7.52 7.82 7.07
8/27/2021 7:15:00 PM 25.54 77.972 0.179 7.47 13.89 6.89
8/27/2021 7:30:00 PM 25.42 77.756 0.178 7.44 4.73 6.94
8/27/2021 7:45:00 PM 25.24 77.432 0.177 7.43 7.38 6.92
8/27/2021 8:00:00 PM 25.07 77.126 0.177 7.42 7.69 7.04
8/27/2021 8:15:00 PM 24.87 76.766 0.177 7.39 6.08 7.13
8/27/2021 8:30:00 PM 24.6 76.28 0.177 7.38 8.48 7.26
8/27/2021 8:45:00 PM 24.37 75.866 0.176 7.38 13.89 7.31
8/27/2021 9:00:00 PM 24.19 75.542 0.176 7.36 11.51 7.33
8/27/2021 9:15:00 PM 24.01 75.218 0.177 7.35 15.15 7.36
8/27/2021 9:30:00 PM 23.89 75.002 0.178 7.33 14.77 7.38
8/27/2021 9:45:00 PM 23.75 74.75 0.177 7.32 15.21 7.39
8/27/2021 10:00:00 PM 23.63 74.534 0.176 7.31 19.56 7.4
8/27/2021 10:15:00 PM 23.53 74.354 0.175 7.31 14.58 7.41
8/27/2021 10:30:00 PM 23.44 74.192 0.175 7.29 16.92 7.41
8/27/2021 10:45:00 PM 23.37 74.066 0.174 7.29 12.73 7.42
8/27/2021 11:00:00 PM 23.33 73.994 0.174 7.28 19.72 7.4
8/27/2021 11:15:00 PM 23.31 73.958 0.174 7.27 17.08 7.37
8/27/2021 11:30:00 PM 23.32 73.976 0.175 7.27 15.16 7.37
8/27/2021 11:45:00 PM 23.33 73.994 0.176 7.27 16.21 7.36
8/28/2021 12:00:00 AM 23.36 74.048 0.177 7.27 15.19 7.39
8/28/2021 12:15:00 AM 23.37 74.066 0.176 7.28 22.3 7.43
8/28/2021 12:30:00 AM 23.37 74.066 0.175 7.28 19.99 7.42
8/28/2021 12:45:00 AM 23.35 74.03 0.173 7.27 17.95 7.42
8/28/2021 1:00:00 AM 23.31 73.958 0.171 7.27 21.44 7.4
8/28/2021 1:15:00 AM 23.27 73.886 0.169 7.27 20.41 7.4
8/28/2021 1:30:00 AM 23.22 73.796 0.169 7.27 17.87 7.43
8/28/2021 1:45:00 AM 23.17 73.706 0.17 7.27 19.68 7.38
8/28/2021 2:00:00 AM 23.13 73.634 0.17 7.26 27.24 7.39
8/28/2021 2:15:00 AM 23.08 73.544 0.17 7.26 27.59 7.37
8/28/2021 2:30:00 AM 23.02 73.436 0.17 7.25 18.26 7.37
8/28/2021 2:45:00 AM 22.94 73.292 0.169 7.24 21.25 7.38
8/28/2021 3:00:00 AM 22.87 73.166 0.169 7.24 20.98 7.38
8/28/2021 3:15:00 AM 22.79 73.022 0.168 7.23 22.45 7.4
8/28/2021 3:30:00 AM 22.71 72.878 0.167 7.22 14.24 7.36
8/28/2021 3:45:00 AM 22.64 72.752 0.167 7.22 21.96 7.35
8/28/2021 4:00:00 AM 22.57 72.626 0.167 7.21 18.18 7.34
8/28/2021 4:15:00 AM 22.5 72.5 0.166 7.2 13.26 7.35
8/28/2021 4:30:00 AM 22.45 72.41 0.166 7.19 18.79 7.38
8/28/2021 4:45:00 AM 22.41 72.338 0.166 7.18 22.63 7.37
8/28/2021 5:00:00 AM 22.35 72.23 0.166 7.18 19.82 7.38
8/28/2021 5:15:00 AM 22.31 72.158 0.166 7.18 20.9 7.4
8/28/2021 5:30:00 AM 22.28 72.104 0.166 7.18 17.55 7.28
8/28/2021 5:45:00 AM 22.23 72.014 0.166 7.17 21.71 7.23
8/28/2021 6:00:00 AM 22.21 71.978 0.166 7.16 20.2 7.27
8/28/2021 6:15:00 AM 22.16 71.888 0.165 7.16 17.74 7.28
8/28/2021 6:30:00 AM 22.13 71.834 0.165 7.15 15.9 7.23
8/28/2021 6:45:00 AM 22.11 71.798 0.165 7.15 21.49 7.28
8/28/2021 7:00:00 AM 22.07 71.726 0.165 7.15 16.58 7.21
8/28/2021 7:15:00 AM 22.06 71.708 0.164 7.15 13.93 7.14
8/28/2021 7:30:00 AM 22.03 71.654 0.164 7.13 17.18 7.15
8/28/2021 7:45:00 AM 22.01 71.618 0.163 7.14 15.09 7.22
8/28/2021 8:00:00 AM 21.99 71.582 0.162 7.14 16.98 7.14
8/28/2021 8:15:00 AM 21.98 71.564 0.162 7.12 15.11 7.15
8/28/2021 8:30:00 AM 21.98 71.564 0.162 7.13 16.44 7.14
8/28/2021 8:45:00 AM 21.99 71.582 0.161 7.13 15.31 7.11
8/28/2021 9:00:00 AM 22.01 71.618 0.16 7.14 14.33 7.01
8/28/2021 9:15:00 AM 22.03 71.654 0.16 7.14 17.2 7.1
8/28/2021 9:30:00 AM 22.04 71.672 0.16 7.14 17.2 7.21
8/28/2021 9:45:00 AM 22.05 71.69 0.159 7.14 14.98 7.25
8/28/2021 10:00:00 AM 22.1 71.78 0.16 7.12 12.34 7.28
8/28/2021 10:15:00 AM 22.15 71.87 0.16 7.12 11.38 7.35
8/28/2021 10:30:00 AM 22.2 71.96 0.158 7.11 12.88 7.39
8/28/2021 10:45:00 AM 22.27 72.086 0.158 7.12 15.88 7.21
8/28/2021 11:00:00 AM 22.35 72.23 0.158 7.12 11.94 7.48
8/28/2021 11:15:00 AM 22.45 72.41 0.158 7.15 14.54 7.76
8/28/2021 11:30:00 AM 22.51 72.518 0.158 7.18 10.74 7.86
8/28/2021 11:45:00 AM 22.59 72.662 0.159 7.21 10.82 7.9
8/28/2021 12:00:00 PM 22.66 72.788 0.159 7.22 9.44 7.92
8/28/2021 12:15:00 PM 22.71 72.878 0.159 7.22 9.44 7.98
8/28/2021 12:30:00 PM 22.78 73.004 0.159 7.25 10.83 8.04
8/28/2021 12:45:00 PM 22.87 73.166 0.159 7.28 11.35 8.09
8/28/2021 1:00:00 PM 22.91 73.238 0.16 7.29 8.65 7.96
8/28/2021 1:15:00 PM 23.06 73.508 0.159 7.3 8.01 7.93
8/28/2021 1:30:00 PM 23.21 73.778 0.159 7.33 7.17 8.09
8/28/2021 1:45:00 PM 23.33 73.994 0.16 7.39 8.58 8.2
8/28/2021 2:00:00 PM 23.45 74.21 0.159 7.42 8.29 8.3
8/28/2021 2:15:00 PM 23.5 74.3 0.16 7.43 8.69 8.26
8/28/2021 2:30:00 PM 23.53 74.354 0.16 7.44 14.62 8.22
8/28/2021 2:45:00 PM 23.55 74.39 0.161 7.44 8.44 8.17
8/28/2021 3:00:00 PM 23.6 74.48 0.162 7.43 8.45 7.98
8/28/2021 3:15:00 PM 23.64 74.552 0.163 7.41 7.31 8.08
8/28/2021 3:30:00 PM 23.7 74.66 0.162 7.42 7.61 8.15
8/28/2021 3:45:00 PM 23.75 74.75 0.162 7.42 6.99 8.08
8/28/2021 4:00:00 PM 23.79 74.82201 0.163 7.44 7.03 8.05
8/28/2021 4:15:00 PM 23.81 74.858 0.163 7.44 9.2 8.17
8/28/2021 4:30:00 PM 23.82 74.876 0.163 7.45 7.38 8.13
8/28/2021 4:45:00 PM 23.83 74.894 0.164 7.44 6.1 8.02
8/28/2021 5:00:00 PM 23.84 74.912 0.165 7.42 5.55 7.99
8/28/2021 5:15:00 PM 23.82 74.876 0.165 7.41 6.24 8.02
8/28/2021 5:30:00 PM 23.78 74.804 0.166 7.4 7.04 7.97
8/28/2021 5:45:00 PM 23.77 74.786 0.167 7.41 5.82 7.85
8/28/2021 6:00:00 PM 23.71 74.67799 0.167 7.42 6.43 7.77
8/28/2021 6:15:00 PM 23.64 74.552 0.168 7.42 5.94 7.75
8/28/2021 6:30:00 PM 23.59 74.462 0.169 7.41 6.75 7.67
8/28/2021 6:45:00 PM 23.52 74.336 0.169 7.41 5.84 7.61
8/28/2021 7:00:00 PM 23.44 74.192 0.17 7.41 6.69 7.51
8/28/2021 7:15:00 PM 23.38 74.084 0.171 7.39 6.07 7.42
8/28/2021 7:30:00 PM 23.32 73.976 0.171 7.38 6.07 7.32
8/28/2021 7:45:00 PM 23.27 73.886 0.171 7.35 5.8 7.29
8/28/2021 8:00:00 PM 23.18 73.724 0.172 7.34 5.63 7.16
8/28/2021 8:15:00 PM 23.14 73.652 0.173 7.33 5.82 7.17
8/28/2021 8:30:00 PM 23.06 73.508 0.172 7.32 6.07 7.13
8/28/2021 8:45:00 PM 23 73.4 0.172 7.29 7.71 7.09
8/28/2021 9:00:00 PM 22.93 73.274 0.173 7.29 16.56 7.11
8/28/2021 9:15:00 PM 22.88 73.184 0.173 7.28 10.11 7.16
8/28/2021 9:30:00 PM 22.83 73.094 0.174 7.28 6.85 7.2
8/28/2021 9:45:00 PM 22.75 72.95 0.173 7.27 11.65 7.23
8/28/2021 10:00:00 PM 22.67 72.806 0.174 7.25 7.78 7.16
8/28/2021 10:15:00 PM 22.6 72.68 0.174 7.26 18.23 7.14
8/28/2021 10:30:00 PM 22.57 72.626 0.174 7.25 10.57 7.18
8/28/2021 10:45:00 PM 22.51 72.518 0.174 7.25 10.74 7.12
8/28/2021 11:00:00 PM 22.46 72.42799 0.174 7.23 8.16 7.17
8/28/2021 11:15:00 PM 22.41 72.338 0.175 7.23 10.09 7.15
8/28/2021 11:30:00 PM 22.34 72.212 0.175 7.23 7.75 7.13
8/28/2021 11:45:00 PM 22.29 72.122 0.175 7.24 9.01 7.19
8/29/2021 12:00:00 AM 22.23 72.014 0.175 7.24 23.08 7.13
8/29/2021 12:15:00 AM 22.21 71.978 0.175 7.24 8.46 7.26
8/29/2021 12:30:00 AM 22.15 71.87 0.175 7.24 15.98 7.2
8/29/2021 12:45:00 AM 22.09 71.762 0.175 7.24 10.37 7.3
8/29/2021 1:00:00 AM 22.08 71.744 0.175 7.24 10.27 7.27
8/29/2021 1:15:00 AM 22.04 71.672 0.176 7.23 9.38 7.28
8/29/2021 1:30:00 AM 21.98 71.564 0.175 7.24 9.73 7.29
8/29/2021 1:45:00 AM 21.92 71.456 0.175 7.23 7.57 7.35
8/29/2021 2:00:00 AM 21.93 71.474 0.175 7.23 6.78 7.3
8/29/2021 2:15:00 AM 21.87 71.366 0.175 7.24 12.36 7.34
8/29/2021 2:30:00 AM 21.85 71.33 0.176 7.23 8.22 7.28
8/29/2021 2:45:00 AM 21.81 71.258 0.176 7.23 13.48 7.28
8/29/2021 3:00:00 AM 21.77 71.186 0.176 7.23 10.41 7.36
8/29/2021 3:15:00 AM 21.72 71.096 0.176 7.23 8.12 7.4
8/29/2021 3:30:00 AM 21.7 71.06 0.176 7.23 6.38 7.36
8/29/2021 3:45:00 AM 21.65 70.97 0.176 7.24 7.01 7.42
8/29/2021 4:00:00 AM 21.62 70.916 0.176 7.23 7.81 7.4
8/29/2021 4:15:00 AM 21.59 70.862 0.176 7.22 7.39 7.37
8/29/2021 4:30:00 AM 21.56 70.808 0.176 7.22 8.74 7.39
8/29/2021 4:45:00 AM 21.54 70.772 0.177 7.21 7.18 7.41
8/29/2021 5:00:00 AM 21.52 70.736 0.177 7.2 9.85 7.37
8/29/2021 5:15:00 AM 21.49 70.682 0.177 7.2 6.67 7.42
8/29/2021 5:30:00 AM 21.46 70.628 0.177 7.19 10.98 7.43
8/29/2021 5:45:00 AM 21.42 70.556 0.177 7.2 10.24 7.36
8/29/2021 6:00:00 AM 21.41 70.538 0.177 7.2 6.61 7.41
8/29/2021 6:15:00 AM 21.34 70.412 0.177 7.18 5.91 7.36
8/29/2021 6:30:00 AM 21.3 70.34 0.177 7.19 7.51 7.48
8/29/2021 6:45:00 AM 21.28 70.304 0.177 7.2 10.8 7.54
8/29/2021 7:00:00 AM 21.27 70.286 0.177 7.21 4.54 7.43
8/29/2021 7:15:00 AM 21.27 70.286 0.178 7.21 4.97 7.38
8/29/2021 7:30:00 AM 21.24 70.232 0.178 7.22 4.89 7.42
8/29/2021 7:45:00 AM 21.22 70.196 0.178 7.22 5.35 7.41
8/29/2021 8:00:00 AM 21.19 70.142 0.178 7.22 9.39 7.5
8/29/2021 8:15:00 AM 21.18 70.124 0.178 7.22 3.62 7.45
8/29/2021 8:30:00 AM 21.19 70.142 0.178 7.22 4.77 7.56
8/29/2021 8:45:00 AM 21.18 70.124 0.179 7.22 5.33 7.62
8/29/2021 9:00:00 AM 21.18 70.124 0.178 7.22 3.98 7.64
8/29/2021 9:15:00 AM 21.2 70.16 0.178 7.23 4.15 7.57
8/29/2021 9:30:00 AM 21.22 70.196 0.178 7.21 3.7 7.62
8/29/2021 9:45:00 AM 21.25 70.25 0.178 7.22 3.37 7.35
8/29/2021 10:00:00 AM 21.28 70.304 0.178 7.23 3.47 7.43
8/29/2021 10:15:00 AM 21.32 70.376 0.178 7.24 6.67 7.43
8/29/2021 10:30:00 AM 21.37 70.466 0.178 7.24 4.28 7.61
8/29/2021 10:45:00 AM 21.43 70.574 0.178 7.24 5.81 7.62
8/29/2021 11:00:00 AM 21.5 70.7 0.178 7.27 3.43 7.77
8/29/2021 11:15:00 AM 21.6 70.88 0.177 7.29 3.57 7.99
8/29/2021 11:30:00 AM 21.71 71.078 0.178 7.35 4.33 8.31
8/29/2021 11:45:00 AM 21.79 71.222 0.178 7.37 6.54 8.3
8/29/2021 12:00:00 PM 21.96 71.528 0.177 7.44 6.28 8.38
8/29/2021 12:15:00 PM 22.07 71.726 0.177 7.5 3.76 8.44
8/29/2021 12:30:00 PM 22.21 71.978 0.177 7.54 4.59 8.59
8/29/2021 12:45:00 PM 22.46 72.42799 0.177 7.59 3.44 8.67
8/29/2021 1:00:00 PM 22.5 72.5 0.177 7.66 4.2 8.75
8/29/2021 1:15:00 PM 22.47 72.446 0.176 7.65 3.89 8.64
8/29/2021 1:30:00 PM 22.7 72.86 0.177 7.65 7.02 8.59
8/29/2021 1:45:00 PM 22.77 72.986 0.177 7.65 2.9 8.72
8/29/2021 2:00:00 PM 23.19 73.742 0.177 7.67 2.49 8.49
8/29/2021 2:15:00 PM 23.67 74.606 0.177 7.69 3.85 8.66
8/29/2021 2:30:00 PM 23.59 74.462 0.177 7.68 5.55 8.88
8/29/2021 2:45:00 PM 23.81 74.858 0.177 7.61 2.92 8.74
8/29/2021 3:00:00 PM 24.04 75.272 0.177 7.72 4.92 8.69
8/29/2021 3:15:00 PM 23.91 75.038 0.177 7.77 4.7 8.77
8/29/2021 3:30:00 PM 23.89 75.002 0.177 7.71 5.16 8.63
8/29/2021 3:45:00 PM 24.02 75.236 0.177 7.67 4.39 8.5
8/29/2021 4:00:00 PM 24.1 75.38 0.177 7.65 4.43 8.37
8/29/2021 4:15:00 PM 24.06 75.308 0.177 7.71 4.81 8.32
8/29/2021 4:30:00 PM 24.12 75.416 0.177 7.71 2.71 8.16
8/29/2021 4:45:00 PM 24.03 75.254 0.178 7.72 3.64 8.05
8/29/2021 5:00:00 PM 24.06 75.308 0.178 7.71 4.72 7.94
8/29/2021 5:15:00 PM 23.99 75.182 0.179 7.66 4.02 7.74
8/29/2021 5:30:00 PM 24.11 75.398 0.178 7.68 3.25 7.87
8/29/2021 5:45:00 PM 24.1 75.38 0.179 7.67 4.96 7.91
8/29/2021 6:00:00 PM 24.07 75.326 0.179 7.62 4.09 7.83
8/29/2021 6:15:00 PM 24.04 75.272 0.18 7.58 2.5 7.76
8/29/2021 6:30:00 PM 23.97 75.146 0.18 7.56 4.8 7.6
8/29/2021 6:45:00 PM 23.89 75.002 0.18 7.55 3.43 7.52
8/29/2021 7:00:00 PM 23.86 74.948 0.18 7.54 4.9 7.51
8/29/2021 7:15:00 PM 23.81 74.858 0.18 7.52 3.9 7.47
8/29/2021 7:30:00 PM 23.78 74.804 0.18 7.49 3.21 7.35
8/29/2021 7:45:00 PM 23.72 74.696 0.18 7.48 3.11 7.33
8/29/2021 8:00:00 PM 23.65 74.57 0.181 7.46 4.36 7.26
8/29/2021 8:15:00 PM 23.56 74.408 0.181 7.46 2.62 7.27
8/29/2021 8:30:00 PM 23.52 74.336 0.181 7.42 4.22 7.2
8/29/2021 8:45:00 PM 23.46 74.228 0.181 7.39 5.14 7.06
8/29/2021 9:00:00 PM 23.36 74.048 0.182 7.36 3.35 6.98
8/29/2021 9:15:00 PM 23.31 73.958 0.181 7.35 8.9 7.16
8/29/2021 9:30:00 PM 23.22 73.796 0.182 7.33 5.43 7.03
8/29/2021 9:45:00 PM 23.17 73.706 0.182 7.31 5.28 7.01
8/29/2021 10:00:00 PM 23.06 73.508 0.182 7.31 4.85 7.07
8/29/2021 10:15:00 PM 23.04 73.472 0.182 7.3 3.16 7.04
8/29/2021 10:30:00 PM 22.95 73.31 0.182 7.29 4.31 6.98
8/29/2021 10:45:00 PM 22.85 73.13 0.182 7.28 6.18 7.03
8/29/2021 11:00:00 PM 22.8 73.04 0.184 7.27 10.8 6.79
8/29/2021 11:15:00 PM 22.7 72.86 0.183 7.25 7.67 6.88
8/29/2021 11:30:00 PM 22.68 72.824 0.183 7.25 4.33 6.86
8/29/2021 11:45:00 PM 22.55 72.59 0.183 7.24 5.05 6.92
8/30/2021 12:00:00 AM 22.51 72.518 0.183 7.24 4.49 6.99
8/30/2021 12:15:00 AM 22.43 72.374 0.183 7.23 8.53 6.99
8/30/2021 12:30:00 AM 22.39 72.302 0.183 7.23 5.57 6.99
8/30/2021 12:45:00 AM 22.32 72.176 0.182 7.22 7.03 7.03
8/30/2021 1:00:00 AM 22.31 72.158 0.182 7.22 8.02 7.09
8/30/2021 1:15:00 AM 22.24 72.032 0.183 7.21 5.95 7.04
8/30/2021 1:30:00 AM 22.19 71.942 0.182 7.21 11.26 7.09
8/30/2021 1:45:00 AM 22.16 71.888 0.182 7.21 8.94 6.88
8/30/2021 2:00:00 AM 22.12 71.816 0.183 7.19 7.93 6.93
8/30/2021 2:15:00 AM 22.07 71.726 0.183 7.19 5.93 6.96
8/30/2021 2:30:00 AM 22 71.6 0.182 7.2 3.77 7.04
8/30/2021 2:45:00 AM 21.98 71.564 0.182 7.2 4.66 7.01
8/30/2021 3:00:00 AM 21.96 71.528 0.182 7.19 5.42 7.08
8/30/2021 3:15:00 AM 21.9 71.42 0.182 7.19 4.68 7.07
8/30/2021 3:30:00 AM 21.85 71.33 0.182 7.19 4.7 7.05
8/30/2021 3:45:00 AM 21.81 71.258 0.182 7.18 5.85 7.09
8/30/2021 4:00:00 AM 21.81 71.258 0.182 7.18 5.06 7.07
8/30/2021 4:15:00 AM 21.75 71.15 0.182 7.18 3.9 7.11
8/30/2021 4:30:00 AM 21.73 71.114 0.182 7.18 5.98 7.11
8/30/2021 4:45:00 AM 21.7 71.06 0.182 7.17 4.26 7.07
8/30/2021 5:00:00 AM 21.65 70.97 0.182 7.17 3.84 7.1
8/30/2021 5:15:00 AM 21.64 70.952 0.182 7.18 3.63 7.17
8/30/2021 5:30:00 AM 21.6 70.88 0.182 7.18 7.06 7.2
8/30/2021 5:45:00 AM 21.56 70.808 0.182 7.16 6.8 7.09
8/30/2021 6:00:00 AM 21.55 70.79 0.182 7.16 4.19 7.15
8/30/2021 6:15:00 AM 21.51 70.718 0.182 7.17 8.36 7.04
8/30/2021 6:30:00 AM 21.48 70.664 0.182 7.17 13.57 7.04
8/30/2021 6:45:00 AM 21.47 70.646 0.182 7.17 4.78 7.09
8/30/2021 7:00:00 AM 21.44 70.592 0.182 7.17 4.08 7.05
8/30/2021 7:15:00 AM 21.41 70.538 0.182 7.16 7.35 7.08
8/30/2021 7:30:00 AM 21.4 70.52 0.182 7.16 3.85 7.15
8/30/2021 7:45:00 AM 21.38 70.484 0.182 7.15 7.49 7.18
8/30/2021 8:00:00 AM 21.38 70.484 0.181 7.14 5.87 7.08
8/30/2021 8:15:00 AM 21.4 70.52 0.181 7.14 5.06 7.17
8/30/2021 8:30:00 AM 21.4 70.52 0.181 7.13 5.55 7.18
8/30/2021 8:45:00 AM 21.43 70.574 0.181 7.14 3.64 7.25
8/30/2021 9:00:00 AM 21.47 70.646 0.181 7.16 4.1 7.39
8/30/2021 9:15:00 AM 21.51 70.718 0.181 7.19 4.03 7.7
8/30/2021 9:30:00 AM 21.57 70.826 0.181 7.22 2.97 7.79
8/30/2021 9:45:00 AM 21.64 70.952 0.181 7.24 3.27 7.84
8/30/2021 10:00:00 AM 21.65 70.97 0.181 7.27 3.28 7.92
8/30/2021 10:15:00 AM 21.72 71.096 0.181 7.28 2.81 8
8/30/2021 10:30:00 AM 21.78 71.204 0.18 7.31 3.07 8.15
8/30/2021 10:45:00 AM 21.84 71.312 0.181 7.33 2.85 8.01
8/30/2021 11:00:00 AM 21.92 71.456 0.18 7.35 2.83 8.16
8/30/2021 11:15:00 AM 21.97 71.546 0.181 7.37 3.27 8.14
8/30/2021 11:30:00 AM 22.08 71.744 0.18 7.35 3.02 8.14
8/30/2021 11:45:00 AM 22.22 71.996 0.18 7.41 2.31 8.22
8/30/2021 12:00:00 PM 22.49 72.482 0.18 7.45 2.53 8.2
8/30/2021 12:15:00 PM 22.64 72.752 0.181 7.49 3.19 8.57
8/30/2021 12:30:00 PM 22.9 73.22 0.18 7.55 3.04 8.63
8/30/2021 12:45:00 PM 23.06 73.508 0.18 7.57 3.25 8.77
8/30/2021 1:00:00 PM 23.24 73.832 0.18 7.62 5.04 8.81
8/30/2021 1:15:00 PM 23.52 74.336 0.18 7.67 2.85 8.86
8/30/2021 1:30:00 PM 23.77 74.786 0.18 7.7 4.56 8.87
8/30/2021 1:45:00 PM 24.05 75.29 0.18 7.73 4.59 8.87
8/30/2021 2:00:00 PM 24.37 75.866 0.18 7.76 3.54 8.83
8/30/2021 2:15:00 PM 24.75 76.55 0.18 7.8 3.98 8.88
8/30/2021 2:30:00 PM 24.78 76.604 0.18 7.81 2.95 8.79
8/30/2021 2:45:00 PM 24.86 76.748 0.18 7.76 2.46 8.7
8/30/2021 3:00:00 PM 24.74 76.532 0.18 7.71 12.69 8.54
8/30/2021 3:15:00 PM 24.74 76.532 0.178 7.68 10.83 8.41
8/30/2021 3:30:00 PM 24.69 76.442 0.177 7.65 5.51 8.11
8/30/2021 3:45:00 PM 24.65 76.37 0.178 7.62 5.76 7.96
8/30/2021 4:00:00 PM 24.75 76.55 0.177 7.61 3.43 7.88
8/30/2021 4:15:00 PM 24.83 76.694 0.177 7.65 4.71 8.02
8/30/2021 4:30:00 PM 24.91 76.838 0.176 7.69 2.85 8.03
8/30/2021 4:45:00 PM 24.98 76.964 0.176 7.72 3.6 8.06
8/30/2021 5:00:00 PM 25 77 0.176 7.72 4.98 7.86
8/30/2021 5:15:00 PM 25.01 77.018 0.176 7.72 2.83 7.76
8/30/2021 5:30:00 PM 25.01 77.018 0.178 7.67 2.83 7.66
8/30/2021 5:45:00 PM 24.95 76.91 0.178 7.6 3.42 7.68
8/30/2021 6:00:00 PM 24.9 76.82 0.179 7.56 2.62 7.55
8/30/2021 6:15:00 PM 24.82 76.676 0.18 7.53 3.03 7.49
8/30/2021 6:30:00 PM 24.7 76.46 0.18 7.52 6.3 7.43
8/30/2021 6:45:00 PM 24.63 76.334 0.18 7.51 3.45 7.37
8/30/2021 7:00:00 PM 24.52 76.136 0.181 7.49 4.71 7.31
8/30/2021 7:15:00 PM 24.52 76.136 0.18 7.47 3.07 7.13
8/30/2021 7:30:00 PM 24.39 75.902 0.18 7.44 3.57 7.09
8/30/2021 7:45:00 PM 24.33 75.794 0.18 7.43 3.79 7.15
8/30/2021 8:00:00 PM 24.28 75.704 0.18 7.41 6.23 7.08
8/30/2021 8:15:00 PM 24.14 75.452 0.18 7.39 8.49 7.01
8/30/2021 8:30:00 PM 24.04 75.272 0.18 7.37 15.75 6.89
8/30/2021 8:45:00 PM 23.94 75.092 0.18 7.34 24.21 6.79
8/30/2021 9:00:00 PM 23.87 74.966 0.181 7.32 13.41 6.84
8/30/2021 9:15:00 PM 23.74 74.732 0.181 7.31 14.34 6.86
8/30/2021 9:30:00 PM 23.62 74.516 0.181 7.3 17.63 6.7
8/30/2021 9:45:00 PM 23.54 74.372 0.181 7.28 10.96 6.67
8/30/2021 10:00:00 PM 23.42 74.156 0.181 7.28 11.37 6.87
8/30/2021 10:15:00 PM 23.35 74.03 0.181 7.27 7.67 6.86
8/30/2021 10:30:00 PM 23.24 73.832 0.181 7.26 9.56 6.9
8/30/2021 10:45:00 PM 23.18 73.724 0.181 7.25 7.39 6.9
8/30/2021 11:00:00 PM 23.11 73.598 0.181 7.25 7.3 6.98
8/30/2021 11:15:00 PM 23.05 73.49 0.181 7.25 9.16 6.95
8/30/2021 11:30:00 PM 22.98 73.364 0.181 7.25 5.27 6.97
8/30/2021 11:45:00 PM 22.98 73.364 0.181 7.25 5.14 6.87
8/31/2021 12:00:00 AM 22.91 73.238 0.181 7.23 4.77 6.76
8/31/2021 12:15:00 AM 22.85 73.13 0.181 7.22 4.76 6.83
8/31/2021 12:30:00 AM 22.74 72.932 0.182 7.22 6.74 6.9
8/31/2021 12:45:00 AM 22.69 72.842 0.181 7.23 7.09 6.97
8/31/2021 1:00:00 AM 22.61 72.698 0.182 7.23 9.6 6.96
8/31/2021 1:15:00 AM 22.57 72.626 0.181 7.22 8.28 6.94
8/31/2021 1:30:00 AM 22.54 72.57201 0.181 7.22 6.1 6.88
8/31/2021 1:45:00 AM 22.46 72.42799 0.181 7.22 7.03 6.92
8/31/2021 2:00:00 AM 22.41 72.338 0.181 7.21 10.93 6.99
8/31/2021 2:15:00 AM 22.36 72.248 0.181 7.2 5.63 6.94
8/31/2021 2:30:00 AM 22.33 72.194 0.181 7.2 6.15 6.98
8/31/2021 2:45:00 AM 22.27 72.086 0.181 7.2 5.4 6.97
8/31/2021 3:00:00 AM 22.19 71.942 0.18 7.2 5.26 6.96
8/31/2021 3:15:00 AM 22.15 71.87 0.18 7.2 8.14 6.96
8/31/2021 3:30:00 AM 22.11 71.798 0.18 7.2 5.34 6.99
8/31/2021 3:45:00 AM 22.05 71.69 0.18 7.19 7.7 6.99
8/31/2021 4:00:00 AM 21.97 71.546 0.18 7.19 4.83 6.99
8/31/2021 4:15:00 AM 21.91 71.438 0.18 7.19 4.87 7.07
8/31/2021 4:30:00 AM 21.86 71.348 0.18 7.19 6 7.09
8/31/2021 4:45:00 AM 21.84 71.312 0.179 7.19 6.55 7.06
8/31/2021 5:00:00 AM 21.77 71.186 0.18 7.19 5.9 7.02
8/31/2021 5:15:00 AM 21.71 71.078 0.18 7.18 5.04 6.89
8/31/2021 5:30:00 AM 21.68 71.024 0.18 7.16 8.33 6.89
8/31/2021 5:45:00 AM 21.64 70.952 0.18 7.16 5.83 6.93
8/31/2021 6:00:00 AM 21.64 70.952 0.18 7.16 5.2 6.92
8/31/2021 6:15:00 AM 21.58 70.844 0.18 7.16 5.56 6.91
8/31/2021 6:30:00 AM 21.56 70.808 0.181 7.15 5.31 6.78
8/31/2021 6:45:00 AM 21.52 70.736 0.18 7.14 3.11 6.96
8/31/2021 7:00:00 AM 21.49 70.682 0.18 7.14 3.1 6.96
8/31/2021 7:15:00 AM 21.45 70.61 0.181 7.13 3.5 6.99
8/31/2021 7:30:00 AM 21.41 70.538 0.181 7.13 4.61 7.1
8/31/2021 7:45:00 AM 21.4 70.52 0.18 7.14 2.63 7.11
8/31/2021 8:00:00 AM 21.39 70.502 0.18 7.14 3.08 7.07
8/31/2021 8:15:00 AM 21.38 70.484 0.18 7.14 3.48 7.11
8/31/2021 8:30:00 AM 21.37 70.466 0.18 7.14 2.97 7.19
8/31/2021 8:45:00 AM 21.36 70.448 0.181 7.13 3.41 7.26
8/31/2021 9:00:00 AM 21.37 70.466 0.181 7.14 3.89 7.14
8/31/2021 9:15:00 AM 21.37 70.466 0.181 7.13 2.57 7.14
8/31/2021 9:30:00 AM 21.39 70.502 0.182 7.14 3.03 7.1
8/31/2021 9:45:00 AM 21.43 70.574 0.182 7.17 2.68 7.1
8/31/2021 10:00:00 AM 21.49 70.682 0.181 7.22 3.17 7.39
8/31/2021 10:15:00 AM 21.59 70.862 0.179 7.26 3.23 7.46
8/31/2021 10:30:00 AM 21.65 70.97 0.179 7.3 2.7 7.63
8/31/2021 10:45:00 AM 21.7 71.06 0.179 7.34 2.66 7.78
8/31/2021 11:00:00 AM 21.8 71.24 0.179 7.37 2.49 7.92
8/31/2021 11:15:00 AM 21.87 71.366 0.178 7.41 3.01 8.09
8/31/2021 11:30:00 AM 21.99 71.582 0.178 7.46 2.59 8.27
8/31/2021 11:45:00 AM 22.1 71.78 0.177 7.5 2.65 8.36
8/31/2021 12:00:00 PM 22.17 71.906 0.179 7.46 2.88 8.48
8/31/2021 12:15:00 PM 22.26 72.068 0.178 7.43 3.87 8.29
8/31/2021 12:30:00 PM 22.39 72.302 0.177 7.42 2.77 8.36
8/31/2021 12:45:00 PM 22.45 72.41 0.177 7.43 4.47 8.27
8/31/2021 1:00:00 PM 22.51 72.518 0.177 7.43 2.13 8.44
8/31/2021 1:15:00 PM 22.65 72.77 0.177 7.48 2.53 8.53
8/31/2021 1:30:00 PM 22.76 72.968 0.177 7.49 2.94 8.56
8/31/2021 1:45:00 PM 22.82 73.076 0.179 7.53 2.24 8.52
8/31/2021 2:00:00 PM 22.89 73.202 0.177 7.53 2.16 8.48
8/31/2021 2:15:00 PM 22.95 73.31 0.178 7.56 2.46 8.48
8/31/2021 2:30:00 PM 22.97 73.346 0.177 7.55 4.04 8.23
8/31/2021 2:45:00 PM 23.01 73.418 0.179 7.51 2.66 7.88
8/31/2021 3:00:00 PM 23.06 73.508 0.179 7.5 2.25 7.88
8/31/2021 3:15:00 PM 23.11 73.598 0.178 7.5 2.78 7.99
8/31/2021 3:30:00 PM 23.19 73.742 0.178 7.51 2.32 8.19
8/31/2021 3:45:00 PM 23.22 73.796 0.179 7.51 3.33 8.25
8/31/2021 4:00:00 PM 23.26 73.868 0.181 7.5 2.44 8.43
8/31/2021 4:15:00 PM 23.28 73.904 0.181 7.52 2.49 8.32
8/31/2021 4:30:00 PM 23.28 73.904 0.182 7.52 4.52 8.21
8/31/2021 4:45:00 PM 23.3 73.94 0.181 7.5 2.25 8.12
8/31/2021 5:00:00 PM 23.31 73.958 0.181 7.49 2.71 8.02
8/31/2021 5:15:00 PM 23.3 73.94 0.182 7.48 2.97 8.06
8/31/2021 5:30:00 PM 23.3 73.94 0.182 7.44 2.43 7.86
8/31/2021 5:45:00 PM 23.31 73.958 0.182 7.43 2.12 7.78
8/31/2021 6:00:00 PM 23.31 73.958 0.183 7.41 2.42 7.61
8/31/2021 6:15:00 PM 23.29 73.922 0.182 7.4 2.3 7.72
8/31/2021 6:30:00 PM 23.27 73.886 0.182 7.42 2.47 7.6
8/31/2021 6:45:00 PM 23.25 73.85 0.182 7.42 2.35 7.65
8/31/2021 7:00:00 PM 23.21 73.778 0.183 7.43 2.52 7.58
8/31/2021 7:15:00 PM 23.19 73.742 0.184 7.42 2.81 7.59
8/31/2021 7:30:00 PM 23.1 73.58 0.181 7.43 4.83 7.6
8/31/2021 7:45:00 PM 23.05 73.49 0.181 7.45 3.37 7.67
8/31/2021 8:00:00 PM 23 73.4 0.181 7.46 2.87 7.58
8/31/2021 8:15:00 PM 22.93 73.274 0.182 7.47 2.81 7.51
8/31/2021 8:30:00 PM 22.88 73.184 0.182 7.46 4.28 7.46
8/31/2021 8:45:00 PM 22.83 73.094 0.183 7.44 3.84 7.38
8/31/2021 9:00:00 PM 22.78 73.004 0.183 7.43 3.25 7.33
8/31/2021 9:15:00 PM 22.73 72.914 0.183 7.42 3.24 7.25
8/31/2021 9:30:00 PM 22.69 72.842 0.183 7.39 4.81 7.06
8/31/2021 9:45:00 PM 22.65 72.77 0.183 7.36 4.19 7.05
8/31/2021 10:00:00 PM 22.59 72.662 0.184 7.35 5.69 7.09
8/31/2021 10:15:00 PM 22.56 72.608 0.184 7.34 5.02 7.13
8/31/2021 10:30:00 PM 22.51 72.518 0.184 7.33 7.32 7.1
8/31/2021 10:45:00 PM 22.44 72.392 0.184 7.32 6.49 7.17
8/31/2021 11:00:00 PM 22.4 72.32 0.184 7.31 4.26 7.12
8/31/2021 11:15:00 PM 22.35 72.23 0.184 7.3 3.74 7.08
8/31/2021 11:30:00 PM 22.31 72.158 0.184 7.3 4.46 7.13
8/31/2021 11:45:00 PM 22.25 72.05 0.184 7.29 4.5 7.13
9/1/2021 12:00:00 AM 22.2 71.96 0.184 7.28 7.86 7.21
9/1/2021 12:15:00 AM 22.16 71.888 0.184 7.28 5.25 7.15
9/1/2021 12:30:00 AM 22.11 71.798 0.184 7.27 3.79 7.06
9/1/2021 12:45:00 AM 22.07 71.726 0.184 7.27 3.3 7.1
9/1/2021 1:00:00 AM 22.04 71.672 0.183 7.27 5.5 7.18
9/1/2021 1:15:00 AM 22 71.6 0.183 7.26 3.69 7.17
9/1/2021 1:30:00 AM 21.96 71.528 0.183 7.26 6.32 7.19
9/1/2021 1:45:00 AM 21.92 71.456 0.183 7.25 3.98 7.22
9/1/2021 2:00:00 AM 21.88 71.384 0.183 7.25 8.29 7.25
9/1/2021 2:15:00 AM 21.85 71.33 0.183 7.25 4.31 7.21
9/1/2021 2:30:00 AM 21.81 71.258 0.183 7.24 3.8 7.14
9/1/2021 2:45:00 AM 21.79 71.222 0.183 7.24 11.06 7.25
9/1/2021 3:00:00 AM 21.76 71.168 0.183 7.24 18.52 7.14
9/1/2021 3:15:00 AM 21.73 71.114 0.183 7.22 6.75 7
9/1/2021 3:30:00 AM 21.7 71.06 0.183 7.22 4.63 7.02
9/1/2021 3:45:00 AM 21.67 71.006 0.183 7.22 7.05 7.06
9/1/2021 4:00:00 AM 21.64 70.952 0.183 7.21 6.42 7.08
9/1/2021 4:15:00 AM 21.6 70.88 0.182 7.2 6.41 7.04
9/1/2021 4:30:00 AM 21.57 70.826 0.182 7.2 6.64 7.01
9/1/2021 4:45:00 AM 21.55 70.79 0.181 7.19 6.6 7.07
9/1/2021 5:00:00 AM 21.52 70.736 0.181 7.19 4.37 7.02
9/1/2021 5:15:00 AM 21.49 70.682 0.18 7.19 14.25 7.06
9/1/2021 5:30:00 AM 21.47 70.646 0.18 7.19 6.1 7.15
9/1/2021 5:45:00 AM 21.44 70.592 0.179 7.19 5.57 7.13
9/1/2021 6:00:00 AM 21.42 70.556 0.179 7.18 9.22 7.11
9/1/2021 6:15:00 AM 21.4 70.52 0.178 7.18 5.47 7
9/1/2021 6:30:00 AM 21.37 70.466 0.178 7.17 5.42 7.09
9/1/2021 6:45:00 AM 21.35 70.43 0.175 7.19 52.09 7.31
9/1/2021 7:00:00 AM 21.32 70.376 0.172 7.2 13.12 7.28
9/1/2021 7:15:00 AM 21.28 70.304 0.17 7.19 7.79 7.27
9/1/2021 7:30:00 AM 21.26 70.268 0.169 7.19 8.2 7.31
9/1/2021 7:45:00 AM 21.23 70.214 0.169 7.18 10.79 7.29
9/1/2021 8:00:00 AM 21.22 70.196 0.169 7.17 8.5 7.3
9/1/2021 8:15:00 AM 21.19 70.142 0.17 7.17 11.7 7.46
9/1/2021 8:30:00 AM 21.18 70.124 0.17 7.17 6.61 7.23
9/1/2021 8:45:00 AM 21.14 70.052 0.169 7.17 5.96 7.53
9/1/2021 9:00:00 AM 21.11 69.998 0.167 7.2 8.9 7.65
9/1/2021 9:15:00 AM 21.06 69.908 0.164 7.21 12.29 7.69
9/1/2021 9:30:00 AM 20.98 69.764 0.16 7.22 34.73 7.8
9/1/2021 9:45:00 AM 20.91 69.638 0.156 7.22 94.25 7.79
9/1/2021 10:00:00 AM 20.88 69.584 0.156 7.22 87.77 7.69
9/1/2021 10:15:00 AM 20.87 69.566 0.158 7.21 69.75 7.73
9/1/2021 10:30:00 AM 20.85 69.53 0.16 7.21 66.53 7.79
9/1/2021 10:45:00 AM 20.83 69.494 0.16 7.21 40.57 7.84
9/1/2021 11:00:00 AM 20.79 69.422 0.158 7.23 25.08 7.88
9/1/2021 11:15:00 AM 20.75 69.35 0.158 7.24 18.03 7.88
9/1/2021 11:30:00 AM 20.73 69.314 0.158 7.24 22.02 7.89
9/1/2021 11:45:00 AM 20.7 69.26 0.158 7.24 22.83 7.88
9/1/2021 12:00:00 PM 20.66 69.188 0.157 7.24 18.26 7.89
9/1/2021 12:15:00 PM 20.6 69.08 0.155 7.25 18.19 7.9
9/1/2021 12:30:00 PM 20.53 68.954 0.155 7.26 24.04 7.97
9/1/2021 12:45:00 PM 20.49 68.882 0.153 7.27 32.11 7.97
9/1/2021 1:00:00 PM 20.45 68.81 0.151 7.28 29.34 7.98
9/1/2021 1:15:00 PM 20.43 68.774 0.148 7.28 63.51 8.01
9/1/2021 1:30:00 PM 20.41 68.738 0.145 7.28 47.48 8
9/1/2021 1:45:00 PM 20.4 68.72 0.14 7.28 56.17 7.98
9/1/2021 2:00:00 PM 20.39 68.702 0.139 7.27 48.38 7.98
9/1/2021 2:15:00 PM 20.38 68.684 0.139 7.26 82.23 7.98
9/1/2021 2:30:00 PM 20.38 68.684 0.141 7.25 59.7 7.98
9/1/2021 2:45:00 PM 20.39 68.702 0.142 7.25 71.84 7.93
9/1/2021 3:00:00 PM 20.4 68.72 0.139 7.26 62.88 7.96
9/1/2021 3:15:00 PM 20.4 68.72 0.135 7.26 62.63 8.07
9/1/2021 3:30:00 PM 20.4 68.72 0.134 7.24 64.71 8.04
9/1/2021 3:45:00 PM 20.41 68.738 0.129 7.22 52.94 8.11
9/1/2021 4:00:00 PM 20.4 68.72 0.125 7.15 291 8.02
9/1/2021 4:15:00 PM 20.43 68.774 0.118 7.05 1082 7.64
9/1/2021 4:30:00 PM 20.49 68.882 0.109 6.99 1540 7.7
9/1/2021 4:45:00 PM 20.5 68.9 0.113 6.95 1647 7.58
9/1/2021 5:00:00 PM 20.49 68.882 0.113 6.94 1530 7.51
9/1/2021 5:15:00 PM 20.45 68.81 0.113 6.96 1582 7.53
9/1/2021 5:30:00 PM 20.49 68.882 0.106 7.01 1342 7.64
9/1/2021 5:45:00 PM 20.58 69.044 0.098 7.02 1156 7.73
9/1/2021 6:00:00 PM 20.64 69.152 0.094 6.99 1384 7.76
9/1/2021 6:15:00 PM 20.68 69.224 0.091 6.96 1080 7.79
9/1/2021 6:30:00 PM 20.7 69.26 0.089 6.94 1634 7.84
9/1/2021 6:45:00 PM 20.7 69.26 0.089 6.94 1513 7.89
9/1/2021 7:00:00 PM 20.7 69.26 0.09 6.91 1271 7.85
9/1/2021 7:15:00 PM 20.69 69.242 0.089 6.9 1073 7.81
9/1/2021 7:30:00 PM 20.66 69.188 0.087 6.91 1067 7.86
9/1/2021 7:45:00 PM 20.63 69.134 0.084 6.92 1360 7.92
9/1/2021 8:00:00 PM 20.59 69.062 0.082 6.92 823.6 7.97
9/1/2021 8:15:00 PM 20.54 68.972 0.082 6.94 727.7 7.99
9/1/2021 8:30:00 PM 20.5 68.9 0.082 6.95 675.4 8.02
9/1/2021 8:45:00 PM 20.46 68.828 0.083 6.95 586.7 8.05
9/1/2021 9:00:00 PM 20.42 68.756 0.085 6.95 508.9 8.07
9/1/2021 9:15:00 PM 20.38 68.684 0.086 6.95 503.2 8.09
9/1/2021 9:30:00 PM 20.33 68.594 0.087 6.96 475.9 8.09
9/1/2021 9:45:00 PM 20.29 68.522 0.088 6.96 446 8.11
9/1/2021 10:00:00 PM 20.23 68.414 0.088 6.97 405.9 8.12
9/1/2021 10:15:00 PM 20.17 68.306 0.089 6.97 406.3 8.15
9/1/2021 10:30:00 PM 20.11 68.198 0.09 6.98 410.5 8.16
9/1/2021 10:45:00 PM 20.04 68.07201 0.09 6.97 377.1 8.16
9/1/2021 11:00:00 PM 19.98 67.964 0.091 6.97 365.8 8.18
9/1/2021 11:15:00 PM 19.92 67.856 0.092 6.96 330.5 8.19
9/1/2021 11:30:00 PM 19.86 67.748 0.093 6.95 290.7 8.18
9/1/2021 11:45:00 PM 19.8 67.64 0.094 6.94 280 8.2
9/2/2021 12:00:00 AM 19.75 67.55 0.096 6.94 265.8 8.21
9/2/2021 12:15:00 AM 19.7 67.46 0.098 6.93 261.1 8.22
9/2/2021 12:30:00 AM 19.65 67.37 0.101 6.93 223 8.23
9/2/2021 12:45:00 AM 19.6 67.28 0.103 6.93 224.3 8.24
9/2/2021 1:00:00 AM 19.55 67.19 0.105 6.93 216.4 8.25
9/2/2021 1:15:00 AM 19.5 67.1 0.108 6.93 204.3 8.26
9/2/2021 1:30:00 AM 19.46 67.028 0.11 6.93 185.5 8.27
9/2/2021 1:45:00 AM 19.41 66.938 0.112 6.93 170.5 8.28
9/2/2021 2:00:00 AM 19.36 66.848 0.114 6.94 172.2 8.29
9/2/2021 2:15:00 AM 19.31 66.758 0.115 6.94 157.1 8.3
9/2/2021 2:30:00 AM 19.27 66.686 0.116 6.94 148.3 8.31
9/2/2021 2:45:00 AM 19.22 66.596 0.118 6.93 133.8 8.32
9/2/2021 3:00:00 AM 19.17 66.506 0.119 6.94 128.1 8.33
9/2/2021 3:15:00 AM 19.12 66.416 0.12 6.94 116.8 8.34
9/2/2021 3:30:00 AM 19.06 66.308 0.121 6.94 110.8 8.35
9/2/2021 3:45:00 AM 19.01 66.218 0.122 6.95 107.4 8.35
9/2/2021 4:00:00 AM 18.96 66.128 0.123 6.95 106.2 8.36
9/2/2021 4:15:00 AM 18.91 66.038 0.124 6.95 94.07 8.38
9/2/2021 4:30:00 AM 18.86 65.948 0.125 6.95 90.99 8.39
9/2/2021 4:45:00 AM 18.8 65.84 0.126 6.96 79.54 8.4
9/2/2021 5:00:00 AM 18.75 65.75 0.127 6.96 79.94 8.42
9/2/2021 5:15:00 AM 18.69 65.642 0.128 6.96 77.79 8.43
9/2/2021 5:30:00 AM 18.64 65.552 0.129 6.96 70.32 8.44
9/2/2021 5:45:00 AM 18.59 65.462 0.13 6.97 63.56 8.44
9/2/2021 6:00:00 AM 18.53 65.354 0.131 6.97 61.94 8.46
9/2/2021 6:15:00 AM 18.48 65.264 0.132 6.97 66.61 8.47
9/2/2021 6:30:00 AM 18.42 65.156 0.133 6.97 54.63 8.49
9/2/2021 6:45:00 AM 18.36 65.048 0.134 6.98 55.43 8.5
9/2/2021 7:00:00 AM 18.31 64.958 0.135 6.98 54.11 8.52
9/2/2021 7:15:00 AM 18.25 64.85 0.135 6.98 59.21 8.53
9/2/2021 7:30:00 AM 18.19 64.742 0.136 6.99 51.33 8.55
9/2/2021 7:45:00 AM 18.14 64.652 0.137 6.99 46.5 8.56
9/2/2021 8:00:00 AM 18.08 64.544 0.138 6.99 48.63 8.58
9/2/2021 8:15:00 AM 18.04 64.472 0.138 6.99 45.58 8.59
9/2/2021 8:30:00 AM 18 64.4 0.139 6.99 44.41 8.6
9/2/2021 8:45:00 AM 17.96 64.328 0.14 7 42.63 8.63
9/2/2021 9:00:00 AM 17.93 64.274 0.141 6.99 41.67 8.62
9/2/2021 9:15:00 AM 17.91 64.238 0.141 7 33.59 8.65
9/2/2021 9:30:00 AM 17.9 64.22 0.142 7 37.16 8.67
9/2/2021 9:45:00 AM 17.9 64.22 0.142 7 35.84 8.67
9/2/2021 10:00:00 AM 17.91<